<?xml version="1.0" encoding="UTF-8" standalone="no" ?>
<gpx xmlns="http://www.topografix.com/GPX/1/1" xmlns:xsi="http://www.w3.org/2001/XMLSchema-instance" xsi:schemaLocation="http://www.topografix.com/GPX/1/1 http://www.topografix.com/GPX/1/1/gpx.xsd" version="1.1" creator="VisuGPX - https://www.visugpx.com">
  <metadata>
    <name>Sortie_cyclo_17_05_2013 (Lannion  -  Plougrescant)</name>
    <desc><![CDATA[Très beau circuit par beau temps du coté de Port Blanc.]]></desc>
  </metadata>
  <trk>
    <name><![CDATA[17-MAI-13 17:55:53]]></name>
    <trkseg>
      <trkpt lat="48.74706" lon="-3.45504">
        <ele>116.46</ele>
        <time>2013-05-17T13:29:19Z</time>
      </trkpt>
      <trkpt lat="48.74707" lon="-3.45502">
        <ele>116.46</ele>
        <time>2013-05-17T13:29:28Z</time>
      </trkpt>
      <trkpt lat="48.74708" lon="-3.45498">
        <ele>115.98</ele>
        <time>2013-05-17T13:29:39Z</time>
      </trkpt>
      <trkpt lat="48.74706" lon="-3.45498">
        <ele>115.98</ele>
        <time>2013-05-17T13:29:49Z</time>
      </trkpt>
      <trkpt lat="48.7469" lon="-3.45504">
        <ele>115.98</ele>
        <time>2013-05-17T13:29:57Z</time>
      </trkpt>
      <trkpt lat="48.74687" lon="-3.455">
        <ele>115.5</ele>
        <time>2013-05-17T13:29:58Z</time>
      </trkpt>
      <trkpt lat="48.74683" lon="-3.45496">
        <ele>115.5</ele>
        <time>2013-05-17T13:29:59Z</time>
      </trkpt>
      <trkpt lat="48.74633" lon="-3.45469">
        <ele>112.61</ele>
        <time>2013-05-17T13:30:06Z</time>
      </trkpt>
      <trkpt lat="48.74626" lon="-3.45467">
        <ele>111.65</ele>
        <time>2013-05-17T13:30:07Z</time>
      </trkpt>
      <trkpt lat="48.74619" lon="-3.45469">
        <ele>110.21</ele>
        <time>2013-05-17T13:30:08Z</time>
      </trkpt>
      <trkpt lat="48.74612" lon="-3.45474">
        <ele>108.77</ele>
        <time>2013-05-17T13:30:09Z</time>
      </trkpt>
      <trkpt lat="48.74607" lon="-3.45481">
        <ele>107.32</ele>
        <time>2013-05-17T13:30:10Z</time>
      </trkpt>
      <trkpt lat="48.74603" lon="-3.45489">
        <ele>105.88</ele>
        <time>2013-05-17T13:30:11Z</time>
      </trkpt>
      <trkpt lat="48.74598" lon="-3.45502">
        <ele>102.52</ele>
        <time>2013-05-17T13:30:13Z</time>
      </trkpt>
      <trkpt lat="48.74596" lon="-3.45506">
        <ele>99.15</ele>
        <time>2013-05-17T13:30:17Z</time>
      </trkpt>
      <trkpt lat="48.74595" lon="-3.45508">
        <ele>97.23</ele>
        <time>2013-05-17T13:30:19Z</time>
      </trkpt>
      <trkpt lat="48.7459" lon="-3.45511">
        <ele>95.31</ele>
        <time>2013-05-17T13:30:22Z</time>
      </trkpt>
      <trkpt lat="48.74588" lon="-3.4551">
        <ele>94.83</ele>
        <time>2013-05-17T13:30:23Z</time>
      </trkpt>
      <trkpt lat="48.74585" lon="-3.45509">
        <ele>93.87</ele>
        <time>2013-05-17T13:30:24Z</time>
      </trkpt>
      <trkpt lat="48.74574" lon="-3.45502">
        <ele>90.98</ele>
        <time>2013-05-17T13:30:27Z</time>
      </trkpt>
      <trkpt lat="48.74555" lon="-3.45475">
        <ele>87.14</ele>
        <time>2013-05-17T13:30:31Z</time>
      </trkpt>
      <trkpt lat="48.74549" lon="-3.45466">
        <ele>86.18</ele>
        <time>2013-05-17T13:30:32Z</time>
      </trkpt>
      <trkpt lat="48.74544" lon="-3.45456">
        <ele>85.21</ele>
        <time>2013-05-17T13:30:33Z</time>
      </trkpt>
      <trkpt lat="48.74504" lon="-3.45384">
        <ele>81.85</ele>
        <time>2013-05-17T13:30:40Z</time>
      </trkpt>
      <trkpt lat="48.74488" lon="-3.4536">
        <ele>82.33</ele>
        <time>2013-05-17T13:30:44Z</time>
      </trkpt>
      <trkpt lat="48.74482" lon="-3.45351">
        <ele>80.89</ele>
        <time>2013-05-17T13:30:46Z</time>
      </trkpt>
      <trkpt lat="48.7447" lon="-3.45336">
        <ele>80.41</ele>
        <time>2013-05-17T13:30:50Z</time>
      </trkpt>
      <trkpt lat="48.74467" lon="-3.45333">
        <ele>80.41</ele>
        <time>2013-05-17T13:30:51Z</time>
      </trkpt>
      <trkpt lat="48.74464" lon="-3.45329">
        <ele>80.41</ele>
        <time>2013-05-17T13:30:52Z</time>
      </trkpt>
      <trkpt lat="48.74461" lon="-3.45325">
        <ele>80.41</ele>
        <time>2013-05-17T13:30:53Z</time>
      </trkpt>
      <trkpt lat="48.74458" lon="-3.45321">
        <ele>80.41</ele>
        <time>2013-05-17T13:30:54Z</time>
      </trkpt>
      <trkpt lat="48.74426" lon="-3.45274">
        <ele>78.48</ele>
        <time>2013-05-17T13:31:08Z</time>
      </trkpt>
      <trkpt lat="48.74415" lon="-3.4526">
        <ele>75.6</ele>
        <time>2013-05-17T13:31:20Z</time>
      </trkpt>
      <trkpt lat="48.74415" lon="-3.45259">
        <ele>73.2</ele>
        <time>2013-05-17T13:31:30Z</time>
      </trkpt>
      <trkpt lat="48.74412" lon="-3.45255">
        <ele>73.2</ele>
        <time>2013-05-17T13:31:33Z</time>
      </trkpt>
      <trkpt lat="48.74411" lon="-3.45253">
        <ele>73.68</ele>
        <time>2013-05-17T13:31:34Z</time>
      </trkpt>
      <trkpt lat="48.74405" lon="-3.45245">
        <ele>72.72</ele>
        <time>2013-05-17T13:31:39Z</time>
      </trkpt>
      <trkpt lat="48.74405" lon="-3.45241">
        <ele>72.24</ele>
        <time>2013-05-17T13:31:40Z</time>
      </trkpt>
      <trkpt lat="48.74406" lon="-3.45238">
        <ele>72.72</ele>
        <time>2013-05-17T13:31:41Z</time>
      </trkpt>
      <trkpt lat="48.74407" lon="-3.45235">
        <ele>72.72</ele>
        <time>2013-05-17T13:31:42Z</time>
      </trkpt>
      <trkpt lat="48.74409" lon="-3.45231">
        <ele>72.72</ele>
        <time>2013-05-17T13:31:43Z</time>
      </trkpt>
      <trkpt lat="48.74411" lon="-3.45228">
        <ele>73.2</ele>
        <time>2013-05-17T13:31:44Z</time>
      </trkpt>
      <trkpt lat="48.74413" lon="-3.45224">
        <ele>73.68</ele>
        <time>2013-05-17T13:31:45Z</time>
      </trkpt>
      <trkpt lat="48.74416" lon="-3.45221">
        <ele>73.2</ele>
        <time>2013-05-17T13:31:46Z</time>
      </trkpt>
      <trkpt lat="48.74461" lon="-3.45189">
        <ele>72.72</ele>
        <time>2013-05-17T13:31:59Z</time>
      </trkpt>
      <trkpt lat="48.74469" lon="-3.45184">
        <ele>72.24</ele>
        <time>2013-05-17T13:32:01Z</time>
      </trkpt>
      <trkpt lat="48.74535" lon="-3.4514">
        <ele>73.2</ele>
        <time>2013-05-17T13:32:19Z</time>
      </trkpt>
      <trkpt lat="48.74598" lon="-3.45097">
        <ele>74.64</ele>
        <time>2013-05-17T13:32:36Z</time>
      </trkpt>
      <trkpt lat="48.74639" lon="-3.45072">
        <ele>77.04</ele>
        <time>2013-05-17T13:32:48Z</time>
      </trkpt>
      <trkpt lat="48.74674" lon="-3.45043">
        <ele>79.93</ele>
        <time>2013-05-17T13:33:00Z</time>
      </trkpt>
      <trkpt lat="48.74713" lon="-3.45005">
        <ele>83.29</ele>
        <time>2013-05-17T13:33:13Z</time>
      </trkpt>
      <trkpt lat="48.74743" lon="-3.44971">
        <ele>84.73</ele>
        <time>2013-05-17T13:33:25Z</time>
      </trkpt>
      <trkpt lat="48.7477" lon="-3.44933">
        <ele>88.1</ele>
        <time>2013-05-17T13:33:37Z</time>
      </trkpt>
      <trkpt lat="48.74795" lon="-3.44894">
        <ele>88.58</ele>
        <time>2013-05-17T13:33:48Z</time>
      </trkpt>
      <trkpt lat="48.74831" lon="-3.44847">
        <ele>88.58</ele>
        <time>2013-05-17T13:34:01Z</time>
      </trkpt>
      <trkpt lat="48.74835" lon="-3.44846">
        <ele>88.58</ele>
        <time>2013-05-17T13:34:02Z</time>
      </trkpt>
      <trkpt lat="48.74839" lon="-3.44844">
        <ele>88.1</ele>
        <time>2013-05-17T13:34:03Z</time>
      </trkpt>
      <trkpt lat="48.74842" lon="-3.44842">
        <ele>88.58</ele>
        <time>2013-05-17T13:34:04Z</time>
      </trkpt>
      <trkpt lat="48.74845" lon="-3.44838">
        <ele>89.06</ele>
        <time>2013-05-17T13:34:05Z</time>
      </trkpt>
      <trkpt lat="48.74848" lon="-3.44835">
        <ele>89.06</ele>
        <time>2013-05-17T13:34:06Z</time>
      </trkpt>
      <trkpt lat="48.74906" lon="-3.44761">
        <ele>90.02</ele>
        <time>2013-05-17T13:34:25Z</time>
      </trkpt>
      <trkpt lat="48.74929" lon="-3.44732">
        <ele>89.54</ele>
        <time>2013-05-17T13:34:36Z</time>
      </trkpt>
      <trkpt lat="48.7493" lon="-3.44729">
        <ele>89.54</ele>
        <time>2013-05-17T13:34:52Z</time>
      </trkpt>
      <trkpt lat="48.7493" lon="-3.44728">
        <ele>89.54</ele>
        <time>2013-05-17T13:35:12Z</time>
      </trkpt>
      <trkpt lat="48.74931" lon="-3.44725">
        <ele>89.54</ele>
        <time>2013-05-17T13:35:29Z</time>
      </trkpt>
      <trkpt lat="48.74957" lon="-3.44699">
        <ele>90.5</ele>
        <time>2013-05-17T13:35:39Z</time>
      </trkpt>
      <trkpt lat="48.75007" lon="-3.44642">
        <ele>90.98</ele>
        <time>2013-05-17T13:35:53Z</time>
      </trkpt>
      <trkpt lat="48.75072" lon="-3.44595">
        <ele>94.35</ele>
        <time>2013-05-17T13:36:10Z</time>
      </trkpt>
      <trkpt lat="48.75085" lon="-3.44583">
        <ele>95.79</ele>
        <time>2013-05-17T13:36:14Z</time>
      </trkpt>
      <trkpt lat="48.75089" lon="-3.44579">
        <ele>95.31</ele>
        <time>2013-05-17T13:36:15Z</time>
      </trkpt>
      <trkpt lat="48.75103" lon="-3.44559">
        <ele>94.83</ele>
        <time>2013-05-17T13:36:23Z</time>
      </trkpt>
      <trkpt lat="48.75109" lon="-3.44551">
        <ele>94.83</ele>
        <time>2013-05-17T13:36:25Z</time>
      </trkpt>
      <trkpt lat="48.75117" lon="-3.44537">
        <ele>95.79</ele>
        <time>2013-05-17T13:36:28Z</time>
      </trkpt>
      <trkpt lat="48.75121" lon="-3.44525">
        <ele>95.79</ele>
        <time>2013-05-17T13:36:30Z</time>
      </trkpt>
      <trkpt lat="48.75123" lon="-3.4452">
        <ele>96.27</ele>
        <time>2013-05-17T13:36:31Z</time>
      </trkpt>
      <trkpt lat="48.75126" lon="-3.44515">
        <ele>96.27</ele>
        <time>2013-05-17T13:36:32Z</time>
      </trkpt>
      <trkpt lat="48.75128" lon="-3.4451">
        <ele>96.75</ele>
        <time>2013-05-17T13:36:33Z</time>
      </trkpt>
      <trkpt lat="48.7513" lon="-3.44504">
        <ele>96.27</ele>
        <time>2013-05-17T13:36:34Z</time>
      </trkpt>
      <trkpt lat="48.75177" lon="-3.44421">
        <ele>97.23</ele>
        <time>2013-05-17T13:36:50Z</time>
      </trkpt>
      <trkpt lat="48.75227" lon="-3.44346">
        <ele>98.67</ele>
        <time>2013-05-17T13:37:05Z</time>
      </trkpt>
      <trkpt lat="48.75231" lon="-3.44342">
        <ele>98.19</ele>
        <time>2013-05-17T13:37:06Z</time>
      </trkpt>
      <trkpt lat="48.75292" lon="-3.44254">
        <ele>99.15</ele>
        <time>2013-05-17T13:37:23Z</time>
      </trkpt>
      <trkpt lat="48.75307" lon="-3.44225">
        <ele>99.15</ele>
        <time>2013-05-17T13:37:28Z</time>
      </trkpt>
      <trkpt lat="48.75309" lon="-3.44219">
        <ele>99.15</ele>
        <time>2013-05-17T13:37:29Z</time>
      </trkpt>
      <trkpt lat="48.7534" lon="-3.44126">
        <ele>99.63</ele>
        <time>2013-05-17T13:37:44Z</time>
      </trkpt>
      <trkpt lat="48.75404" lon="-3.4401">
        <ele>99.63</ele>
        <time>2013-05-17T13:38:04Z</time>
      </trkpt>
      <trkpt lat="48.75463" lon="-3.43954">
        <ele>100.11</ele>
        <time>2013-05-17T13:38:19Z</time>
      </trkpt>
      <trkpt lat="48.75545" lon="-3.43907">
        <ele>100.6</ele>
        <time>2013-05-17T13:38:38Z</time>
      </trkpt>
      <trkpt lat="48.75629" lon="-3.43861">
        <ele>103</ele>
        <time>2013-05-17T13:38:57Z</time>
      </trkpt>
      <trkpt lat="48.75706" lon="-3.43819">
        <ele>103</ele>
        <time>2013-05-17T13:39:15Z</time>
      </trkpt>
      <trkpt lat="48.75773" lon="-3.43784">
        <ele>103.48</ele>
        <time>2013-05-17T13:39:30Z</time>
      </trkpt>
      <trkpt lat="48.75777" lon="-3.43782">
        <ele>103</ele>
        <time>2013-05-17T13:39:31Z</time>
      </trkpt>
      <trkpt lat="48.7578" lon="-3.4378">
        <ele>103</ele>
        <time>2013-05-17T13:39:32Z</time>
      </trkpt>
      <trkpt lat="48.75784" lon="-3.43778">
        <ele>102.52</ele>
        <time>2013-05-17T13:39:33Z</time>
      </trkpt>
      <trkpt lat="48.75787" lon="-3.43777">
        <ele>102.52</ele>
        <time>2013-05-17T13:39:34Z</time>
      </trkpt>
      <trkpt lat="48.75791" lon="-3.43775">
        <ele>102.52</ele>
        <time>2013-05-17T13:39:35Z</time>
      </trkpt>
      <trkpt lat="48.75795" lon="-3.43772">
        <ele>102.52</ele>
        <time>2013-05-17T13:39:36Z</time>
      </trkpt>
      <trkpt lat="48.75799" lon="-3.43769">
        <ele>102.04</ele>
        <time>2013-05-17T13:39:37Z</time>
      </trkpt>
      <trkpt lat="48.75873" lon="-3.43728">
        <ele>102.52</ele>
        <time>2013-05-17T13:39:54Z</time>
      </trkpt>
      <trkpt lat="48.7593" lon="-3.43688">
        <ele>103</ele>
        <time>2013-05-17T13:40:07Z</time>
      </trkpt>
      <trkpt lat="48.76003" lon="-3.43617">
        <ele>103</ele>
        <time>2013-05-17T13:40:25Z</time>
      </trkpt>
      <trkpt lat="48.76075" lon="-3.43514">
        <ele>103.96</ele>
        <time>2013-05-17T13:40:45Z</time>
      </trkpt>
      <trkpt lat="48.76137" lon="-3.43398">
        <ele>103.48</ele>
        <time>2013-05-17T13:41:04Z</time>
      </trkpt>
      <trkpt lat="48.7621" lon="-3.43273">
        <ele>101.56</ele>
        <time>2013-05-17T13:41:25Z</time>
      </trkpt>
      <trkpt lat="48.76214" lon="-3.43268">
        <ele>101.56</ele>
        <time>2013-05-17T13:41:26Z</time>
      </trkpt>
      <trkpt lat="48.76218" lon="-3.43263">
        <ele>101.56</ele>
        <time>2013-05-17T13:41:27Z</time>
      </trkpt>
      <trkpt lat="48.76222" lon="-3.43258">
        <ele>100.6</ele>
        <time>2013-05-17T13:41:28Z</time>
      </trkpt>
      <trkpt lat="48.7629" lon="-3.43181">
        <ele>98.67</ele>
        <time>2013-05-17T13:41:43Z</time>
      </trkpt>
      <trkpt lat="48.76377" lon="-3.43114">
        <ele>96.27</ele>
        <time>2013-05-17T13:41:59Z</time>
      </trkpt>
      <trkpt lat="48.76483" lon="-3.43061">
        <ele>94.35</ele>
        <time>2013-05-17T13:42:17Z</time>
      </trkpt>
      <trkpt lat="48.76581" lon="-3.42997">
        <ele>91.94</ele>
        <time>2013-05-17T13:42:34Z</time>
      </trkpt>
      <trkpt lat="48.76602" lon="-3.42976">
        <ele>91.46</ele>
        <time>2013-05-17T13:42:38Z</time>
      </trkpt>
      <trkpt lat="48.76681" lon="-3.42882">
        <ele>90.02</ele>
        <time>2013-05-17T13:42:54Z</time>
      </trkpt>
      <trkpt lat="48.76763" lon="-3.42797">
        <ele>89.06</ele>
        <time>2013-05-17T13:43:10Z</time>
      </trkpt>
      <trkpt lat="48.76853" lon="-3.4273">
        <ele>90.5</ele>
        <time>2013-05-17T13:43:27Z</time>
      </trkpt>
      <trkpt lat="48.76888" lon="-3.42703">
        <ele>90.02</ele>
        <time>2013-05-17T13:43:34Z</time>
      </trkpt>
      <trkpt lat="48.76971" lon="-3.42609">
        <ele>90.5</ele>
        <time>2013-05-17T13:43:52Z</time>
      </trkpt>
      <trkpt lat="48.77052" lon="-3.42487">
        <ele>87.14</ele>
        <time>2013-05-17T13:44:11Z</time>
      </trkpt>
      <trkpt lat="48.77056" lon="-3.4248">
        <ele>86.66</ele>
        <time>2013-05-17T13:44:12Z</time>
      </trkpt>
      <trkpt lat="48.77135" lon="-3.4236">
        <ele>83.29</ele>
        <time>2013-05-17T13:44:29Z</time>
      </trkpt>
      <trkpt lat="48.77225" lon="-3.42224">
        <ele>81.37</ele>
        <time>2013-05-17T13:44:49Z</time>
      </trkpt>
      <trkpt lat="48.773" lon="-3.42108">
        <ele>79.45</ele>
        <time>2013-05-17T13:45:06Z</time>
      </trkpt>
      <trkpt lat="48.77353" lon="-3.41988">
        <ele>78.97</ele>
        <time>2013-05-17T13:45:21Z</time>
      </trkpt>
      <trkpt lat="48.77416" lon="-3.41853">
        <ele>77.04</ele>
        <time>2013-05-17T13:45:38Z</time>
      </trkpt>
      <trkpt lat="48.77506" lon="-3.41731">
        <ele>76.56</ele>
        <time>2013-05-17T13:45:57Z</time>
      </trkpt>
      <trkpt lat="48.77543" lon="-3.41686">
        <ele>78.48</ele>
        <time>2013-05-17T13:46:05Z</time>
      </trkpt>
      <trkpt lat="48.77612" lon="-3.41599">
        <ele>79.45</ele>
        <time>2013-05-17T13:46:22Z</time>
      </trkpt>
      <trkpt lat="48.7768" lon="-3.41511">
        <ele>81.85</ele>
        <time>2013-05-17T13:46:40Z</time>
      </trkpt>
      <trkpt lat="48.77739" lon="-3.41405">
        <ele>84.73</ele>
        <time>2013-05-17T13:46:59Z</time>
      </trkpt>
      <trkpt lat="48.77767" lon="-3.41328">
        <ele>85.69</ele>
        <time>2013-05-17T13:47:11Z</time>
      </trkpt>
      <trkpt lat="48.77777" lon="-3.41294">
        <ele>87.62</ele>
        <time>2013-05-17T13:47:16Z</time>
      </trkpt>
      <trkpt lat="48.77779" lon="-3.41287">
        <ele>87.14</ele>
        <time>2013-05-17T13:47:17Z</time>
      </trkpt>
      <trkpt lat="48.77798" lon="-3.4121">
        <ele>87.14</ele>
        <time>2013-05-17T13:47:28Z</time>
      </trkpt>
      <trkpt lat="48.77837" lon="-3.41052">
        <ele>87.14</ele>
        <time>2013-05-17T13:47:50Z</time>
      </trkpt>
      <trkpt lat="48.7787" lon="-3.40922">
        <ele>87.62</ele>
        <time>2013-05-17T13:48:08Z</time>
      </trkpt>
      <trkpt lat="48.77907" lon="-3.4078">
        <ele>88.58</ele>
        <time>2013-05-17T13:48:28Z</time>
      </trkpt>
      <trkpt lat="48.77946" lon="-3.40654">
        <ele>90.5</ele>
        <time>2013-05-17T13:48:46Z</time>
      </trkpt>
      <trkpt lat="48.77991" lon="-3.40535">
        <ele>90.98</ele>
        <time>2013-05-17T13:49:04Z</time>
      </trkpt>
      <trkpt lat="48.78039" lon="-3.40416">
        <ele>91.94</ele>
        <time>2013-05-17T13:49:22Z</time>
      </trkpt>
      <trkpt lat="48.78093" lon="-3.40285">
        <ele>92.42</ele>
        <time>2013-05-17T13:49:42Z</time>
      </trkpt>
      <trkpt lat="48.7815" lon="-3.4015">
        <ele>91.46</ele>
        <time>2013-05-17T13:50:01Z</time>
      </trkpt>
      <trkpt lat="48.7821" lon="-3.40004">
        <ele>90.5</ele>
        <time>2013-05-17T13:50:21Z</time>
      </trkpt>
      <trkpt lat="48.78263" lon="-3.39876">
        <ele>90.98</ele>
        <time>2013-05-17T13:50:39Z</time>
      </trkpt>
      <trkpt lat="48.78325" lon="-3.39764">
        <ele>91.94</ele>
        <time>2013-05-17T13:50:57Z</time>
      </trkpt>
      <trkpt lat="48.7841" lon="-3.3968">
        <ele>90.5</ele>
        <time>2013-05-17T13:51:16Z</time>
      </trkpt>
      <trkpt lat="48.78486" lon="-3.39655">
        <ele>89.54</ele>
        <time>2013-05-17T13:51:30Z</time>
      </trkpt>
      <trkpt lat="48.7849" lon="-3.39651">
        <ele>89.06</ele>
        <time>2013-05-17T13:51:31Z</time>
      </trkpt>
      <trkpt lat="48.78494" lon="-3.39645">
        <ele>89.06</ele>
        <time>2013-05-17T13:51:32Z</time>
      </trkpt>
      <trkpt lat="48.78496" lon="-3.39637">
        <ele>89.54</ele>
        <time>2013-05-17T13:51:33Z</time>
      </trkpt>
      <trkpt lat="48.78498" lon="-3.3963">
        <ele>89.54</ele>
        <time>2013-05-17T13:51:34Z</time>
      </trkpt>
      <trkpt lat="48.785" lon="-3.39622">
        <ele>90.02</ele>
        <time>2013-05-17T13:51:35Z</time>
      </trkpt>
      <trkpt lat="48.78503" lon="-3.39616">
        <ele>89.54</ele>
        <time>2013-05-17T13:51:36Z</time>
      </trkpt>
      <trkpt lat="48.7851" lon="-3.39604">
        <ele>89.54</ele>
        <time>2013-05-17T13:51:38Z</time>
      </trkpt>
      <trkpt lat="48.78513" lon="-3.39597">
        <ele>89.54</ele>
        <time>2013-05-17T13:51:39Z</time>
      </trkpt>
      <trkpt lat="48.78515" lon="-3.3959">
        <ele>89.06</ele>
        <time>2013-05-17T13:51:40Z</time>
      </trkpt>
      <trkpt lat="48.78519" lon="-3.39583">
        <ele>88.58</ele>
        <time>2013-05-17T13:51:41Z</time>
      </trkpt>
      <trkpt lat="48.78522" lon="-3.39577">
        <ele>88.58</ele>
        <time>2013-05-17T13:51:42Z</time>
      </trkpt>
      <trkpt lat="48.78527" lon="-3.39571">
        <ele>88.58</ele>
        <time>2013-05-17T13:51:43Z</time>
      </trkpt>
      <trkpt lat="48.78531" lon="-3.39566">
        <ele>88.58</ele>
        <time>2013-05-17T13:51:44Z</time>
      </trkpt>
      <trkpt lat="48.78534" lon="-3.39559">
        <ele>88.58</ele>
        <time>2013-05-17T13:51:45Z</time>
      </trkpt>
      <trkpt lat="48.78536" lon="-3.39552">
        <ele>89.06</ele>
        <time>2013-05-17T13:51:46Z</time>
      </trkpt>
      <trkpt lat="48.78538" lon="-3.39544">
        <ele>89.06</ele>
        <time>2013-05-17T13:51:47Z</time>
      </trkpt>
      <trkpt lat="48.7854" lon="-3.39537">
        <ele>89.06</ele>
        <time>2013-05-17T13:51:48Z</time>
      </trkpt>
      <trkpt lat="48.78586" lon="-3.39397">
        <ele>88.58</ele>
        <time>2013-05-17T13:52:07Z</time>
      </trkpt>
      <trkpt lat="48.78592" lon="-3.39383">
        <ele>88.58</ele>
        <time>2013-05-17T13:52:09Z</time>
      </trkpt>
      <trkpt lat="48.78643" lon="-3.39282">
        <ele>88.58</ele>
        <time>2013-05-17T13:52:24Z</time>
      </trkpt>
      <trkpt lat="48.78693" lon="-3.39173">
        <ele>88.58</ele>
        <time>2013-05-17T13:52:40Z</time>
      </trkpt>
      <trkpt lat="48.78721" lon="-3.39122">
        <ele>89.06</ele>
        <time>2013-05-17T13:52:48Z</time>
      </trkpt>
      <trkpt lat="48.78786" lon="-3.39044">
        <ele>88.1</ele>
        <time>2013-05-17T13:53:03Z</time>
      </trkpt>
      <trkpt lat="48.78843" lon="-3.38962">
        <ele>88.1</ele>
        <time>2013-05-17T13:53:18Z</time>
      </trkpt>
      <trkpt lat="48.78912" lon="-3.38869">
        <ele>87.62</ele>
        <time>2013-05-17T13:53:35Z</time>
      </trkpt>
      <trkpt lat="48.78933" lon="-3.38802">
        <ele>84.73</ele>
        <time>2013-05-17T13:53:43Z</time>
      </trkpt>
      <trkpt lat="48.78948" lon="-3.38711">
        <ele>81.37</ele>
        <time>2013-05-17T13:53:52Z</time>
      </trkpt>
      <trkpt lat="48.78978" lon="-3.38597">
        <ele>80.41</ele>
        <time>2013-05-17T13:54:05Z</time>
      </trkpt>
      <trkpt lat="48.79009" lon="-3.38474">
        <ele>78</ele>
        <time>2013-05-17T13:54:19Z</time>
      </trkpt>
      <trkpt lat="48.79013" lon="-3.38374">
        <ele>74.64</ele>
        <time>2013-05-17T13:54:29Z</time>
      </trkpt>
      <trkpt lat="48.79013" lon="-3.38364">
        <ele>74.64</ele>
        <time>2013-05-17T13:54:30Z</time>
      </trkpt>
      <trkpt lat="48.79014" lon="-3.38261">
        <ele>71.27</ele>
        <time>2013-05-17T13:54:39Z</time>
      </trkpt>
      <trkpt lat="48.79015" lon="-3.38202">
        <ele>69.83</ele>
        <time>2013-05-17T13:54:44Z</time>
      </trkpt>
      <trkpt lat="48.79017" lon="-3.38165">
        <ele>68.39</ele>
        <time>2013-05-17T13:54:47Z</time>
      </trkpt>
      <trkpt lat="48.79029" lon="-3.38089">
        <ele>65.51</ele>
        <time>2013-05-17T13:54:53Z</time>
      </trkpt>
      <trkpt lat="48.79044" lon="-3.38039">
        <ele>63.58</ele>
        <time>2013-05-17T13:54:57Z</time>
      </trkpt>
      <trkpt lat="48.79063" lon="-3.37974">
        <ele>60.22</ele>
        <time>2013-05-17T13:55:02Z</time>
      </trkpt>
      <trkpt lat="48.79067" lon="-3.37961">
        <ele>59.74</ele>
        <time>2013-05-17T13:55:03Z</time>
      </trkpt>
      <trkpt lat="48.79093" lon="-3.37888">
        <ele>58.3</ele>
        <time>2013-05-17T13:55:09Z</time>
      </trkpt>
      <trkpt lat="48.79099" lon="-3.37878">
        <ele>57.82</ele>
        <time>2013-05-17T13:55:10Z</time>
      </trkpt>
      <trkpt lat="48.79105" lon="-3.37871">
        <ele>56.86</ele>
        <time>2013-05-17T13:55:11Z</time>
      </trkpt>
      <trkpt lat="48.79112" lon="-3.37864">
        <ele>56.37</ele>
        <time>2013-05-17T13:55:12Z</time>
      </trkpt>
      <trkpt lat="48.79119" lon="-3.37858">
        <ele>55.41</ele>
        <time>2013-05-17T13:55:13Z</time>
      </trkpt>
      <trkpt lat="48.79127" lon="-3.37853">
        <ele>54.93</ele>
        <time>2013-05-17T13:55:14Z</time>
      </trkpt>
      <trkpt lat="48.79135" lon="-3.37848">
        <ele>54.45</ele>
        <time>2013-05-17T13:55:15Z</time>
      </trkpt>
      <trkpt lat="48.79143" lon="-3.37844">
        <ele>53.97</ele>
        <time>2013-05-17T13:55:16Z</time>
      </trkpt>
      <trkpt lat="48.79151" lon="-3.37838">
        <ele>54.45</ele>
        <time>2013-05-17T13:55:17Z</time>
      </trkpt>
      <trkpt lat="48.79166" lon="-3.37825">
        <ele>53.01</ele>
        <time>2013-05-17T13:55:19Z</time>
      </trkpt>
      <trkpt lat="48.79172" lon="-3.37817">
        <ele>53.01</ele>
        <time>2013-05-17T13:55:20Z</time>
      </trkpt>
      <trkpt lat="48.79178" lon="-3.37808">
        <ele>53.49</ele>
        <time>2013-05-17T13:55:21Z</time>
      </trkpt>
      <trkpt lat="48.79201" lon="-3.37762">
        <ele>52.53</ele>
        <time>2013-05-17T13:55:26Z</time>
      </trkpt>
      <trkpt lat="48.79206" lon="-3.37757">
        <ele>53.01</ele>
        <time>2013-05-17T13:55:27Z</time>
      </trkpt>
      <trkpt lat="48.79211" lon="-3.37753">
        <ele>53.01</ele>
        <time>2013-05-17T13:55:28Z</time>
      </trkpt>
      <trkpt lat="48.79216" lon="-3.3775">
        <ele>53.01</ele>
        <time>2013-05-17T13:55:29Z</time>
      </trkpt>
      <trkpt lat="48.79221" lon="-3.37748">
        <ele>53.01</ele>
        <time>2013-05-17T13:55:30Z</time>
      </trkpt>
      <trkpt lat="48.79226" lon="-3.37748">
        <ele>53.49</ele>
        <time>2013-05-17T13:55:31Z</time>
      </trkpt>
      <trkpt lat="48.79232" lon="-3.37748">
        <ele>53.49</ele>
        <time>2013-05-17T13:55:32Z</time>
      </trkpt>
      <trkpt lat="48.79237" lon="-3.37749">
        <ele>54.45</ele>
        <time>2013-05-17T13:55:33Z</time>
      </trkpt>
      <trkpt lat="48.79242" lon="-3.37751">
        <ele>53.97</ele>
        <time>2013-05-17T13:55:34Z</time>
      </trkpt>
      <trkpt lat="48.79265" lon="-3.37761">
        <ele>54.93</ele>
        <time>2013-05-17T13:55:39Z</time>
      </trkpt>
      <trkpt lat="48.79269" lon="-3.37765">
        <ele>54.93</ele>
        <time>2013-05-17T13:55:40Z</time>
      </trkpt>
      <trkpt lat="48.79317" lon="-3.37818">
        <ele>57.34</ele>
        <time>2013-05-17T13:55:54Z</time>
      </trkpt>
      <trkpt lat="48.79346" lon="-3.37852">
        <ele>58.3</ele>
        <time>2013-05-17T13:56:01Z</time>
      </trkpt>
      <trkpt lat="48.79358" lon="-3.37887">
        <ele>60.22</ele>
        <time>2013-05-17T13:56:07Z</time>
      </trkpt>
      <trkpt lat="48.7936" lon="-3.37895">
        <ele>60.22</ele>
        <time>2013-05-17T13:56:08Z</time>
      </trkpt>
      <trkpt lat="48.79379" lon="-3.3794">
        <ele>61.18</ele>
        <time>2013-05-17T13:56:15Z</time>
      </trkpt>
      <trkpt lat="48.79383" lon="-3.37946">
        <ele>61.18</ele>
        <time>2013-05-17T13:56:16Z</time>
      </trkpt>
      <trkpt lat="48.79386" lon="-3.37951">
        <ele>61.66</ele>
        <time>2013-05-17T13:56:17Z</time>
      </trkpt>
      <trkpt lat="48.79422" lon="-3.38005">
        <ele>63.58</ele>
        <time>2013-05-17T13:56:28Z</time>
      </trkpt>
      <trkpt lat="48.79436" lon="-3.38043">
        <ele>64.55</ele>
        <time>2013-05-17T13:56:34Z</time>
      </trkpt>
      <trkpt lat="48.79441" lon="-3.38056">
        <ele>64.55</ele>
        <time>2013-05-17T13:56:36Z</time>
      </trkpt>
      <trkpt lat="48.7945" lon="-3.38074">
        <ele>65.03</ele>
        <time>2013-05-17T13:56:39Z</time>
      </trkpt>
      <trkpt lat="48.79453" lon="-3.38081">
        <ele>64.55</ele>
        <time>2013-05-17T13:56:40Z</time>
      </trkpt>
      <trkpt lat="48.79476" lon="-3.38122">
        <ele>65.03</ele>
        <time>2013-05-17T13:56:47Z</time>
      </trkpt>
      <trkpt lat="48.79482" lon="-3.38132">
        <ele>65.51</ele>
        <time>2013-05-17T13:56:49Z</time>
      </trkpt>
      <trkpt lat="48.79488" lon="-3.38142">
        <ele>65.51</ele>
        <time>2013-05-17T13:56:51Z</time>
      </trkpt>
      <trkpt lat="48.79491" lon="-3.38147">
        <ele>65.51</ele>
        <time>2013-05-17T13:56:52Z</time>
      </trkpt>
      <trkpt lat="48.79531" lon="-3.38201">
        <ele>66.47</ele>
        <time>2013-05-17T13:57:05Z</time>
      </trkpt>
      <trkpt lat="48.79577" lon="-3.3828">
        <ele>67.43</ele>
        <time>2013-05-17T13:57:19Z</time>
      </trkpt>
      <trkpt lat="48.79584" lon="-3.38289">
        <ele>67.91</ele>
        <time>2013-05-17T13:57:21Z</time>
      </trkpt>
      <trkpt lat="48.79588" lon="-3.38291">
        <ele>67.91</ele>
        <time>2013-05-17T13:57:22Z</time>
      </trkpt>
      <trkpt lat="48.79592" lon="-3.38294">
        <ele>67.91</ele>
        <time>2013-05-17T13:57:23Z</time>
      </trkpt>
      <trkpt lat="48.79648" lon="-3.38342">
        <ele>69.83</ele>
        <time>2013-05-17T13:57:36Z</time>
      </trkpt>
      <trkpt lat="48.79703" lon="-3.38362">
        <ele>70.31</ele>
        <time>2013-05-17T13:57:46Z</time>
      </trkpt>
      <trkpt lat="48.79708" lon="-3.38363">
        <ele>70.79</ele>
        <time>2013-05-17T13:57:47Z</time>
      </trkpt>
      <trkpt lat="48.79714" lon="-3.38363">
        <ele>71.27</ele>
        <time>2013-05-17T13:57:48Z</time>
      </trkpt>
      <trkpt lat="48.79794" lon="-3.38315">
        <ele>72.24</ele>
        <time>2013-05-17T13:58:05Z</time>
      </trkpt>
      <trkpt lat="48.79843" lon="-3.38229">
        <ele>73.2</ele>
        <time>2013-05-17T13:58:20Z</time>
      </trkpt>
      <trkpt lat="48.79867" lon="-3.38162">
        <ele>73.68</ele>
        <time>2013-05-17T13:58:30Z</time>
      </trkpt>
      <trkpt lat="48.7989" lon="-3.38108">
        <ele>75.6</ele>
        <time>2013-05-17T13:58:39Z</time>
      </trkpt>
      <trkpt lat="48.79951" lon="-3.38028">
        <ele>76.08</ele>
        <time>2013-05-17T13:58:55Z</time>
      </trkpt>
      <trkpt lat="48.79983" lon="-3.37999">
        <ele>76.56</ele>
        <time>2013-05-17T13:59:02Z</time>
      </trkpt>
      <trkpt lat="48.79988" lon="-3.37995">
        <ele>76.56</ele>
        <time>2013-05-17T13:59:03Z</time>
      </trkpt>
      <trkpt lat="48.80021" lon="-3.37957">
        <ele>76.56</ele>
        <time>2013-05-17T13:59:11Z</time>
      </trkpt>
      <trkpt lat="48.80024" lon="-3.37951">
        <ele>76.56</ele>
        <time>2013-05-17T13:59:12Z</time>
      </trkpt>
      <trkpt lat="48.80039" lon="-3.37908">
        <ele>76.56</ele>
        <time>2013-05-17T13:59:18Z</time>
      </trkpt>
      <trkpt lat="48.80053" lon="-3.37792">
        <ele>77.52</ele>
        <time>2013-05-17T13:59:33Z</time>
      </trkpt>
      <trkpt lat="48.8006" lon="-3.3777">
        <ele>77.52</ele>
        <time>2013-05-17T13:59:36Z</time>
      </trkpt>
      <trkpt lat="48.80063" lon="-3.37764">
        <ele>77.04</ele>
        <time>2013-05-17T13:59:37Z</time>
      </trkpt>
      <trkpt lat="48.80066" lon="-3.37758">
        <ele>77.04</ele>
        <time>2013-05-17T13:59:38Z</time>
      </trkpt>
      <trkpt lat="48.8007" lon="-3.37752">
        <ele>76.56</ele>
        <time>2013-05-17T13:59:39Z</time>
      </trkpt>
      <trkpt lat="48.80073" lon="-3.37746">
        <ele>76.56</ele>
        <time>2013-05-17T13:59:40Z</time>
      </trkpt>
      <trkpt lat="48.80135" lon="-3.37633">
        <ele>75.6</ele>
        <time>2013-05-17T13:59:57Z</time>
      </trkpt>
      <trkpt lat="48.80154" lon="-3.37612">
        <ele>75.6</ele>
        <time>2013-05-17T14:00:01Z</time>
      </trkpt>
      <trkpt lat="48.80245" lon="-3.37523">
        <ele>72.72</ele>
        <time>2013-05-17T14:00:19Z</time>
      </trkpt>
      <trkpt lat="48.80335" lon="-3.37432">
        <ele>71.76</ele>
        <time>2013-05-17T14:00:37Z</time>
      </trkpt>
      <trkpt lat="48.8043" lon="-3.37382">
        <ele>71.27</ele>
        <time>2013-05-17T14:00:54Z</time>
      </trkpt>
      <trkpt lat="48.80506" lon="-3.3733">
        <ele>69.83</ele>
        <time>2013-05-17T14:01:08Z</time>
      </trkpt>
      <trkpt lat="48.80528" lon="-3.3731">
        <ele>67.43</ele>
        <time>2013-05-17T14:01:16Z</time>
      </trkpt>
      <trkpt lat="48.80546" lon="-3.37301">
        <ele>67.91</ele>
        <time>2013-05-17T14:01:21Z</time>
      </trkpt>
      <trkpt lat="48.80607" lon="-3.37271">
        <ele>67.91</ele>
        <time>2013-05-17T14:01:33Z</time>
      </trkpt>
      <trkpt lat="48.8067" lon="-3.37203">
        <ele>68.39</ele>
        <time>2013-05-17T14:01:48Z</time>
      </trkpt>
      <trkpt lat="48.80729" lon="-3.37107">
        <ele>69.35</ele>
        <time>2013-05-17T14:02:05Z</time>
      </trkpt>
      <trkpt lat="48.8078" lon="-3.3697">
        <ele>67.43</ele>
        <time>2013-05-17T14:02:24Z</time>
      </trkpt>
      <trkpt lat="48.80785" lon="-3.36954">
        <ele>66.95</ele>
        <time>2013-05-17T14:02:26Z</time>
      </trkpt>
      <trkpt lat="48.80806" lon="-3.36892">
        <ele>64.55</ele>
        <time>2013-05-17T14:02:33Z</time>
      </trkpt>
      <trkpt lat="48.80824" lon="-3.36833">
        <ele>63.58</ele>
        <time>2013-05-17T14:02:40Z</time>
      </trkpt>
      <trkpt lat="48.80825" lon="-3.36825">
        <ele>64.07</ele>
        <time>2013-05-17T14:02:41Z</time>
      </trkpt>
      <trkpt lat="48.80832" lon="-3.36714">
        <ele>65.99</ele>
        <time>2013-05-17T14:02:55Z</time>
      </trkpt>
      <trkpt lat="48.80836" lon="-3.36691">
        <ele>65.51</ele>
        <time>2013-05-17T14:02:58Z</time>
      </trkpt>
      <trkpt lat="48.80846" lon="-3.36642">
        <ele>64.07</ele>
        <time>2013-05-17T14:03:08Z</time>
      </trkpt>
      <trkpt lat="48.80846" lon="-3.36642">
        <ele>65.03</ele>
        <time>2013-05-17T14:03:30Z</time>
      </trkpt>
      <trkpt lat="48.80846" lon="-3.36642">
        <ele>64.55</ele>
        <time>2013-05-17T14:03:42Z</time>
      </trkpt>
      <trkpt lat="48.80848" lon="-3.36635">
        <ele>64.55</ele>
        <time>2013-05-17T14:03:45Z</time>
      </trkpt>
      <trkpt lat="48.80849" lon="-3.36632">
        <ele>65.03</ele>
        <time>2013-05-17T14:03:46Z</time>
      </trkpt>
      <trkpt lat="48.80851" lon="-3.36628">
        <ele>65.03</ele>
        <time>2013-05-17T14:03:47Z</time>
      </trkpt>
      <trkpt lat="48.80856" lon="-3.36609">
        <ele>65.03</ele>
        <time>2013-05-17T14:03:50Z</time>
      </trkpt>
      <trkpt lat="48.80902" lon="-3.36499">
        <ele>62.14</ele>
        <time>2013-05-17T14:04:04Z</time>
      </trkpt>
      <trkpt lat="48.80913" lon="-3.36483">
        <ele>61.18</ele>
        <time>2013-05-17T14:04:06Z</time>
      </trkpt>
      <trkpt lat="48.80952" lon="-3.36439">
        <ele>57.82</ele>
        <time>2013-05-17T14:04:12Z</time>
      </trkpt>
      <trkpt lat="48.80994" lon="-3.36392">
        <ele>54.45</ele>
        <time>2013-05-17T14:04:18Z</time>
      </trkpt>
      <trkpt lat="48.81028" lon="-3.36345">
        <ele>51.09</ele>
        <time>2013-05-17T14:04:23Z</time>
      </trkpt>
      <trkpt lat="48.81034" lon="-3.36335">
        <ele>50.61</ele>
        <time>2013-05-17T14:04:24Z</time>
      </trkpt>
      <trkpt lat="48.81065" lon="-3.36281">
        <ele>47.24</ele>
        <time>2013-05-17T14:04:29Z</time>
      </trkpt>
      <trkpt lat="48.81077" lon="-3.36258">
        <ele>45.8</ele>
        <time>2013-05-17T14:04:31Z</time>
      </trkpt>
      <trkpt lat="48.81123" lon="-3.3614">
        <ele>43.4</ele>
        <time>2013-05-17T14:04:42Z</time>
      </trkpt>
      <trkpt lat="48.81143" lon="-3.36048">
        <ele>46.28</ele>
        <time>2013-05-17T14:04:54Z</time>
      </trkpt>
      <trkpt lat="48.81144" lon="-3.36034">
        <ele>46.28</ele>
        <time>2013-05-17T14:04:56Z</time>
      </trkpt>
      <trkpt lat="48.81146" lon="-3.35985">
        <ele>47.72</ele>
        <time>2013-05-17T14:05:03Z</time>
      </trkpt>
      <trkpt lat="48.81147" lon="-3.35978">
        <ele>48.2</ele>
        <time>2013-05-17T14:05:04Z</time>
      </trkpt>
      <trkpt lat="48.81149" lon="-3.35972">
        <ele>49.65</ele>
        <time>2013-05-17T14:05:05Z</time>
      </trkpt>
      <trkpt lat="48.81151" lon="-3.35966">
        <ele>48.68</ele>
        <time>2013-05-17T14:05:06Z</time>
      </trkpt>
      <trkpt lat="48.81153" lon="-3.35961">
        <ele>49.16</ele>
        <time>2013-05-17T14:05:07Z</time>
      </trkpt>
      <trkpt lat="48.81156" lon="-3.35955">
        <ele>49.65</ele>
        <time>2013-05-17T14:05:08Z</time>
      </trkpt>
      <trkpt lat="48.81159" lon="-3.3595">
        <ele>49.65</ele>
        <time>2013-05-17T14:05:09Z</time>
      </trkpt>
      <trkpt lat="48.81162" lon="-3.35945">
        <ele>50.13</ele>
        <time>2013-05-17T14:05:10Z</time>
      </trkpt>
      <trkpt lat="48.8117" lon="-3.35937">
        <ele>50.13</ele>
        <time>2013-05-17T14:05:12Z</time>
      </trkpt>
      <trkpt lat="48.81174" lon="-3.35934">
        <ele>50.61</ele>
        <time>2013-05-17T14:05:13Z</time>
      </trkpt>
      <trkpt lat="48.81178" lon="-3.35931">
        <ele>51.09</ele>
        <time>2013-05-17T14:05:14Z</time>
      </trkpt>
      <trkpt lat="48.81185" lon="-3.35924">
        <ele>52.05</ele>
        <time>2013-05-17T14:05:16Z</time>
      </trkpt>
      <trkpt lat="48.81188" lon="-3.3592">
        <ele>52.05</ele>
        <time>2013-05-17T14:05:17Z</time>
      </trkpt>
      <trkpt lat="48.8119" lon="-3.35916">
        <ele>52.53</ele>
        <time>2013-05-17T14:05:18Z</time>
      </trkpt>
      <trkpt lat="48.81199" lon="-3.35895">
        <ele>53.01</ele>
        <time>2013-05-17T14:05:22Z</time>
      </trkpt>
      <trkpt lat="48.81201" lon="-3.3589">
        <ele>53.49</ele>
        <time>2013-05-17T14:05:23Z</time>
      </trkpt>
      <trkpt lat="48.8122" lon="-3.35845">
        <ele>55.41</ele>
        <time>2013-05-17T14:05:32Z</time>
      </trkpt>
      <trkpt lat="48.81234" lon="-3.3582">
        <ele>54.93</ele>
        <time>2013-05-17T14:05:37Z</time>
      </trkpt>
      <trkpt lat="48.81238" lon="-3.35816">
        <ele>54.93</ele>
        <time>2013-05-17T14:05:38Z</time>
      </trkpt>
      <trkpt lat="48.81242" lon="-3.35813">
        <ele>54.93</ele>
        <time>2013-05-17T14:05:39Z</time>
      </trkpt>
      <trkpt lat="48.81264" lon="-3.35796">
        <ele>55.41</ele>
        <time>2013-05-17T14:05:49Z</time>
      </trkpt>
      <trkpt lat="48.81265" lon="-3.35796">
        <ele>55.41</ele>
        <time>2013-05-17T14:05:53Z</time>
      </trkpt>
      <trkpt lat="48.81268" lon="-3.35792">
        <ele>55.89</ele>
        <time>2013-05-17T14:05:56Z</time>
      </trkpt>
      <trkpt lat="48.81276" lon="-3.35779">
        <ele>55.89</ele>
        <time>2013-05-17T14:06:01Z</time>
      </trkpt>
      <trkpt lat="48.81279" lon="-3.35779">
        <ele>55.89</ele>
        <time>2013-05-17T14:06:02Z</time>
      </trkpt>
      <trkpt lat="48.81282" lon="-3.35781">
        <ele>55.41</ele>
        <time>2013-05-17T14:06:03Z</time>
      </trkpt>
      <trkpt lat="48.81285" lon="-3.35783">
        <ele>55.89</ele>
        <time>2013-05-17T14:06:04Z</time>
      </trkpt>
      <trkpt lat="48.81287" lon="-3.35787">
        <ele>55.89</ele>
        <time>2013-05-17T14:06:05Z</time>
      </trkpt>
      <trkpt lat="48.81291" lon="-3.3579">
        <ele>55.41</ele>
        <time>2013-05-17T14:06:06Z</time>
      </trkpt>
      <trkpt lat="48.81295" lon="-3.35794">
        <ele>55.41</ele>
        <time>2013-05-17T14:06:07Z</time>
      </trkpt>
      <trkpt lat="48.81304" lon="-3.35802">
        <ele>54.45</ele>
        <time>2013-05-17T14:06:09Z</time>
      </trkpt>
      <trkpt lat="48.81374" lon="-3.35868">
        <ele>53.49</ele>
        <time>2013-05-17T14:06:23Z</time>
      </trkpt>
      <trkpt lat="48.81379" lon="-3.35871">
        <ele>53.49</ele>
        <time>2013-05-17T14:06:24Z</time>
      </trkpt>
      <trkpt lat="48.81385" lon="-3.35872">
        <ele>53.49</ele>
        <time>2013-05-17T14:06:25Z</time>
      </trkpt>
      <trkpt lat="48.8139" lon="-3.35873">
        <ele>53.97</ele>
        <time>2013-05-17T14:06:26Z</time>
      </trkpt>
      <trkpt lat="48.81395" lon="-3.35873">
        <ele>53.97</ele>
        <time>2013-05-17T14:06:27Z</time>
      </trkpt>
      <trkpt lat="48.81401" lon="-3.35872">
        <ele>53.97</ele>
        <time>2013-05-17T14:06:28Z</time>
      </trkpt>
      <trkpt lat="48.81407" lon="-3.3587">
        <ele>53.97</ele>
        <time>2013-05-17T14:06:29Z</time>
      </trkpt>
      <trkpt lat="48.81412" lon="-3.35867">
        <ele>53.49</ele>
        <time>2013-05-17T14:06:30Z</time>
      </trkpt>
      <trkpt lat="48.81418" lon="-3.35863">
        <ele>53.49</ele>
        <time>2013-05-17T14:06:31Z</time>
      </trkpt>
      <trkpt lat="48.81423" lon="-3.35859">
        <ele>53.49</ele>
        <time>2013-05-17T14:06:32Z</time>
      </trkpt>
      <trkpt lat="48.81429" lon="-3.35855">
        <ele>52.53</ele>
        <time>2013-05-17T14:06:33Z</time>
      </trkpt>
      <trkpt lat="48.81435" lon="-3.35852">
        <ele>53.01</ele>
        <time>2013-05-17T14:06:34Z</time>
      </trkpt>
      <trkpt lat="48.81441" lon="-3.35849">
        <ele>52.53</ele>
        <time>2013-05-17T14:06:35Z</time>
      </trkpt>
      <trkpt lat="48.81477" lon="-3.35843">
        <ele>51.57</ele>
        <time>2013-05-17T14:06:41Z</time>
      </trkpt>
      <trkpt lat="48.81583" lon="-3.35846">
        <ele>51.57</ele>
        <time>2013-05-17T14:06:59Z</time>
      </trkpt>
      <trkpt lat="48.81672" lon="-3.35839">
        <ele>52.53</ele>
        <time>2013-05-17T14:07:15Z</time>
      </trkpt>
      <trkpt lat="48.81678" lon="-3.35839">
        <ele>52.53</ele>
        <time>2013-05-17T14:07:16Z</time>
      </trkpt>
      <trkpt lat="48.81684" lon="-3.3584">
        <ele>52.05</ele>
        <time>2013-05-17T14:07:17Z</time>
      </trkpt>
      <trkpt lat="48.81719" lon="-3.35861">
        <ele>51.09</ele>
        <time>2013-05-17T14:07:23Z</time>
      </trkpt>
      <trkpt lat="48.81724" lon="-3.35867">
        <ele>50.61</ele>
        <time>2013-05-17T14:07:24Z</time>
      </trkpt>
      <trkpt lat="48.8173" lon="-3.35873">
        <ele>50.61</ele>
        <time>2013-05-17T14:07:25Z</time>
      </trkpt>
      <trkpt lat="48.81735" lon="-3.3588">
        <ele>50.13</ele>
        <time>2013-05-17T14:07:26Z</time>
      </trkpt>
      <trkpt lat="48.81739" lon="-3.35888">
        <ele>50.13</ele>
        <time>2013-05-17T14:07:27Z</time>
      </trkpt>
      <trkpt lat="48.81743" lon="-3.35896">
        <ele>49.65</ele>
        <time>2013-05-17T14:07:28Z</time>
      </trkpt>
      <trkpt lat="48.8178" lon="-3.35966">
        <ele>46.28</ele>
        <time>2013-05-17T14:07:36Z</time>
      </trkpt>
      <trkpt lat="48.81786" lon="-3.35974">
        <ele>46.28</ele>
        <time>2013-05-17T14:07:37Z</time>
      </trkpt>
      <trkpt lat="48.81793" lon="-3.35982">
        <ele>45.32</ele>
        <time>2013-05-17T14:07:38Z</time>
      </trkpt>
      <trkpt lat="48.818" lon="-3.35988">
        <ele>44.84</ele>
        <time>2013-05-17T14:07:39Z</time>
      </trkpt>
      <trkpt lat="48.81808" lon="-3.35993">
        <ele>44.36</ele>
        <time>2013-05-17T14:07:40Z</time>
      </trkpt>
      <trkpt lat="48.81816" lon="-3.35997">
        <ele>43.4</ele>
        <time>2013-05-17T14:07:41Z</time>
      </trkpt>
      <trkpt lat="48.81824" lon="-3.35999">
        <ele>42.92</ele>
        <time>2013-05-17T14:07:42Z</time>
      </trkpt>
      <trkpt lat="48.81833" lon="-3.36001">
        <ele>42.44</ele>
        <time>2013-05-17T14:07:43Z</time>
      </trkpt>
      <trkpt lat="48.81842" lon="-3.36001">
        <ele>42.44</ele>
        <time>2013-05-17T14:07:44Z</time>
      </trkpt>
      <trkpt lat="48.81851" lon="-3.35999">
        <ele>41.47</ele>
        <time>2013-05-17T14:07:45Z</time>
      </trkpt>
      <trkpt lat="48.81859" lon="-3.35996">
        <ele>40.99</ele>
        <time>2013-05-17T14:07:46Z</time>
      </trkpt>
      <trkpt lat="48.81868" lon="-3.35993">
        <ele>40.03</ele>
        <time>2013-05-17T14:07:47Z</time>
      </trkpt>
      <trkpt lat="48.81876" lon="-3.35988">
        <ele>39.55</ele>
        <time>2013-05-17T14:07:48Z</time>
      </trkpt>
      <trkpt lat="48.81884" lon="-3.35982">
        <ele>39.07</ele>
        <time>2013-05-17T14:07:49Z</time>
      </trkpt>
      <trkpt lat="48.81892" lon="-3.35974">
        <ele>38.11</ele>
        <time>2013-05-17T14:07:50Z</time>
      </trkpt>
      <trkpt lat="48.81899" lon="-3.35965">
        <ele>37.63</ele>
        <time>2013-05-17T14:07:51Z</time>
      </trkpt>
      <trkpt lat="48.81905" lon="-3.35954">
        <ele>37.63</ele>
        <time>2013-05-17T14:07:52Z</time>
      </trkpt>
      <trkpt lat="48.8191" lon="-3.35943">
        <ele>36.67</ele>
        <time>2013-05-17T14:07:53Z</time>
      </trkpt>
      <trkpt lat="48.81915" lon="-3.35931">
        <ele>36.67</ele>
        <time>2013-05-17T14:07:54Z</time>
      </trkpt>
      <trkpt lat="48.81919" lon="-3.35918">
        <ele>35.71</ele>
        <time>2013-05-17T14:07:55Z</time>
      </trkpt>
      <trkpt lat="48.81938" lon="-3.35854">
        <ele>32.82</ele>
        <time>2013-05-17T14:08:00Z</time>
      </trkpt>
      <trkpt lat="48.81948" lon="-3.35813">
        <ele>30.42</ele>
        <time>2013-05-17T14:08:03Z</time>
      </trkpt>
      <trkpt lat="48.8195" lon="-3.35798">
        <ele>29.46</ele>
        <time>2013-05-17T14:08:04Z</time>
      </trkpt>
      <trkpt lat="48.8195" lon="-3.35782">
        <ele>28.5</ele>
        <time>2013-05-17T14:08:05Z</time>
      </trkpt>
      <trkpt lat="48.81948" lon="-3.35766">
        <ele>27.05</ele>
        <time>2013-05-17T14:08:06Z</time>
      </trkpt>
      <trkpt lat="48.81944" lon="-3.3575">
        <ele>25.61</ele>
        <time>2013-05-17T14:08:07Z</time>
      </trkpt>
      <trkpt lat="48.81928" lon="-3.35684">
        <ele>21.77</ele>
        <time>2013-05-17T14:08:11Z</time>
      </trkpt>
      <trkpt lat="48.81923" lon="-3.35648">
        <ele>20.32</ele>
        <time>2013-05-17T14:08:13Z</time>
      </trkpt>
      <trkpt lat="48.81924" lon="-3.35629">
        <ele>18.4</ele>
        <time>2013-05-17T14:08:14Z</time>
      </trkpt>
      <trkpt lat="48.81926" lon="-3.35611">
        <ele>16.96</ele>
        <time>2013-05-17T14:08:15Z</time>
      </trkpt>
      <trkpt lat="48.81929" lon="-3.35593">
        <ele>16</ele>
        <time>2013-05-17T14:08:16Z</time>
      </trkpt>
      <trkpt lat="48.81934" lon="-3.35576">
        <ele>15.52</ele>
        <time>2013-05-17T14:08:17Z</time>
      </trkpt>
      <trkpt lat="48.81946" lon="-3.35528">
        <ele>11.67</ele>
        <time>2013-05-17T14:08:20Z</time>
      </trkpt>
      <trkpt lat="48.8195" lon="-3.35514">
        <ele>11.67</ele>
        <time>2013-05-17T14:08:21Z</time>
      </trkpt>
      <trkpt lat="48.8197" lon="-3.35439">
        <ele>7.83</ele>
        <time>2013-05-17T14:08:27Z</time>
      </trkpt>
      <trkpt lat="48.81973" lon="-3.35429">
        <ele>7.83</ele>
        <time>2013-05-17T14:08:28Z</time>
      </trkpt>
      <trkpt lat="48.82008" lon="-3.35298">
        <ele>7.83</ele>
        <time>2013-05-17T14:08:44Z</time>
      </trkpt>
      <trkpt lat="48.82053" lon="-3.35174">
        <ele>8.31</ele>
        <time>2013-05-17T14:09:01Z</time>
      </trkpt>
      <trkpt lat="48.82099" lon="-3.35047">
        <ele>9.75</ele>
        <time>2013-05-17T14:09:19Z</time>
      </trkpt>
      <trkpt lat="48.82123" lon="-3.34992">
        <ele>12.63</ele>
        <time>2013-05-17T14:09:31Z</time>
      </trkpt>
      <trkpt lat="48.82135" lon="-3.34963">
        <ele>14.56</ele>
        <time>2013-05-17T14:09:38Z</time>
      </trkpt>
      <trkpt lat="48.82153" lon="-3.34913">
        <ele>17.92</ele>
        <time>2013-05-17T14:09:50Z</time>
      </trkpt>
      <trkpt lat="48.82164" lon="-3.34871">
        <ele>21.29</ele>
        <time>2013-05-17T14:10:00Z</time>
      </trkpt>
      <trkpt lat="48.82178" lon="-3.34815">
        <ele>24.65</ele>
        <time>2013-05-17T14:10:13Z</time>
      </trkpt>
      <trkpt lat="48.82191" lon="-3.34747">
        <ele>28.02</ele>
        <time>2013-05-17T14:10:28Z</time>
      </trkpt>
      <trkpt lat="48.82199" lon="-3.34666">
        <ele>31.38</ele>
        <time>2013-05-17T14:10:45Z</time>
      </trkpt>
      <trkpt lat="48.82204" lon="-3.34597">
        <ele>34.74</ele>
        <time>2013-05-17T14:10:59Z</time>
      </trkpt>
      <trkpt lat="48.82205" lon="-3.34511">
        <ele>35.71</ele>
        <time>2013-05-17T14:11:15Z</time>
      </trkpt>
      <trkpt lat="48.82206" lon="-3.34502">
        <ele>35.71</ele>
        <time>2013-05-17T14:11:22Z</time>
      </trkpt>
      <trkpt lat="48.82204" lon="-3.34501">
        <ele>35.23</ele>
        <time>2013-05-17T14:11:45Z</time>
      </trkpt>
      <trkpt lat="48.82204" lon="-3.34501">
        <ele>35.71</ele>
        <time>2013-05-17T14:12:09Z</time>
      </trkpt>
      <trkpt lat="48.82204" lon="-3.34501">
        <ele>35.23</ele>
        <time>2013-05-17T14:12:33Z</time>
      </trkpt>
      <trkpt lat="48.82204" lon="-3.34498">
        <ele>35.23</ele>
        <time>2013-05-17T14:12:44Z</time>
      </trkpt>
      <trkpt lat="48.82204" lon="-3.34498">
        <ele>35.23</ele>
        <time>2013-05-17T14:12:57Z</time>
      </trkpt>
      <trkpt lat="48.82204" lon="-3.34496">
        <ele>35.71</ele>
        <time>2013-05-17T14:12:58Z</time>
      </trkpt>
      <trkpt lat="48.82204" lon="-3.34494">
        <ele>35.71</ele>
        <time>2013-05-17T14:12:59Z</time>
      </trkpt>
      <trkpt lat="48.82205" lon="-3.34492">
        <ele>35.71</ele>
        <time>2013-05-17T14:13:00Z</time>
      </trkpt>
      <trkpt lat="48.82203" lon="-3.34429">
        <ele>35.23</ele>
        <time>2013-05-17T14:13:10Z</time>
      </trkpt>
      <trkpt lat="48.82203" lon="-3.34421">
        <ele>34.74</ele>
        <time>2013-05-17T14:13:11Z</time>
      </trkpt>
      <trkpt lat="48.82202" lon="-3.34402">
        <ele>33.78</ele>
        <time>2013-05-17T14:13:13Z</time>
      </trkpt>
      <trkpt lat="48.82199" lon="-3.34263">
        <ele>30.42</ele>
        <time>2013-05-17T14:13:25Z</time>
      </trkpt>
      <trkpt lat="48.82204" lon="-3.34115">
        <ele>30.9</ele>
        <time>2013-05-17T14:13:39Z</time>
      </trkpt>
      <trkpt lat="48.82213" lon="-3.33967">
        <ele>29.46</ele>
        <time>2013-05-17T14:13:55Z</time>
      </trkpt>
      <trkpt lat="48.82216" lon="-3.33907">
        <ele>27.53</ele>
        <time>2013-05-17T14:14:00Z</time>
      </trkpt>
      <trkpt lat="48.82219" lon="-3.33852">
        <ele>24.65</ele>
        <time>2013-05-17T14:14:04Z</time>
      </trkpt>
      <trkpt lat="48.82222" lon="-3.33794">
        <ele>22.25</ele>
        <time>2013-05-17T14:14:08Z</time>
      </trkpt>
      <trkpt lat="48.82224" lon="-3.33767">
        <ele>21.29</ele>
        <time>2013-05-17T14:14:10Z</time>
      </trkpt>
      <trkpt lat="48.82229" lon="-3.33672">
        <ele>24.17</ele>
        <time>2013-05-17T14:14:20Z</time>
      </trkpt>
      <trkpt lat="48.82231" lon="-3.3362">
        <ele>27.53</ele>
        <time>2013-05-17T14:14:29Z</time>
      </trkpt>
      <trkpt lat="48.82232" lon="-3.33609">
        <ele>28.5</ele>
        <time>2013-05-17T14:14:31Z</time>
      </trkpt>
      <trkpt lat="48.82235" lon="-3.33557">
        <ele>32.34</ele>
        <time>2013-05-17T14:14:40Z</time>
      </trkpt>
      <trkpt lat="48.82235" lon="-3.33551">
        <ele>32.34</ele>
        <time>2013-05-17T14:14:41Z</time>
      </trkpt>
      <trkpt lat="48.8224" lon="-3.33473">
        <ele>35.23</ele>
        <time>2013-05-17T14:14:54Z</time>
      </trkpt>
      <trkpt lat="48.82245" lon="-3.33437">
        <ele>36.67</ele>
        <time>2013-05-17T14:15:00Z</time>
      </trkpt>
      <trkpt lat="48.82246" lon="-3.33432">
        <ele>36.67</ele>
        <time>2013-05-17T14:15:01Z</time>
      </trkpt>
      <trkpt lat="48.82248" lon="-3.33426">
        <ele>37.15</ele>
        <time>2013-05-17T14:15:02Z</time>
      </trkpt>
      <trkpt lat="48.82249" lon="-3.33421">
        <ele>36.67</ele>
        <time>2013-05-17T14:15:03Z</time>
      </trkpt>
      <trkpt lat="48.8225" lon="-3.33415">
        <ele>37.15</ele>
        <time>2013-05-17T14:15:04Z</time>
      </trkpt>
      <trkpt lat="48.82263" lon="-3.33332">
        <ele>40.03</ele>
        <time>2013-05-17T14:15:18Z</time>
      </trkpt>
      <trkpt lat="48.82291" lon="-3.33218">
        <ele>41.95</ele>
        <time>2013-05-17T14:15:37Z</time>
      </trkpt>
      <trkpt lat="48.82318" lon="-3.33135">
        <ele>40.03</ele>
        <time>2013-05-17T14:15:48Z</time>
      </trkpt>
      <trkpt lat="48.82351" lon="-3.33029">
        <ele>36.19</ele>
        <time>2013-05-17T14:15:58Z</time>
      </trkpt>
      <trkpt lat="48.824" lon="-3.32879">
        <ele>35.71</ele>
        <time>2013-05-17T14:16:13Z</time>
      </trkpt>
      <trkpt lat="48.82446" lon="-3.32735">
        <ele>35.71</ele>
        <time>2013-05-17T14:16:30Z</time>
      </trkpt>
      <trkpt lat="48.82498" lon="-3.32602">
        <ele>34.26</ele>
        <time>2013-05-17T14:16:46Z</time>
      </trkpt>
      <trkpt lat="48.82569" lon="-3.32491">
        <ele>30.9</ele>
        <time>2013-05-17T14:17:00Z</time>
      </trkpt>
      <trkpt lat="48.82626" lon="-3.32431">
        <ele>26.57</ele>
        <time>2013-05-17T14:17:08Z</time>
      </trkpt>
      <trkpt lat="48.82642" lon="-3.32417">
        <ele>25.61</ele>
        <time>2013-05-17T14:17:10Z</time>
      </trkpt>
      <trkpt lat="48.82677" lon="-3.32392">
        <ele>22.25</ele>
        <time>2013-05-17T14:17:14Z</time>
      </trkpt>
      <trkpt lat="48.8272" lon="-3.32361">
        <ele>18.88</ele>
        <time>2013-05-17T14:17:19Z</time>
      </trkpt>
      <trkpt lat="48.8278" lon="-3.32308">
        <ele>19.84</ele>
        <time>2013-05-17T14:17:29Z</time>
      </trkpt>
      <trkpt lat="48.82793" lon="-3.32295">
        <ele>20.81</ele>
        <time>2013-05-17T14:17:32Z</time>
      </trkpt>
      <trkpt lat="48.8282" lon="-3.32262">
        <ele>22.73</ele>
        <time>2013-05-17T14:17:39Z</time>
      </trkpt>
      <trkpt lat="48.82824" lon="-3.32257">
        <ele>22.73</ele>
        <time>2013-05-17T14:17:40Z</time>
      </trkpt>
      <trkpt lat="48.82887" lon="-3.32158">
        <ele>21.77</ele>
        <time>2013-05-17T14:17:55Z</time>
      </trkpt>
      <trkpt lat="48.82933" lon="-3.32082">
        <ele>17.92</ele>
        <time>2013-05-17T14:18:04Z</time>
      </trkpt>
      <trkpt lat="48.82945" lon="-3.32063">
        <ele>16.96</ele>
        <time>2013-05-17T14:18:06Z</time>
      </trkpt>
      <trkpt lat="48.82994" lon="-3.31984">
        <ele>13.6</ele>
        <time>2013-05-17T14:18:14Z</time>
      </trkpt>
      <trkpt lat="48.83" lon="-3.31975">
        <ele>13.6</ele>
        <time>2013-05-17T14:18:15Z</time>
      </trkpt>
      <trkpt lat="48.83057" lon="-3.31883">
        <ele>10.71</ele>
        <time>2013-05-17T14:18:25Z</time>
      </trkpt>
      <trkpt lat="48.83116" lon="-3.31788">
        <ele>12.15</ele>
        <time>2013-05-17T14:18:38Z</time>
      </trkpt>
      <trkpt lat="48.83177" lon="-3.31688">
        <ele>15.52</ele>
        <time>2013-05-17T14:18:55Z</time>
      </trkpt>
      <trkpt lat="48.83208" lon="-3.31638">
        <ele>17.44</ele>
        <time>2013-05-17T14:19:04Z</time>
      </trkpt>
      <trkpt lat="48.83255" lon="-3.31564">
        <ele>20.32</ele>
        <time>2013-05-17T14:19:18Z</time>
      </trkpt>
      <trkpt lat="48.83306" lon="-3.31483">
        <ele>18.4</ele>
        <time>2013-05-17T14:19:31Z</time>
      </trkpt>
      <trkpt lat="48.83378" lon="-3.31372">
        <ele>19.84</ele>
        <time>2013-05-17T14:19:48Z</time>
      </trkpt>
      <trkpt lat="48.83437" lon="-3.31283">
        <ele>20.81</ele>
        <time>2013-05-17T14:20:04Z</time>
      </trkpt>
      <trkpt lat="48.83445" lon="-3.3127">
        <ele>20.32</ele>
        <time>2013-05-17T14:20:06Z</time>
      </trkpt>
      <trkpt lat="48.83486" lon="-3.31205">
        <ele>17.92</ele>
        <time>2013-05-17T14:20:14Z</time>
      </trkpt>
      <trkpt lat="48.8349" lon="-3.31195">
        <ele>17.44</ele>
        <time>2013-05-17T14:20:15Z</time>
      </trkpt>
      <trkpt lat="48.83519" lon="-3.31079">
        <ele>17.92</ele>
        <time>2013-05-17T14:20:27Z</time>
      </trkpt>
      <trkpt lat="48.83519" lon="-3.31051">
        <ele>17.92</ele>
        <time>2013-05-17T14:20:30Z</time>
      </trkpt>
      <trkpt lat="48.83518" lon="-3.31043">
        <ele>18.4</ele>
        <time>2013-05-17T14:20:31Z</time>
      </trkpt>
      <trkpt lat="48.83515" lon="-3.31036">
        <ele>18.4</ele>
        <time>2013-05-17T14:20:32Z</time>
      </trkpt>
      <trkpt lat="48.83512" lon="-3.3103">
        <ele>18.4</ele>
        <time>2013-05-17T14:20:33Z</time>
      </trkpt>
      <trkpt lat="48.83508" lon="-3.31025">
        <ele>18.4</ele>
        <time>2013-05-17T14:20:34Z</time>
      </trkpt>
      <trkpt lat="48.83504" lon="-3.31023">
        <ele>18.4</ele>
        <time>2013-05-17T14:20:35Z</time>
      </trkpt>
      <trkpt lat="48.835" lon="-3.31021">
        <ele>18.88</ele>
        <time>2013-05-17T14:20:36Z</time>
      </trkpt>
      <trkpt lat="48.83496" lon="-3.31021">
        <ele>18.88</ele>
        <time>2013-05-17T14:20:37Z</time>
      </trkpt>
      <trkpt lat="48.83459" lon="-3.31001">
        <ele>22.25</ele>
        <time>2013-05-17T14:20:47Z</time>
      </trkpt>
      <trkpt lat="48.8344" lon="-3.30972">
        <ele>23.69</ele>
        <time>2013-05-17T14:20:54Z</time>
      </trkpt>
      <trkpt lat="48.83437" lon="-3.30967">
        <ele>23.69</ele>
        <time>2013-05-17T14:20:55Z</time>
      </trkpt>
      <trkpt lat="48.83436" lon="-3.30962">
        <ele>24.17</ele>
        <time>2013-05-17T14:20:56Z</time>
      </trkpt>
      <trkpt lat="48.83434" lon="-3.30956">
        <ele>24.65</ele>
        <time>2013-05-17T14:20:57Z</time>
      </trkpt>
      <trkpt lat="48.83433" lon="-3.3095">
        <ele>24.65</ele>
        <time>2013-05-17T14:20:58Z</time>
      </trkpt>
      <trkpt lat="48.83432" lon="-3.30945">
        <ele>25.13</ele>
        <time>2013-05-17T14:20:59Z</time>
      </trkpt>
      <trkpt lat="48.83431" lon="-3.30939">
        <ele>25.61</ele>
        <time>2013-05-17T14:21:00Z</time>
      </trkpt>
      <trkpt lat="48.83431" lon="-3.30933">
        <ele>25.61</ele>
        <time>2013-05-17T14:21:01Z</time>
      </trkpt>
      <trkpt lat="48.83431" lon="-3.30853">
        <ele>29.46</ele>
        <time>2013-05-17T14:21:14Z</time>
      </trkpt>
      <trkpt lat="48.83431" lon="-3.30767">
        <ele>32.34</ele>
        <time>2013-05-17T14:21:28Z</time>
      </trkpt>
      <trkpt lat="48.83429" lon="-3.30674">
        <ele>35.71</ele>
        <time>2013-05-17T14:21:43Z</time>
      </trkpt>
      <trkpt lat="48.83428" lon="-3.30662">
        <ele>35.71</ele>
        <time>2013-05-17T14:21:45Z</time>
      </trkpt>
      <trkpt lat="48.83427" lon="-3.30656">
        <ele>36.19</ele>
        <time>2013-05-17T14:21:46Z</time>
      </trkpt>
      <trkpt lat="48.83424" lon="-3.30644">
        <ele>36.67</ele>
        <time>2013-05-17T14:21:48Z</time>
      </trkpt>
      <trkpt lat="48.83402" lon="-3.30602">
        <ele>39.07</ele>
        <time>2013-05-17T14:21:57Z</time>
      </trkpt>
      <trkpt lat="48.83358" lon="-3.30577">
        <ele>41.95</ele>
        <time>2013-05-17T14:22:09Z</time>
      </trkpt>
      <trkpt lat="48.83305" lon="-3.30581">
        <ele>45.32</ele>
        <time>2013-05-17T14:22:21Z</time>
      </trkpt>
      <trkpt lat="48.83276" lon="-3.30585">
        <ele>46.28</ele>
        <time>2013-05-17T14:22:28Z</time>
      </trkpt>
      <trkpt lat="48.83262" lon="-3.30582">
        <ele>46.76</ele>
        <time>2013-05-17T14:22:31Z</time>
      </trkpt>
      <trkpt lat="48.83194" lon="-3.30528">
        <ele>44.84</ele>
        <time>2013-05-17T14:22:45Z</time>
      </trkpt>
      <trkpt lat="48.83119" lon="-3.30431">
        <ele>44.36</ele>
        <time>2013-05-17T14:23:00Z</time>
      </trkpt>
      <trkpt lat="48.83064" lon="-3.3035">
        <ele>45.32</ele>
        <time>2013-05-17T14:23:14Z</time>
      </trkpt>
      <trkpt lat="48.83055" lon="-3.30341">
        <ele>46.28</ele>
        <time>2013-05-17T14:23:16Z</time>
      </trkpt>
      <trkpt lat="48.83041" lon="-3.30332">
        <ele>46.76</ele>
        <time>2013-05-17T14:23:19Z</time>
      </trkpt>
      <trkpt lat="48.83036" lon="-3.3033">
        <ele>47.24</ele>
        <time>2013-05-17T14:23:20Z</time>
      </trkpt>
      <trkpt lat="48.83031" lon="-3.30328">
        <ele>47.24</ele>
        <time>2013-05-17T14:23:21Z</time>
      </trkpt>
      <trkpt lat="48.83026" lon="-3.30328">
        <ele>47.24</ele>
        <time>2013-05-17T14:23:22Z</time>
      </trkpt>
      <trkpt lat="48.83021" lon="-3.30328">
        <ele>47.72</ele>
        <time>2013-05-17T14:23:23Z</time>
      </trkpt>
      <trkpt lat="48.83016" lon="-3.30329">
        <ele>47.72</ele>
        <time>2013-05-17T14:23:24Z</time>
      </trkpt>
      <trkpt lat="48.83" lon="-3.30334">
        <ele>48.68</ele>
        <time>2013-05-17T14:23:27Z</time>
      </trkpt>
      <trkpt lat="48.82995" lon="-3.30337">
        <ele>48.68</ele>
        <time>2013-05-17T14:23:28Z</time>
      </trkpt>
      <trkpt lat="48.82944" lon="-3.30386">
        <ele>51.57</ele>
        <time>2013-05-17T14:23:40Z</time>
      </trkpt>
      <trkpt lat="48.82932" lon="-3.30397">
        <ele>52.05</ele>
        <time>2013-05-17T14:23:43Z</time>
      </trkpt>
      <trkpt lat="48.82918" lon="-3.30405">
        <ele>52.53</ele>
        <time>2013-05-17T14:23:46Z</time>
      </trkpt>
      <trkpt lat="48.82913" lon="-3.30406">
        <ele>53.01</ele>
        <time>2013-05-17T14:23:47Z</time>
      </trkpt>
      <trkpt lat="48.82908" lon="-3.30406">
        <ele>53.49</ele>
        <time>2013-05-17T14:23:48Z</time>
      </trkpt>
      <trkpt lat="48.82898" lon="-3.30403">
        <ele>53.97</ele>
        <time>2013-05-17T14:23:50Z</time>
      </trkpt>
      <trkpt lat="48.82893" lon="-3.30402">
        <ele>54.45</ele>
        <time>2013-05-17T14:23:51Z</time>
      </trkpt>
      <trkpt lat="48.82889" lon="-3.30399">
        <ele>54.45</ele>
        <time>2013-05-17T14:23:52Z</time>
      </trkpt>
      <trkpt lat="48.82884" lon="-3.30396">
        <ele>54.93</ele>
        <time>2013-05-17T14:23:53Z</time>
      </trkpt>
      <trkpt lat="48.82881" lon="-3.30392">
        <ele>54.93</ele>
        <time>2013-05-17T14:23:54Z</time>
      </trkpt>
      <trkpt lat="48.8287" lon="-3.3038">
        <ele>54.93</ele>
        <time>2013-05-17T14:23:57Z</time>
      </trkpt>
      <trkpt lat="48.8286" lon="-3.30366">
        <ele>55.41</ele>
        <time>2013-05-17T14:24:00Z</time>
      </trkpt>
      <trkpt lat="48.82859" lon="-3.30359">
        <ele>55.89</ele>
        <time>2013-05-17T14:24:01Z</time>
      </trkpt>
      <trkpt lat="48.82859" lon="-3.30353">
        <ele>56.37</ele>
        <time>2013-05-17T14:24:02Z</time>
      </trkpt>
      <trkpt lat="48.82861" lon="-3.30341">
        <ele>57.34</ele>
        <time>2013-05-17T14:24:04Z</time>
      </trkpt>
      <trkpt lat="48.82863" lon="-3.30323">
        <ele>58.3</ele>
        <time>2013-05-17T14:24:07Z</time>
      </trkpt>
      <trkpt lat="48.82863" lon="-3.30304">
        <ele>59.26</ele>
        <time>2013-05-17T14:24:10Z</time>
      </trkpt>
      <trkpt lat="48.82863" lon="-3.30297">
        <ele>59.74</ele>
        <time>2013-05-17T14:24:11Z</time>
      </trkpt>
      <trkpt lat="48.82863" lon="-3.30292">
        <ele>59.74</ele>
        <time>2013-05-17T14:24:12Z</time>
      </trkpt>
      <trkpt lat="48.82864" lon="-3.30286">
        <ele>59.26</ele>
        <time>2013-05-17T14:24:13Z</time>
      </trkpt>
      <trkpt lat="48.82865" lon="-3.3028">
        <ele>59.74</ele>
        <time>2013-05-17T14:24:14Z</time>
      </trkpt>
      <trkpt lat="48.82866" lon="-3.30275">
        <ele>59.74</ele>
        <time>2013-05-17T14:24:15Z</time>
      </trkpt>
      <trkpt lat="48.82881" lon="-3.30199">
        <ele>60.7</ele>
        <time>2013-05-17T14:24:30Z</time>
      </trkpt>
      <trkpt lat="48.82881" lon="-3.3018">
        <ele>59.74</ele>
        <time>2013-05-17T14:24:36Z</time>
      </trkpt>
      <trkpt lat="48.82882" lon="-3.30181">
        <ele>59.26</ele>
        <time>2013-05-17T14:24:43Z</time>
      </trkpt>
      <trkpt lat="48.82883" lon="-3.30183">
        <ele>59.26</ele>
        <time>2013-05-17T14:24:44Z</time>
      </trkpt>
      <trkpt lat="48.82883" lon="-3.30184">
        <ele>59.26</ele>
        <time>2013-05-17T14:24:45Z</time>
      </trkpt>
      <trkpt lat="48.82882" lon="-3.30187">
        <ele>59.74</ele>
        <time>2013-05-17T14:24:46Z</time>
      </trkpt>
      <trkpt lat="48.82882" lon="-3.30189">
        <ele>59.26</ele>
        <time>2013-05-17T14:24:47Z</time>
      </trkpt>
      <trkpt lat="48.82881" lon="-3.30192">
        <ele>59.74</ele>
        <time>2013-05-17T14:24:48Z</time>
      </trkpt>
      <trkpt lat="48.82881" lon="-3.30194">
        <ele>60.22</ele>
        <time>2013-05-17T14:24:49Z</time>
      </trkpt>
      <trkpt lat="48.82881" lon="-3.30197">
        <ele>59.74</ele>
        <time>2013-05-17T14:24:50Z</time>
      </trkpt>
      <trkpt lat="48.82881" lon="-3.30201">
        <ele>59.74</ele>
        <time>2013-05-17T14:24:51Z</time>
      </trkpt>
      <trkpt lat="48.82878" lon="-3.30222">
        <ele>60.22</ele>
        <time>2013-05-17T14:24:55Z</time>
      </trkpt>
      <trkpt lat="48.82875" lon="-3.30234">
        <ele>60.22</ele>
        <time>2013-05-17T14:24:57Z</time>
      </trkpt>
      <trkpt lat="48.82873" lon="-3.3024">
        <ele>60.22</ele>
        <time>2013-05-17T14:24:58Z</time>
      </trkpt>
      <trkpt lat="48.82864" lon="-3.30352">
        <ele>57.82</ele>
        <time>2013-05-17T14:25:12Z</time>
      </trkpt>
      <trkpt lat="48.82862" lon="-3.30358">
        <ele>56.37</ele>
        <time>2013-05-17T14:25:19Z</time>
      </trkpt>
      <trkpt lat="48.82861" lon="-3.3036">
        <ele>56.37</ele>
        <time>2013-05-17T14:25:20Z</time>
      </trkpt>
      <trkpt lat="48.82855" lon="-3.3036">
        <ele>56.37</ele>
        <time>2013-05-17T14:25:23Z</time>
      </trkpt>
      <trkpt lat="48.82844" lon="-3.30348">
        <ele>56.86</ele>
        <time>2013-05-17T14:25:27Z</time>
      </trkpt>
      <trkpt lat="48.82833" lon="-3.30338">
        <ele>57.34</ele>
        <time>2013-05-17T14:25:30Z</time>
      </trkpt>
      <trkpt lat="48.82814" lon="-3.30331">
        <ele>57.34</ele>
        <time>2013-05-17T14:25:34Z</time>
      </trkpt>
      <trkpt lat="48.8274" lon="-3.30328">
        <ele>54.45</ele>
        <time>2013-05-17T14:25:44Z</time>
      </trkpt>
      <trkpt lat="48.82705" lon="-3.30326">
        <ele>53.01</ele>
        <time>2013-05-17T14:25:48Z</time>
      </trkpt>
      <trkpt lat="48.82562" lon="-3.30311">
        <ele>53.49</ele>
        <time>2013-05-17T14:26:06Z</time>
      </trkpt>
      <trkpt lat="48.82468" lon="-3.30295">
        <ele>52.05</ele>
        <time>2013-05-17T14:26:18Z</time>
      </trkpt>
      <trkpt lat="48.82405" lon="-3.30263">
        <ele>51.57</ele>
        <time>2013-05-17T14:26:26Z</time>
      </trkpt>
      <trkpt lat="48.82381" lon="-3.3023">
        <ele>51.57</ele>
        <time>2013-05-17T14:26:30Z</time>
      </trkpt>
      <trkpt lat="48.82334" lon="-3.3016">
        <ele>53.97</ele>
        <time>2013-05-17T14:26:40Z</time>
      </trkpt>
      <trkpt lat="48.82322" lon="-3.30143">
        <ele>54.93</ele>
        <time>2013-05-17T14:26:43Z</time>
      </trkpt>
      <trkpt lat="48.82276" lon="-3.30088">
        <ele>57.82</ele>
        <time>2013-05-17T14:26:54Z</time>
      </trkpt>
      <trkpt lat="48.82209" lon="-3.30042">
        <ele>59.74</ele>
        <time>2013-05-17T14:27:07Z</time>
      </trkpt>
      <trkpt lat="48.82133" lon="-3.29961">
        <ele>60.7</ele>
        <time>2013-05-17T14:27:23Z</time>
      </trkpt>
      <trkpt lat="48.82071" lon="-3.29885">
        <ele>62.62</ele>
        <time>2013-05-17T14:27:37Z</time>
      </trkpt>
      <trkpt lat="48.82055" lon="-3.29878">
        <ele>63.58</ele>
        <time>2013-05-17T14:27:40Z</time>
      </trkpt>
      <trkpt lat="48.8205" lon="-3.29876">
        <ele>64.07</ele>
        <time>2013-05-17T14:27:41Z</time>
      </trkpt>
      <trkpt lat="48.82044" lon="-3.29875">
        <ele>64.55</ele>
        <time>2013-05-17T14:27:42Z</time>
      </trkpt>
      <trkpt lat="48.82003" lon="-3.2987">
        <ele>66.47</ele>
        <time>2013-05-17T14:27:50Z</time>
      </trkpt>
      <trkpt lat="48.81998" lon="-3.29869">
        <ele>66.95</ele>
        <time>2013-05-17T14:27:51Z</time>
      </trkpt>
      <trkpt lat="48.81953" lon="-3.29865">
        <ele>68.39</ele>
        <time>2013-05-17T14:27:59Z</time>
      </trkpt>
      <trkpt lat="48.81948" lon="-3.29863">
        <ele>68.87</ele>
        <time>2013-05-17T14:28:00Z</time>
      </trkpt>
      <trkpt lat="48.81943" lon="-3.2986">
        <ele>68.87</ele>
        <time>2013-05-17T14:28:01Z</time>
      </trkpt>
      <trkpt lat="48.81933" lon="-3.29854">
        <ele>69.35</ele>
        <time>2013-05-17T14:28:03Z</time>
      </trkpt>
      <trkpt lat="48.81929" lon="-3.29851">
        <ele>69.83</ele>
        <time>2013-05-17T14:28:04Z</time>
      </trkpt>
      <trkpt lat="48.81866" lon="-3.2982">
        <ele>70.79</ele>
        <time>2013-05-17T14:28:16Z</time>
      </trkpt>
      <trkpt lat="48.81807" lon="-3.29814">
        <ele>72.72</ele>
        <time>2013-05-17T14:28:27Z</time>
      </trkpt>
      <trkpt lat="48.8173" lon="-3.29808">
        <ele>73.68</ele>
        <time>2013-05-17T14:28:41Z</time>
      </trkpt>
      <trkpt lat="48.81633" lon="-3.29791">
        <ele>74.16</ele>
        <time>2013-05-17T14:28:57Z</time>
      </trkpt>
      <trkpt lat="48.81592" lon="-3.29781">
        <ele>74.16</ele>
        <time>2013-05-17T14:29:03Z</time>
      </trkpt>
      <trkpt lat="48.81585" lon="-3.29778">
        <ele>74.16</ele>
        <time>2013-05-17T14:29:04Z</time>
      </trkpt>
      <trkpt lat="48.81579" lon="-3.29774">
        <ele>73.68</ele>
        <time>2013-05-17T14:29:05Z</time>
      </trkpt>
      <trkpt lat="48.81572" lon="-3.29769">
        <ele>74.16</ele>
        <time>2013-05-17T14:29:06Z</time>
      </trkpt>
      <trkpt lat="48.81567" lon="-3.29763">
        <ele>74.16</ele>
        <time>2013-05-17T14:29:07Z</time>
      </trkpt>
      <trkpt lat="48.81561" lon="-3.29756">
        <ele>73.68</ele>
        <time>2013-05-17T14:29:08Z</time>
      </trkpt>
      <trkpt lat="48.81506" lon="-3.29688">
        <ele>71.27</ele>
        <time>2013-05-17T14:29:18Z</time>
      </trkpt>
      <trkpt lat="48.815" lon="-3.29681">
        <ele>70.79</ele>
        <time>2013-05-17T14:29:19Z</time>
      </trkpt>
      <trkpt lat="48.81428" lon="-3.29574">
        <ele>69.35</ele>
        <time>2013-05-17T14:29:33Z</time>
      </trkpt>
      <trkpt lat="48.81417" lon="-3.29559">
        <ele>69.35</ele>
        <time>2013-05-17T14:29:35Z</time>
      </trkpt>
      <trkpt lat="48.8135" lon="-3.29509">
        <ele>69.35</ele>
        <time>2013-05-17T14:29:46Z</time>
      </trkpt>
      <trkpt lat="48.81337" lon="-3.29505">
        <ele>68.87</ele>
        <time>2013-05-17T14:29:51Z</time>
      </trkpt>
      <trkpt lat="48.81336" lon="-3.29501">
        <ele>69.35</ele>
        <time>2013-05-17T14:29:52Z</time>
      </trkpt>
      <trkpt lat="48.81338" lon="-3.29498">
        <ele>69.35</ele>
        <time>2013-05-17T14:29:53Z</time>
      </trkpt>
      <trkpt lat="48.81341" lon="-3.29495">
        <ele>69.35</ele>
        <time>2013-05-17T14:29:54Z</time>
      </trkpt>
      <trkpt lat="48.81344" lon="-3.29492">
        <ele>69.35</ele>
        <time>2013-05-17T14:29:55Z</time>
      </trkpt>
      <trkpt lat="48.81347" lon="-3.29486">
        <ele>69.83</ele>
        <time>2013-05-17T14:29:56Z</time>
      </trkpt>
      <trkpt lat="48.8135" lon="-3.29481">
        <ele>69.35</ele>
        <time>2013-05-17T14:29:57Z</time>
      </trkpt>
      <trkpt lat="48.81355" lon="-3.29476">
        <ele>69.35</ele>
        <time>2013-05-17T14:29:58Z</time>
      </trkpt>
      <trkpt lat="48.81421" lon="-3.29369">
        <ele>68.87</ele>
        <time>2013-05-17T14:30:14Z</time>
      </trkpt>
      <trkpt lat="48.81459" lon="-3.29268">
        <ele>68.39</ele>
        <time>2013-05-17T14:30:26Z</time>
      </trkpt>
      <trkpt lat="48.81471" lon="-3.29144">
        <ele>67.43</ele>
        <time>2013-05-17T14:30:39Z</time>
      </trkpt>
      <trkpt lat="48.81485" lon="-3.29016">
        <ele>66.95</ele>
        <time>2013-05-17T14:30:52Z</time>
      </trkpt>
      <trkpt lat="48.8152" lon="-3.28858">
        <ele>67.43</ele>
        <time>2013-05-17T14:31:09Z</time>
      </trkpt>
      <trkpt lat="48.81552" lon="-3.28722">
        <ele>65.99</ele>
        <time>2013-05-17T14:31:24Z</time>
      </trkpt>
      <trkpt lat="48.81564" lon="-3.286">
        <ele>66.95</ele>
        <time>2013-05-17T14:31:37Z</time>
      </trkpt>
      <trkpt lat="48.81582" lon="-3.28488">
        <ele>69.35</ele>
        <time>2013-05-17T14:31:50Z</time>
      </trkpt>
      <trkpt lat="48.81597" lon="-3.28396">
        <ele>69.83</ele>
        <time>2013-05-17T14:32:02Z</time>
      </trkpt>
      <trkpt lat="48.81597" lon="-3.28249">
        <ele>70.79</ele>
        <time>2013-05-17T14:32:19Z</time>
      </trkpt>
      <trkpt lat="48.81627" lon="-3.28117">
        <ele>71.27</ele>
        <time>2013-05-17T14:32:35Z</time>
      </trkpt>
      <trkpt lat="48.81677" lon="-3.27981">
        <ele>70.79</ele>
        <time>2013-05-17T14:32:51Z</time>
      </trkpt>
      <trkpt lat="48.81736" lon="-3.2786">
        <ele>71.27</ele>
        <time>2013-05-17T14:33:07Z</time>
      </trkpt>
      <trkpt lat="48.81774" lon="-3.27716">
        <ele>69.83</ele>
        <time>2013-05-17T14:33:23Z</time>
      </trkpt>
      <trkpt lat="48.81824" lon="-3.27556">
        <ele>68.87</ele>
        <time>2013-05-17T14:33:41Z</time>
      </trkpt>
      <trkpt lat="48.81866" lon="-3.27415">
        <ele>69.83</ele>
        <time>2013-05-17T14:33:59Z</time>
      </trkpt>
      <trkpt lat="48.81872" lon="-3.27286">
        <ele>71.76</ele>
        <time>2013-05-17T14:34:15Z</time>
      </trkpt>
      <trkpt lat="48.81878" lon="-3.27119">
        <ele>72.24</ele>
        <time>2013-05-17T14:34:34Z</time>
      </trkpt>
      <trkpt lat="48.81867" lon="-3.26976">
        <ele>70.31</ele>
        <time>2013-05-17T14:34:49Z</time>
      </trkpt>
      <trkpt lat="48.81868" lon="-3.26867">
        <ele>71.27</ele>
        <time>2013-05-17T14:35:01Z</time>
      </trkpt>
      <trkpt lat="48.81912" lon="-3.2678">
        <ele>71.76</ele>
        <time>2013-05-17T14:35:14Z</time>
      </trkpt>
      <trkpt lat="48.81988" lon="-3.26658">
        <ele>70.31</ele>
        <time>2013-05-17T14:35:33Z</time>
      </trkpt>
      <trkpt lat="48.81999" lon="-3.26636">
        <ele>69.83</ele>
        <time>2013-05-17T14:35:36Z</time>
      </trkpt>
      <trkpt lat="48.82002" lon="-3.26628">
        <ele>69.83</ele>
        <time>2013-05-17T14:35:37Z</time>
      </trkpt>
      <trkpt lat="48.82007" lon="-3.26611">
        <ele>69.83</ele>
        <time>2013-05-17T14:35:39Z</time>
      </trkpt>
      <trkpt lat="48.8201" lon="-3.26592">
        <ele>69.83</ele>
        <time>2013-05-17T14:35:41Z</time>
      </trkpt>
      <trkpt lat="48.82018" lon="-3.26502">
        <ele>68.87</ele>
        <time>2013-05-17T14:35:51Z</time>
      </trkpt>
      <trkpt lat="48.82018" lon="-3.26493">
        <ele>68.39</ele>
        <time>2013-05-17T14:35:52Z</time>
      </trkpt>
      <trkpt lat="48.82017" lon="-3.26484">
        <ele>68.39</ele>
        <time>2013-05-17T14:35:53Z</time>
      </trkpt>
      <trkpt lat="48.82015" lon="-3.26475">
        <ele>67.91</ele>
        <time>2013-05-17T14:35:54Z</time>
      </trkpt>
      <trkpt lat="48.82013" lon="-3.26467">
        <ele>67.91</ele>
        <time>2013-05-17T14:35:55Z</time>
      </trkpt>
      <trkpt lat="48.82011" lon="-3.26458">
        <ele>66.95</ele>
        <time>2013-05-17T14:35:56Z</time>
      </trkpt>
      <trkpt lat="48.81983" lon="-3.2633">
        <ele>68.87</ele>
        <time>2013-05-17T14:36:11Z</time>
      </trkpt>
      <trkpt lat="48.81975" lon="-3.26191">
        <ele>71.76</ele>
        <time>2013-05-17T14:36:29Z</time>
      </trkpt>
      <trkpt lat="48.81977" lon="-3.26184">
        <ele>71.76</ele>
        <time>2013-05-17T14:36:30Z</time>
      </trkpt>
      <trkpt lat="48.81978" lon="-3.26176">
        <ele>71.76</ele>
        <time>2013-05-17T14:36:31Z</time>
      </trkpt>
      <trkpt lat="48.82021" lon="-3.26065">
        <ele>71.76</ele>
        <time>2013-05-17T14:36:47Z</time>
      </trkpt>
      <trkpt lat="48.82028" lon="-3.26031">
        <ele>71.27</ele>
        <time>2013-05-17T14:36:51Z</time>
      </trkpt>
      <trkpt lat="48.82029" lon="-3.26022">
        <ele>71.27</ele>
        <time>2013-05-17T14:36:52Z</time>
      </trkpt>
      <trkpt lat="48.82029" lon="-3.25925">
        <ele>70.31</ele>
        <time>2013-05-17T14:37:02Z</time>
      </trkpt>
      <trkpt lat="48.82031" lon="-3.25916">
        <ele>70.79</ele>
        <time>2013-05-17T14:37:03Z</time>
      </trkpt>
      <trkpt lat="48.82033" lon="-3.25907">
        <ele>70.79</ele>
        <time>2013-05-17T14:37:04Z</time>
      </trkpt>
      <trkpt lat="48.82036" lon="-3.25899">
        <ele>70.79</ele>
        <time>2013-05-17T14:37:05Z</time>
      </trkpt>
      <trkpt lat="48.8204" lon="-3.25891">
        <ele>69.83</ele>
        <time>2013-05-17T14:37:06Z</time>
      </trkpt>
      <trkpt lat="48.82044" lon="-3.25884">
        <ele>69.83</ele>
        <time>2013-05-17T14:37:07Z</time>
      </trkpt>
      <trkpt lat="48.82109" lon="-3.25765">
        <ele>69.83</ele>
        <time>2013-05-17T14:37:24Z</time>
      </trkpt>
      <trkpt lat="48.82163" lon="-3.25666">
        <ele>69.83</ele>
        <time>2013-05-17T14:37:39Z</time>
      </trkpt>
      <trkpt lat="48.82224" lon="-3.2554">
        <ele>67.91</ele>
        <time>2013-05-17T14:37:56Z</time>
      </trkpt>
      <trkpt lat="48.82273" lon="-3.25423">
        <ele>66.47</ele>
        <time>2013-05-17T14:38:10Z</time>
      </trkpt>
      <trkpt lat="48.82324" lon="-3.25303">
        <ele>65.99</ele>
        <time>2013-05-17T14:38:25Z</time>
      </trkpt>
      <trkpt lat="48.8238" lon="-3.25199">
        <ele>66.47</ele>
        <time>2013-05-17T14:38:42Z</time>
      </trkpt>
      <trkpt lat="48.82452" lon="-3.25125">
        <ele>66.95</ele>
        <time>2013-05-17T14:38:58Z</time>
      </trkpt>
      <trkpt lat="48.8251" lon="-3.25075">
        <ele>67.43</ele>
        <time>2013-05-17T14:39:10Z</time>
      </trkpt>
      <trkpt lat="48.82515" lon="-3.25073">
        <ele>66.47</ele>
        <time>2013-05-17T14:39:11Z</time>
      </trkpt>
      <trkpt lat="48.82603" lon="-3.25049">
        <ele>67.43</ele>
        <time>2013-05-17T14:39:27Z</time>
      </trkpt>
      <trkpt lat="48.82674" lon="-3.24987">
        <ele>69.35</ele>
        <time>2013-05-17T14:39:42Z</time>
      </trkpt>
      <trkpt lat="48.82735" lon="-3.24902">
        <ele>69.35</ele>
        <time>2013-05-17T14:39:57Z</time>
      </trkpt>
      <trkpt lat="48.82795" lon="-3.24808">
        <ele>69.35</ele>
        <time>2013-05-17T14:40:12Z</time>
      </trkpt>
      <trkpt lat="48.82867" lon="-3.24665">
        <ele>67.91</ele>
        <time>2013-05-17T14:40:31Z</time>
      </trkpt>
      <trkpt lat="48.82934" lon="-3.2453">
        <ele>67.43</ele>
        <time>2013-05-17T14:40:49Z</time>
      </trkpt>
      <trkpt lat="48.82991" lon="-3.24408">
        <ele>68.39</ele>
        <time>2013-05-17T14:41:05Z</time>
      </trkpt>
      <trkpt lat="48.83051" lon="-3.24265">
        <ele>65.99</ele>
        <time>2013-05-17T14:41:23Z</time>
      </trkpt>
      <trkpt lat="48.83064" lon="-3.24243">
        <ele>66.47</ele>
        <time>2013-05-17T14:41:26Z</time>
      </trkpt>
      <trkpt lat="48.83127" lon="-3.24141">
        <ele>63.1</ele>
        <time>2013-05-17T14:41:40Z</time>
      </trkpt>
      <trkpt lat="48.83134" lon="-3.24111">
        <ele>62.14</ele>
        <time>2013-05-17T14:41:43Z</time>
      </trkpt>
      <trkpt lat="48.83135" lon="-3.24101">
        <ele>61.66</ele>
        <time>2013-05-17T14:41:44Z</time>
      </trkpt>
      <trkpt lat="48.83136" lon="-3.23937">
        <ele>59.74</ele>
        <time>2013-05-17T14:41:59Z</time>
      </trkpt>
      <trkpt lat="48.83123" lon="-3.23755">
        <ele>59.26</ele>
        <time>2013-05-17T14:42:16Z</time>
      </trkpt>
      <trkpt lat="48.83124" lon="-3.23745">
        <ele>59.26</ele>
        <time>2013-05-17T14:42:17Z</time>
      </trkpt>
      <trkpt lat="48.83126" lon="-3.23735">
        <ele>59.74</ele>
        <time>2013-05-17T14:42:18Z</time>
      </trkpt>
      <trkpt lat="48.83129" lon="-3.23726">
        <ele>59.26</ele>
        <time>2013-05-17T14:42:19Z</time>
      </trkpt>
      <trkpt lat="48.83133" lon="-3.23717">
        <ele>58.78</ele>
        <time>2013-05-17T14:42:20Z</time>
      </trkpt>
      <trkpt lat="48.83137" lon="-3.2371">
        <ele>58.78</ele>
        <time>2013-05-17T14:42:21Z</time>
      </trkpt>
      <trkpt lat="48.83142" lon="-3.23703">
        <ele>59.26</ele>
        <time>2013-05-17T14:42:22Z</time>
      </trkpt>
      <trkpt lat="48.83147" lon="-3.23696">
        <ele>58.78</ele>
        <time>2013-05-17T14:42:23Z</time>
      </trkpt>
      <trkpt lat="48.83209" lon="-3.23604">
        <ele>58.3</ele>
        <time>2013-05-17T14:42:37Z</time>
      </trkpt>
      <trkpt lat="48.83226" lon="-3.23532">
        <ele>58.3</ele>
        <time>2013-05-17T14:42:49Z</time>
      </trkpt>
      <trkpt lat="48.83224" lon="-3.2353">
        <ele>58.3</ele>
        <time>2013-05-17T14:42:50Z</time>
      </trkpt>
      <trkpt lat="48.83221" lon="-3.2353">
        <ele>58.78</ele>
        <time>2013-05-17T14:42:51Z</time>
      </trkpt>
      <trkpt lat="48.83219" lon="-3.23531">
        <ele>58.78</ele>
        <time>2013-05-17T14:42:52Z</time>
      </trkpt>
      <trkpt lat="48.83217" lon="-3.23531">
        <ele>58.78</ele>
        <time>2013-05-17T14:42:53Z</time>
      </trkpt>
      <trkpt lat="48.83215" lon="-3.23531">
        <ele>58.78</ele>
        <time>2013-05-17T14:42:54Z</time>
      </trkpt>
      <trkpt lat="48.83213" lon="-3.2353">
        <ele>58.78</ele>
        <time>2013-05-17T14:42:55Z</time>
      </trkpt>
      <trkpt lat="48.8321" lon="-3.23528">
        <ele>59.26</ele>
        <time>2013-05-17T14:42:56Z</time>
      </trkpt>
      <trkpt lat="48.83206" lon="-3.23527">
        <ele>59.26</ele>
        <time>2013-05-17T14:42:57Z</time>
      </trkpt>
      <trkpt lat="48.83202" lon="-3.23527">
        <ele>59.26</ele>
        <time>2013-05-17T14:42:58Z</time>
      </trkpt>
      <trkpt lat="48.8314" lon="-3.23524">
        <ele>58.78</ele>
        <time>2013-05-17T14:43:09Z</time>
      </trkpt>
      <trkpt lat="48.83066" lon="-3.23527">
        <ele>57.34</ele>
        <time>2013-05-17T14:43:20Z</time>
      </trkpt>
      <trkpt lat="48.82981" lon="-3.23499">
        <ele>53.49</ele>
        <time>2013-05-17T14:43:31Z</time>
      </trkpt>
      <trkpt lat="48.82971" lon="-3.23497">
        <ele>53.49</ele>
        <time>2013-05-17T14:43:32Z</time>
      </trkpt>
      <trkpt lat="48.82921" lon="-3.2349">
        <ele>49.65</ele>
        <time>2013-05-17T14:43:37Z</time>
      </trkpt>
      <trkpt lat="48.82888" lon="-3.23486">
        <ele>45.8</ele>
        <time>2013-05-17T14:43:42Z</time>
      </trkpt>
      <trkpt lat="48.82885" lon="-3.23486">
        <ele>45.8</ele>
        <time>2013-05-17T14:43:43Z</time>
      </trkpt>
      <trkpt lat="48.82882" lon="-3.23488">
        <ele>44.84</ele>
        <time>2013-05-17T14:43:53Z</time>
      </trkpt>
      <trkpt lat="48.82883" lon="-3.23489">
        <ele>45.32</ele>
        <time>2013-05-17T14:44:04Z</time>
      </trkpt>
      <trkpt lat="48.82883" lon="-3.23491">
        <ele>45.32</ele>
        <time>2013-05-17T14:44:34Z</time>
      </trkpt>
      <trkpt lat="48.82883" lon="-3.23491">
        <ele>44.84</ele>
        <time>2013-05-17T14:44:58Z</time>
      </trkpt>
      <trkpt lat="48.82883" lon="-3.23491">
        <ele>44.84</ele>
        <time>2013-05-17T14:45:13Z</time>
      </trkpt>
      <trkpt lat="48.82882" lon="-3.23492">
        <ele>45.32</ele>
        <time>2013-05-17T14:45:46Z</time>
      </trkpt>
      <trkpt lat="48.82885" lon="-3.23493">
        <ele>45.32</ele>
        <time>2013-05-17T14:46:21Z</time>
      </trkpt>
      <trkpt lat="48.82885" lon="-3.23494">
        <ele>45.32</ele>
        <time>2013-05-17T14:46:53Z</time>
      </trkpt>
      <trkpt lat="48.82885" lon="-3.23495">
        <ele>45.8</ele>
        <time>2013-05-17T14:47:28Z</time>
      </trkpt>
      <trkpt lat="48.82885" lon="-3.23495">
        <ele>45.8</ele>
        <time>2013-05-17T14:47:56Z</time>
      </trkpt>
      <trkpt lat="48.82885" lon="-3.23495">
        <ele>46.28</ele>
        <time>2013-05-17T14:48:37Z</time>
      </trkpt>
      <trkpt lat="48.82885" lon="-3.23495">
        <ele>45.8</ele>
        <time>2013-05-17T14:49:01Z</time>
      </trkpt>
      <trkpt lat="48.82884" lon="-3.23493">
        <ele>46.28</ele>
        <time>2013-05-17T14:49:28Z</time>
      </trkpt>
      <trkpt lat="48.82883" lon="-3.23491">
        <ele>46.28</ele>
        <time>2013-05-17T14:49:59Z</time>
      </trkpt>
      <trkpt lat="48.82882" lon="-3.23491">
        <ele>46.76</ele>
        <time>2013-05-17T14:50:26Z</time>
      </trkpt>
      <trkpt lat="48.82882" lon="-3.2349">
        <ele>46.76</ele>
        <time>2013-05-17T14:50:50Z</time>
      </trkpt>
      <trkpt lat="48.82882" lon="-3.2349">
        <ele>46.76</ele>
        <time>2013-05-17T14:50:58Z</time>
      </trkpt>
      <trkpt lat="48.82881" lon="-3.23488">
        <ele>46.28</ele>
        <time>2013-05-17T14:50:59Z</time>
      </trkpt>
      <trkpt lat="48.8288" lon="-3.23487">
        <ele>46.28</ele>
        <time>2013-05-17T14:51:00Z</time>
      </trkpt>
      <trkpt lat="48.82878" lon="-3.23485">
        <ele>46.28</ele>
        <time>2013-05-17T14:51:01Z</time>
      </trkpt>
      <trkpt lat="48.82874" lon="-3.23484">
        <ele>46.28</ele>
        <time>2013-05-17T14:51:02Z</time>
      </trkpt>
      <trkpt lat="48.82871" lon="-3.23483">
        <ele>45.8</ele>
        <time>2013-05-17T14:51:03Z</time>
      </trkpt>
      <trkpt lat="48.8286" lon="-3.23481">
        <ele>45.8</ele>
        <time>2013-05-17T14:51:05Z</time>
      </trkpt>
      <trkpt lat="48.82833" lon="-3.23477">
        <ele>44.36</ele>
        <time>2013-05-17T14:51:09Z</time>
      </trkpt>
      <trkpt lat="48.82774" lon="-3.23469">
        <ele>41.47</ele>
        <time>2013-05-17T14:51:16Z</time>
      </trkpt>
      <trkpt lat="48.82765" lon="-3.23468">
        <ele>40.99</ele>
        <time>2013-05-17T14:51:17Z</time>
      </trkpt>
      <trkpt lat="48.82676" lon="-3.23456">
        <ele>41.95</ele>
        <time>2013-05-17T14:51:29Z</time>
      </trkpt>
      <trkpt lat="48.82659" lon="-3.23453">
        <ele>42.92</ele>
        <time>2013-05-17T14:51:32Z</time>
      </trkpt>
      <trkpt lat="48.82637" lon="-3.2345">
        <ele>43.88</ele>
        <time>2013-05-17T14:51:36Z</time>
      </trkpt>
      <trkpt lat="48.82571" lon="-3.23443">
        <ele>46.76</ele>
        <time>2013-05-17T14:51:49Z</time>
      </trkpt>
      <trkpt lat="48.8247" lon="-3.2343">
        <ele>50.13</ele>
        <time>2013-05-17T14:52:08Z</time>
      </trkpt>
      <trkpt lat="48.82376" lon="-3.23426">
        <ele>51.57</ele>
        <time>2013-05-17T14:52:25Z</time>
      </trkpt>
      <trkpt lat="48.82291" lon="-3.23443">
        <ele>53.49</ele>
        <time>2013-05-17T14:52:40Z</time>
      </trkpt>
      <trkpt lat="48.82181" lon="-3.23503">
        <ele>56.37</ele>
        <time>2013-05-17T14:53:00Z</time>
      </trkpt>
      <trkpt lat="48.8207" lon="-3.23578">
        <ele>56.37</ele>
        <time>2013-05-17T14:53:19Z</time>
      </trkpt>
      <trkpt lat="48.81959" lon="-3.23654">
        <ele>53.97</ele>
        <time>2013-05-17T14:53:34Z</time>
      </trkpt>
      <trkpt lat="48.81795" lon="-3.2376">
        <ele>52.05</ele>
        <time>2013-05-17T14:53:54Z</time>
      </trkpt>
      <trkpt lat="48.81786" lon="-3.23762">
        <ele>52.53</ele>
        <time>2013-05-17T14:53:55Z</time>
      </trkpt>
      <trkpt lat="48.81777" lon="-3.23762">
        <ele>52.53</ele>
        <time>2013-05-17T14:53:56Z</time>
      </trkpt>
      <trkpt lat="48.81768" lon="-3.23761">
        <ele>53.01</ele>
        <time>2013-05-17T14:53:57Z</time>
      </trkpt>
      <trkpt lat="48.8176" lon="-3.23759">
        <ele>52.05</ele>
        <time>2013-05-17T14:53:58Z</time>
      </trkpt>
      <trkpt lat="48.81646" lon="-3.23749">
        <ele>52.53</ele>
        <time>2013-05-17T14:54:13Z</time>
      </trkpt>
      <trkpt lat="48.81547" lon="-3.23781">
        <ele>55.41</ele>
        <time>2013-05-17T14:54:27Z</time>
      </trkpt>
      <trkpt lat="48.81441" lon="-3.23786">
        <ele>56.86</ele>
        <time>2013-05-17T14:54:42Z</time>
      </trkpt>
      <trkpt lat="48.81311" lon="-3.23809">
        <ele>58.78</ele>
        <time>2013-05-17T14:55:01Z</time>
      </trkpt>
      <trkpt lat="48.81228" lon="-3.23796">
        <ele>59.74</ele>
        <time>2013-05-17T14:55:13Z</time>
      </trkpt>
      <trkpt lat="48.81221" lon="-3.23792">
        <ele>60.22</ele>
        <time>2013-05-17T14:55:14Z</time>
      </trkpt>
      <trkpt lat="48.81215" lon="-3.23788">
        <ele>60.22</ele>
        <time>2013-05-17T14:55:15Z</time>
      </trkpt>
      <trkpt lat="48.81208" lon="-3.23782">
        <ele>60.22</ele>
        <time>2013-05-17T14:55:16Z</time>
      </trkpt>
      <trkpt lat="48.81203" lon="-3.23776">
        <ele>60.7</ele>
        <time>2013-05-17T14:55:17Z</time>
      </trkpt>
      <trkpt lat="48.81198" lon="-3.23769">
        <ele>61.18</ele>
        <time>2013-05-17T14:55:18Z</time>
      </trkpt>
      <trkpt lat="48.81178" lon="-3.23742">
        <ele>60.22</ele>
        <time>2013-05-17T14:55:22Z</time>
      </trkpt>
      <trkpt lat="48.81105" lon="-3.23693">
        <ele>61.66</ele>
        <time>2013-05-17T14:55:34Z</time>
      </trkpt>
      <trkpt lat="48.81002" lon="-3.23646">
        <ele>63.58</ele>
        <time>2013-05-17T14:55:50Z</time>
      </trkpt>
      <trkpt lat="48.80917" lon="-3.236">
        <ele>63.1</ele>
        <time>2013-05-17T14:56:03Z</time>
      </trkpt>
      <trkpt lat="48.80802" lon="-3.2349">
        <ele>62.14</ele>
        <time>2013-05-17T14:56:19Z</time>
      </trkpt>
      <trkpt lat="48.80788" lon="-3.23476">
        <ele>61.18</ele>
        <time>2013-05-17T14:56:21Z</time>
      </trkpt>
      <trkpt lat="48.80781" lon="-3.23471">
        <ele>61.66</ele>
        <time>2013-05-17T14:56:22Z</time>
      </trkpt>
      <trkpt lat="48.80774" lon="-3.23466">
        <ele>62.62</ele>
        <time>2013-05-17T14:56:23Z</time>
      </trkpt>
      <trkpt lat="48.80767" lon="-3.23463">
        <ele>62.62</ele>
        <time>2013-05-17T14:56:24Z</time>
      </trkpt>
      <trkpt lat="48.80761" lon="-3.23461">
        <ele>62.62</ele>
        <time>2013-05-17T14:56:25Z</time>
      </trkpt>
      <trkpt lat="48.80754" lon="-3.23459">
        <ele>62.62</ele>
        <time>2013-05-17T14:56:26Z</time>
      </trkpt>
      <trkpt lat="48.80747" lon="-3.23459">
        <ele>62.62</ele>
        <time>2013-05-17T14:56:27Z</time>
      </trkpt>
      <trkpt lat="48.8074" lon="-3.23459">
        <ele>63.58</ele>
        <time>2013-05-17T14:56:28Z</time>
      </trkpt>
      <trkpt lat="48.80733" lon="-3.2346">
        <ele>63.58</ele>
        <time>2013-05-17T14:56:29Z</time>
      </trkpt>
      <trkpt lat="48.80641" lon="-3.23503">
        <ele>65.99</ele>
        <time>2013-05-17T14:56:43Z</time>
      </trkpt>
      <trkpt lat="48.80528" lon="-3.23573">
        <ele>66.47</ele>
        <time>2013-05-17T14:57:00Z</time>
      </trkpt>
      <trkpt lat="48.80434" lon="-3.23656">
        <ele>65.99</ele>
        <time>2013-05-17T14:57:14Z</time>
      </trkpt>
      <trkpt lat="48.80303" lon="-3.23779">
        <ele>67.91</ele>
        <time>2013-05-17T14:57:34Z</time>
      </trkpt>
      <trkpt lat="48.80196" lon="-3.23858">
        <ele>66.47</ele>
        <time>2013-05-17T14:57:49Z</time>
      </trkpt>
      <trkpt lat="48.80102" lon="-3.23935">
        <ele>64.55</ele>
        <time>2013-05-17T14:58:01Z</time>
      </trkpt>
      <trkpt lat="48.80058" lon="-3.23951">
        <ele>65.03</ele>
        <time>2013-05-17T14:58:06Z</time>
      </trkpt>
      <trkpt lat="48.80049" lon="-3.23951">
        <ele>65.03</ele>
        <time>2013-05-17T14:58:07Z</time>
      </trkpt>
      <trkpt lat="48.8004" lon="-3.23951">
        <ele>64.55</ele>
        <time>2013-05-17T14:58:08Z</time>
      </trkpt>
      <trkpt lat="48.79933" lon="-3.23937">
        <ele>66.47</ele>
        <time>2013-05-17T14:58:22Z</time>
      </trkpt>
      <trkpt lat="48.79836" lon="-3.23908">
        <ele>67.91</ele>
        <time>2013-05-17T14:58:36Z</time>
      </trkpt>
      <trkpt lat="48.79753" lon="-3.23882">
        <ele>66.95</ele>
        <time>2013-05-17T14:58:49Z</time>
      </trkpt>
      <trkpt lat="48.79743" lon="-3.23882">
        <ele>67.43</ele>
        <time>2013-05-17T14:58:51Z</time>
      </trkpt>
      <trkpt lat="48.79738" lon="-3.23879">
        <ele>67.43</ele>
        <time>2013-05-17T14:58:52Z</time>
      </trkpt>
      <trkpt lat="48.79734" lon="-3.23871">
        <ele>67.43</ele>
        <time>2013-05-17T14:58:53Z</time>
      </trkpt>
      <trkpt lat="48.79707" lon="-3.23754">
        <ele>64.07</ele>
        <time>2013-05-17T14:59:04Z</time>
      </trkpt>
      <trkpt lat="48.79691" lon="-3.23701">
        <ele>61.66</ele>
        <time>2013-05-17T14:59:09Z</time>
      </trkpt>
      <trkpt lat="48.79682" lon="-3.23673">
        <ele>62.14</ele>
        <time>2013-05-17T14:59:12Z</time>
      </trkpt>
      <trkpt lat="48.7968" lon="-3.23666">
        <ele>61.66</ele>
        <time>2013-05-17T14:59:13Z</time>
      </trkpt>
      <trkpt lat="48.7968" lon="-3.23661">
        <ele>61.18</ele>
        <time>2013-05-17T14:59:14Z</time>
      </trkpt>
      <trkpt lat="48.79679" lon="-3.23658">
        <ele>60.7</ele>
        <time>2013-05-17T14:59:15Z</time>
      </trkpt>
      <trkpt lat="48.79676" lon="-3.23656">
        <ele>60.22</ele>
        <time>2013-05-17T14:59:16Z</time>
      </trkpt>
      <trkpt lat="48.7967" lon="-3.23656">
        <ele>60.7</ele>
        <time>2013-05-17T14:59:17Z</time>
      </trkpt>
      <trkpt lat="48.79662" lon="-3.23657">
        <ele>60.22</ele>
        <time>2013-05-17T14:59:18Z</time>
      </trkpt>
      <trkpt lat="48.79578" lon="-3.23662">
        <ele>59.26</ele>
        <time>2013-05-17T14:59:27Z</time>
      </trkpt>
      <trkpt lat="48.79568" lon="-3.23659">
        <ele>58.78</ele>
        <time>2013-05-17T14:59:28Z</time>
      </trkpt>
      <trkpt lat="48.79538" lon="-3.23642">
        <ele>55.89</ele>
        <time>2013-05-17T14:59:31Z</time>
      </trkpt>
      <trkpt lat="48.79529" lon="-3.23635">
        <ele>55.89</ele>
        <time>2013-05-17T14:59:32Z</time>
      </trkpt>
      <trkpt lat="48.79449" lon="-3.23572">
        <ele>52.05</ele>
        <time>2013-05-17T14:59:41Z</time>
      </trkpt>
      <trkpt lat="48.7944" lon="-3.23566">
        <ele>52.53</ele>
        <time>2013-05-17T14:59:42Z</time>
      </trkpt>
      <trkpt lat="48.79398" lon="-3.23552">
        <ele>49.16</ele>
        <time>2013-05-17T14:59:46Z</time>
      </trkpt>
      <trkpt lat="48.79387" lon="-3.2355">
        <ele>48.68</ele>
        <time>2013-05-17T14:59:47Z</time>
      </trkpt>
      <trkpt lat="48.79373" lon="-3.23551">
        <ele>48.2</ele>
        <time>2013-05-17T14:59:48Z</time>
      </trkpt>
      <trkpt lat="48.79359" lon="-3.23552">
        <ele>47.72</ele>
        <time>2013-05-17T14:59:49Z</time>
      </trkpt>
      <trkpt lat="48.79347" lon="-3.23554">
        <ele>47.24</ele>
        <time>2013-05-17T14:59:50Z</time>
      </trkpt>
      <trkpt lat="48.79335" lon="-3.23558">
        <ele>45.8</ele>
        <time>2013-05-17T14:59:51Z</time>
      </trkpt>
      <trkpt lat="48.79323" lon="-3.23565">
        <ele>45.32</ele>
        <time>2013-05-17T14:59:52Z</time>
      </trkpt>
      <trkpt lat="48.79313" lon="-3.23574">
        <ele>44.84</ele>
        <time>2013-05-17T14:59:53Z</time>
      </trkpt>
      <trkpt lat="48.79302" lon="-3.23583">
        <ele>43.88</ele>
        <time>2013-05-17T14:59:54Z</time>
      </trkpt>
      <trkpt lat="48.7927" lon="-3.23606">
        <ele>42.44</ele>
        <time>2013-05-17T14:59:57Z</time>
      </trkpt>
      <trkpt lat="48.79258" lon="-3.23608">
        <ele>41.95</ele>
        <time>2013-05-17T14:59:58Z</time>
      </trkpt>
      <trkpt lat="48.79246" lon="-3.23609">
        <ele>40.51</ele>
        <time>2013-05-17T14:59:59Z</time>
      </trkpt>
      <trkpt lat="48.79234" lon="-3.23608">
        <ele>40.99</ele>
        <time>2013-05-17T15:00:00Z</time>
      </trkpt>
      <trkpt lat="48.79221" lon="-3.23605">
        <ele>40.03</ele>
        <time>2013-05-17T15:00:01Z</time>
      </trkpt>
      <trkpt lat="48.7921" lon="-3.23601">
        <ele>39.55</ele>
        <time>2013-05-17T15:00:02Z</time>
      </trkpt>
      <trkpt lat="48.79198" lon="-3.23596">
        <ele>39.07</ele>
        <time>2013-05-17T15:00:03Z</time>
      </trkpt>
      <trkpt lat="48.7914" lon="-3.23573">
        <ele>36.19</ele>
        <time>2013-05-17T15:00:08Z</time>
      </trkpt>
      <trkpt lat="48.79084" lon="-3.23549">
        <ele>32.82</ele>
        <time>2013-05-17T15:00:13Z</time>
      </trkpt>
      <trkpt lat="48.79062" lon="-3.23537">
        <ele>30.9</ele>
        <time>2013-05-17T15:00:15Z</time>
      </trkpt>
      <trkpt lat="48.79051" lon="-3.23529">
        <ele>30.9</ele>
        <time>2013-05-17T15:00:16Z</time>
      </trkpt>
      <trkpt lat="48.79042" lon="-3.23517">
        <ele>30.42</ele>
        <time>2013-05-17T15:00:17Z</time>
      </trkpt>
      <trkpt lat="48.79035" lon="-3.23504">
        <ele>30.42</ele>
        <time>2013-05-17T15:00:18Z</time>
      </trkpt>
      <trkpt lat="48.7903" lon="-3.23489">
        <ele>29.94</ele>
        <time>2013-05-17T15:00:19Z</time>
      </trkpt>
      <trkpt lat="48.79027" lon="-3.23474">
        <ele>29.94</ele>
        <time>2013-05-17T15:00:20Z</time>
      </trkpt>
      <trkpt lat="48.79025" lon="-3.23458">
        <ele>28.98</ele>
        <time>2013-05-17T15:00:21Z</time>
      </trkpt>
      <trkpt lat="48.79025" lon="-3.23443">
        <ele>28.5</ele>
        <time>2013-05-17T15:00:22Z</time>
      </trkpt>
      <trkpt lat="48.79027" lon="-3.23428">
        <ele>27.53</ele>
        <time>2013-05-17T15:00:23Z</time>
      </trkpt>
      <trkpt lat="48.79029" lon="-3.23413">
        <ele>26.09</ele>
        <time>2013-05-17T15:00:24Z</time>
      </trkpt>
      <trkpt lat="48.79039" lon="-3.23355">
        <ele>22.73</ele>
        <time>2013-05-17T15:00:28Z</time>
      </trkpt>
      <trkpt lat="48.79056" lon="-3.23284">
        <ele>20.81</ele>
        <time>2013-05-17T15:00:33Z</time>
      </trkpt>
      <trkpt lat="48.79061" lon="-3.23272">
        <ele>20.81</ele>
        <time>2013-05-17T15:00:34Z</time>
      </trkpt>
      <trkpt lat="48.79084" lon="-3.23226">
        <ele>17.92</ele>
        <time>2013-05-17T15:00:38Z</time>
      </trkpt>
      <trkpt lat="48.79089" lon="-3.23215">
        <ele>16.96</ele>
        <time>2013-05-17T15:00:39Z</time>
      </trkpt>
      <trkpt lat="48.79093" lon="-3.23201">
        <ele>16.96</ele>
        <time>2013-05-17T15:00:40Z</time>
      </trkpt>
      <trkpt lat="48.79097" lon="-3.23187">
        <ele>16.48</ele>
        <time>2013-05-17T15:00:41Z</time>
      </trkpt>
      <trkpt lat="48.79098" lon="-3.23173">
        <ele>16.96</ele>
        <time>2013-05-17T15:00:42Z</time>
      </trkpt>
      <trkpt lat="48.79098" lon="-3.23161">
        <ele>16.96</ele>
        <time>2013-05-17T15:00:43Z</time>
      </trkpt>
      <trkpt lat="48.79098" lon="-3.23149">
        <ele>16.96</ele>
        <time>2013-05-17T15:00:44Z</time>
      </trkpt>
      <trkpt lat="48.79089" lon="-3.23053">
        <ele>15.04</ele>
        <time>2013-05-17T15:00:53Z</time>
      </trkpt>
      <trkpt lat="48.79088" lon="-3.23044">
        <ele>14.56</ele>
        <time>2013-05-17T15:00:54Z</time>
      </trkpt>
      <trkpt lat="48.79087" lon="-3.23034">
        <ele>14.08</ele>
        <time>2013-05-17T15:00:55Z</time>
      </trkpt>
      <trkpt lat="48.79088" lon="-3.23025">
        <ele>14.08</ele>
        <time>2013-05-17T15:00:56Z</time>
      </trkpt>
      <trkpt lat="48.7909" lon="-3.23016">
        <ele>14.08</ele>
        <time>2013-05-17T15:00:57Z</time>
      </trkpt>
      <trkpt lat="48.79093" lon="-3.23007">
        <ele>14.08</ele>
        <time>2013-05-17T15:00:58Z</time>
      </trkpt>
      <trkpt lat="48.79097" lon="-3.22999">
        <ele>13.6</ele>
        <time>2013-05-17T15:00:59Z</time>
      </trkpt>
      <trkpt lat="48.79114" lon="-3.22941">
        <ele>12.15</ele>
        <time>2013-05-17T15:01:05Z</time>
      </trkpt>
      <trkpt lat="48.79115" lon="-3.2293">
        <ele>11.19</ele>
        <time>2013-05-17T15:01:06Z</time>
      </trkpt>
      <trkpt lat="48.79116" lon="-3.2292">
        <ele>10.71</ele>
        <time>2013-05-17T15:01:07Z</time>
      </trkpt>
      <trkpt lat="48.79115" lon="-3.22908">
        <ele>10.71</ele>
        <time>2013-05-17T15:01:08Z</time>
      </trkpt>
      <trkpt lat="48.79113" lon="-3.22897">
        <ele>10.71</ele>
        <time>2013-05-17T15:01:09Z</time>
      </trkpt>
      <trkpt lat="48.7911" lon="-3.22887">
        <ele>10.71</ele>
        <time>2013-05-17T15:01:10Z</time>
      </trkpt>
      <trkpt lat="48.79106" lon="-3.22877">
        <ele>11.19</ele>
        <time>2013-05-17T15:01:11Z</time>
      </trkpt>
      <trkpt lat="48.79101" lon="-3.2287">
        <ele>11.19</ele>
        <time>2013-05-17T15:01:12Z</time>
      </trkpt>
      <trkpt lat="48.79095" lon="-3.22863">
        <ele>9.27</ele>
        <time>2013-05-17T15:01:13Z</time>
      </trkpt>
      <trkpt lat="48.79079" lon="-3.22842">
        <ele>10.71</ele>
        <time>2013-05-17T15:01:16Z</time>
      </trkpt>
      <trkpt lat="48.79075" lon="-3.22834">
        <ele>10.23</ele>
        <time>2013-05-17T15:01:17Z</time>
      </trkpt>
      <trkpt lat="48.79064" lon="-3.22819">
        <ele>10.23</ele>
        <time>2013-05-17T15:01:19Z</time>
      </trkpt>
      <trkpt lat="48.79035" lon="-3.22776">
        <ele>9.75</ele>
        <time>2013-05-17T15:01:25Z</time>
      </trkpt>
      <trkpt lat="48.7903" lon="-3.22772">
        <ele>9.75</ele>
        <time>2013-05-17T15:01:26Z</time>
      </trkpt>
      <trkpt lat="48.79024" lon="-3.22768">
        <ele>9.27</ele>
        <time>2013-05-17T15:01:27Z</time>
      </trkpt>
      <trkpt lat="48.79018" lon="-3.22764">
        <ele>9.27</ele>
        <time>2013-05-17T15:01:28Z</time>
      </trkpt>
      <trkpt lat="48.79012" lon="-3.22759">
        <ele>9.75</ele>
        <time>2013-05-17T15:01:29Z</time>
      </trkpt>
      <trkpt lat="48.79007" lon="-3.22753">
        <ele>9.75</ele>
        <time>2013-05-17T15:01:30Z</time>
      </trkpt>
      <trkpt lat="48.79002" lon="-3.22747">
        <ele>9.75</ele>
        <time>2013-05-17T15:01:31Z</time>
      </trkpt>
      <trkpt lat="48.7892" lon="-3.22633">
        <ele>10.23</ele>
        <time>2013-05-17T15:01:47Z</time>
      </trkpt>
      <trkpt lat="48.78871" lon="-3.22565">
        <ele>9.75</ele>
        <time>2013-05-17T15:01:57Z</time>
      </trkpt>
      <trkpt lat="48.78862" lon="-3.22552">
        <ele>9.75</ele>
        <time>2013-05-17T15:01:59Z</time>
      </trkpt>
      <trkpt lat="48.78859" lon="-3.22546">
        <ele>9.75</ele>
        <time>2013-05-17T15:02:00Z</time>
      </trkpt>
      <trkpt lat="48.78846" lon="-3.22531">
        <ele>9.75</ele>
        <time>2013-05-17T15:02:03Z</time>
      </trkpt>
      <trkpt lat="48.78811" lon="-3.2249">
        <ele>9.27</ele>
        <time>2013-05-17T15:02:11Z</time>
      </trkpt>
      <trkpt lat="48.78806" lon="-3.22486">
        <ele>9.75</ele>
        <time>2013-05-17T15:02:12Z</time>
      </trkpt>
      <trkpt lat="48.78762" lon="-3.22442">
        <ele>9.75</ele>
        <time>2013-05-17T15:02:22Z</time>
      </trkpt>
      <trkpt lat="48.78748" lon="-3.22428">
        <ele>9.75</ele>
        <time>2013-05-17T15:02:25Z</time>
      </trkpt>
      <trkpt lat="48.7871" lon="-3.22399">
        <ele>10.23</ele>
        <time>2013-05-17T15:02:33Z</time>
      </trkpt>
      <trkpt lat="48.78706" lon="-3.22395">
        <ele>9.75</ele>
        <time>2013-05-17T15:02:34Z</time>
      </trkpt>
      <trkpt lat="48.78693" lon="-3.22386">
        <ele>9.75</ele>
        <time>2013-05-17T15:02:37Z</time>
      </trkpt>
      <trkpt lat="48.78688" lon="-3.22383">
        <ele>9.75</ele>
        <time>2013-05-17T15:02:38Z</time>
      </trkpt>
      <trkpt lat="48.78607" lon="-3.22314">
        <ele>9.75</ele>
        <time>2013-05-17T15:02:53Z</time>
      </trkpt>
      <trkpt lat="48.78541" lon="-3.22258">
        <ele>10.23</ele>
        <time>2013-05-17T15:03:04Z</time>
      </trkpt>
      <trkpt lat="48.78492" lon="-3.22229">
        <ele>12.15</ele>
        <time>2013-05-17T15:03:13Z</time>
      </trkpt>
      <trkpt lat="48.78486" lon="-3.22229">
        <ele>11.67</ele>
        <time>2013-05-17T15:03:14Z</time>
      </trkpt>
      <trkpt lat="48.78482" lon="-3.22231">
        <ele>12.15</ele>
        <time>2013-05-17T15:03:15Z</time>
      </trkpt>
      <trkpt lat="48.78469" lon="-3.22237">
        <ele>13.12</ele>
        <time>2013-05-17T15:03:18Z</time>
      </trkpt>
      <trkpt lat="48.7846" lon="-3.22243">
        <ele>13.6</ele>
        <time>2013-05-17T15:03:20Z</time>
      </trkpt>
      <trkpt lat="48.78456" lon="-3.22246">
        <ele>13.6</ele>
        <time>2013-05-17T15:03:21Z</time>
      </trkpt>
      <trkpt lat="48.78438" lon="-3.22254">
        <ele>15.04</ele>
        <time>2013-05-17T15:03:25Z</time>
      </trkpt>
      <trkpt lat="48.78433" lon="-3.22254">
        <ele>16</ele>
        <time>2013-05-17T15:03:26Z</time>
      </trkpt>
      <trkpt lat="48.78429" lon="-3.22253">
        <ele>16</ele>
        <time>2013-05-17T15:03:27Z</time>
      </trkpt>
      <trkpt lat="48.78424" lon="-3.22251">
        <ele>16</ele>
        <time>2013-05-17T15:03:28Z</time>
      </trkpt>
      <trkpt lat="48.78419" lon="-3.22249">
        <ele>16</ele>
        <time>2013-05-17T15:03:29Z</time>
      </trkpt>
      <trkpt lat="48.78413" lon="-3.22248">
        <ele>15.52</ele>
        <time>2013-05-17T15:03:30Z</time>
      </trkpt>
      <trkpt lat="48.78407" lon="-3.22248">
        <ele>15.52</ele>
        <time>2013-05-17T15:03:31Z</time>
      </trkpt>
      <trkpt lat="48.784" lon="-3.2225">
        <ele>14.56</ele>
        <time>2013-05-17T15:03:32Z</time>
      </trkpt>
      <trkpt lat="48.78393" lon="-3.22253">
        <ele>14.08</ele>
        <time>2013-05-17T15:03:33Z</time>
      </trkpt>
      <trkpt lat="48.78315" lon="-3.22286">
        <ele>16</ele>
        <time>2013-05-17T15:03:46Z</time>
      </trkpt>
      <trkpt lat="48.78201" lon="-3.22323">
        <ele>15.52</ele>
        <time>2013-05-17T15:04:03Z</time>
      </trkpt>
      <trkpt lat="48.78142" lon="-3.22345">
        <ele>16.96</ele>
        <time>2013-05-17T15:04:12Z</time>
      </trkpt>
      <trkpt lat="48.78046" lon="-3.22321">
        <ele>15.04</ele>
        <time>2013-05-17T15:04:25Z</time>
      </trkpt>
      <trkpt lat="48.77955" lon="-3.22294">
        <ele>17.92</ele>
        <time>2013-05-17T15:04:39Z</time>
      </trkpt>
      <trkpt lat="48.77949" lon="-3.22294">
        <ele>17.44</ele>
        <time>2013-05-17T15:04:40Z</time>
      </trkpt>
      <trkpt lat="48.77918" lon="-3.223">
        <ele>18.4</ele>
        <time>2013-05-17T15:04:45Z</time>
      </trkpt>
      <trkpt lat="48.77844" lon="-3.22357">
        <ele>21.77</ele>
        <time>2013-05-17T15:04:58Z</time>
      </trkpt>
      <trkpt lat="48.77741" lon="-3.22457">
        <ele>24.65</ele>
        <time>2013-05-17T15:05:17Z</time>
      </trkpt>
      <trkpt lat="48.77672" lon="-3.22492">
        <ele>28.02</ele>
        <time>2013-05-17T15:05:29Z</time>
      </trkpt>
      <trkpt lat="48.77649" lon="-3.22495">
        <ele>29.46</ele>
        <time>2013-05-17T15:05:33Z</time>
      </trkpt>
      <trkpt lat="48.77643" lon="-3.22494">
        <ele>29.94</ele>
        <time>2013-05-17T15:05:34Z</time>
      </trkpt>
      <trkpt lat="48.77559" lon="-3.2247">
        <ele>30.42</ele>
        <time>2013-05-17T15:05:47Z</time>
      </trkpt>
      <trkpt lat="48.77516" lon="-3.22453">
        <ele>29.94</ele>
        <time>2013-05-17T15:05:54Z</time>
      </trkpt>
      <trkpt lat="48.77509" lon="-3.22452">
        <ele>29.94</ele>
        <time>2013-05-17T15:05:55Z</time>
      </trkpt>
      <trkpt lat="48.77501" lon="-3.22452">
        <ele>30.42</ele>
        <time>2013-05-17T15:05:56Z</time>
      </trkpt>
      <trkpt lat="48.77494" lon="-3.22452">
        <ele>29.94</ele>
        <time>2013-05-17T15:05:57Z</time>
      </trkpt>
      <trkpt lat="48.77487" lon="-3.22453">
        <ele>30.42</ele>
        <time>2013-05-17T15:05:58Z</time>
      </trkpt>
      <trkpt lat="48.77472" lon="-3.22457">
        <ele>30.9</ele>
        <time>2013-05-17T15:06:00Z</time>
      </trkpt>
      <trkpt lat="48.77465" lon="-3.2246">
        <ele>30.42</ele>
        <time>2013-05-17T15:06:01Z</time>
      </trkpt>
      <trkpt lat="48.77444" lon="-3.22473">
        <ele>30.42</ele>
        <time>2013-05-17T15:06:04Z</time>
      </trkpt>
      <trkpt lat="48.77437" lon="-3.22479">
        <ele>30.9</ele>
        <time>2013-05-17T15:06:05Z</time>
      </trkpt>
      <trkpt lat="48.77392" lon="-3.22546">
        <ele>30.42</ele>
        <time>2013-05-17T15:06:13Z</time>
      </trkpt>
      <trkpt lat="48.77389" lon="-3.22556">
        <ele>30.42</ele>
        <time>2013-05-17T15:06:14Z</time>
      </trkpt>
      <trkpt lat="48.77372" lon="-3.22681">
        <ele>31.38</ele>
        <time>2013-05-17T15:06:26Z</time>
      </trkpt>
      <trkpt lat="48.77372" lon="-3.2283">
        <ele>34.26</ele>
        <time>2013-05-17T15:06:41Z</time>
      </trkpt>
      <trkpt lat="48.77363" lon="-3.22988">
        <ele>36.19</ele>
        <time>2013-05-17T15:06:57Z</time>
      </trkpt>
      <trkpt lat="48.77359" lon="-3.23007">
        <ele>37.15</ele>
        <time>2013-05-17T15:06:59Z</time>
      </trkpt>
      <trkpt lat="48.77356" lon="-3.23015">
        <ele>36.67</ele>
        <time>2013-05-17T15:07:00Z</time>
      </trkpt>
      <trkpt lat="48.77343" lon="-3.23072">
        <ele>38.59</ele>
        <time>2013-05-17T15:07:07Z</time>
      </trkpt>
      <trkpt lat="48.77341" lon="-3.23079">
        <ele>39.07</ele>
        <time>2013-05-17T15:07:08Z</time>
      </trkpt>
      <trkpt lat="48.77338" lon="-3.23086">
        <ele>39.07</ele>
        <time>2013-05-17T15:07:09Z</time>
      </trkpt>
      <trkpt lat="48.77334" lon="-3.23093">
        <ele>39.55</ele>
        <time>2013-05-17T15:07:10Z</time>
      </trkpt>
      <trkpt lat="48.77331" lon="-3.23099">
        <ele>39.55</ele>
        <time>2013-05-17T15:07:11Z</time>
      </trkpt>
      <trkpt lat="48.77327" lon="-3.23106">
        <ele>39.07</ele>
        <time>2013-05-17T15:07:12Z</time>
      </trkpt>
      <trkpt lat="48.77324" lon="-3.23114">
        <ele>40.03</ele>
        <time>2013-05-17T15:07:13Z</time>
      </trkpt>
      <trkpt lat="48.77322" lon="-3.23121">
        <ele>39.55</ele>
        <time>2013-05-17T15:07:14Z</time>
      </trkpt>
      <trkpt lat="48.7732" lon="-3.23129">
        <ele>39.55</ele>
        <time>2013-05-17T15:07:15Z</time>
      </trkpt>
      <trkpt lat="48.77284" lon="-3.23271">
        <ele>40.03</ele>
        <time>2013-05-17T15:07:31Z</time>
      </trkpt>
      <trkpt lat="48.77266" lon="-3.2341">
        <ele>39.55</ele>
        <time>2013-05-17T15:07:44Z</time>
      </trkpt>
      <trkpt lat="48.77252" lon="-3.23455">
        <ele>40.03</ele>
        <time>2013-05-17T15:07:49Z</time>
      </trkpt>
      <trkpt lat="48.77237" lon="-3.23487">
        <ele>40.99</ele>
        <time>2013-05-17T15:07:53Z</time>
      </trkpt>
      <trkpt lat="48.77233" lon="-3.23495">
        <ele>40.99</ele>
        <time>2013-05-17T15:07:54Z</time>
      </trkpt>
      <trkpt lat="48.77204" lon="-3.23535">
        <ele>41.95</ele>
        <time>2013-05-17T15:08:00Z</time>
      </trkpt>
      <trkpt lat="48.77199" lon="-3.23542">
        <ele>41.95</ele>
        <time>2013-05-17T15:08:01Z</time>
      </trkpt>
      <trkpt lat="48.77191" lon="-3.23556">
        <ele>41.95</ele>
        <time>2013-05-17T15:08:03Z</time>
      </trkpt>
      <trkpt lat="48.77186" lon="-3.23562">
        <ele>42.44</ele>
        <time>2013-05-17T15:08:04Z</time>
      </trkpt>
      <trkpt lat="48.7718" lon="-3.23566">
        <ele>42.44</ele>
        <time>2013-05-17T15:08:05Z</time>
      </trkpt>
      <trkpt lat="48.77174" lon="-3.2357">
        <ele>42.44</ele>
        <time>2013-05-17T15:08:06Z</time>
      </trkpt>
      <trkpt lat="48.77168" lon="-3.23575">
        <ele>42.44</ele>
        <time>2013-05-17T15:08:07Z</time>
      </trkpt>
      <trkpt lat="48.77162" lon="-3.23581">
        <ele>41.95</ele>
        <time>2013-05-17T15:08:08Z</time>
      </trkpt>
      <trkpt lat="48.77157" lon="-3.23587">
        <ele>42.44</ele>
        <time>2013-05-17T15:08:09Z</time>
      </trkpt>
      <trkpt lat="48.77136" lon="-3.23614">
        <ele>42.92</ele>
        <time>2013-05-17T15:08:13Z</time>
      </trkpt>
      <trkpt lat="48.77132" lon="-3.23623">
        <ele>42.44</ele>
        <time>2013-05-17T15:08:14Z</time>
      </trkpt>
      <trkpt lat="48.77129" lon="-3.23631">
        <ele>42.44</ele>
        <time>2013-05-17T15:08:15Z</time>
      </trkpt>
      <trkpt lat="48.77098" lon="-3.23715">
        <ele>45.32</ele>
        <time>2013-05-17T15:08:26Z</time>
      </trkpt>
      <trkpt lat="48.77081" lon="-3.23772">
        <ele>44.84</ele>
        <time>2013-05-17T15:08:33Z</time>
      </trkpt>
      <trkpt lat="48.77077" lon="-3.23781">
        <ele>43.88</ele>
        <time>2013-05-17T15:08:34Z</time>
      </trkpt>
      <trkpt lat="48.77072" lon="-3.2379">
        <ele>43.88</ele>
        <time>2013-05-17T15:08:35Z</time>
      </trkpt>
      <trkpt lat="48.77033" lon="-3.23858">
        <ele>40.03</ele>
        <time>2013-05-17T15:08:42Z</time>
      </trkpt>
      <trkpt lat="48.7697" lon="-3.23943">
        <ele>37.63</ele>
        <time>2013-05-17T15:08:51Z</time>
      </trkpt>
      <trkpt lat="48.76937" lon="-3.24002">
        <ele>36.67</ele>
        <time>2013-05-17T15:08:59Z</time>
      </trkpt>
      <trkpt lat="48.76938" lon="-3.24014">
        <ele>36.19</ele>
        <time>2013-05-17T15:09:03Z</time>
      </trkpt>
      <trkpt lat="48.7694" lon="-3.24016">
        <ele>36.67</ele>
        <time>2013-05-17T15:09:04Z</time>
      </trkpt>
      <trkpt lat="48.76943" lon="-3.24016">
        <ele>36.67</ele>
        <time>2013-05-17T15:09:05Z</time>
      </trkpt>
      <trkpt lat="48.76945" lon="-3.24016">
        <ele>36.67</ele>
        <time>2013-05-17T15:09:06Z</time>
      </trkpt>
      <trkpt lat="48.76947" lon="-3.24017">
        <ele>36.19</ele>
        <time>2013-05-17T15:09:07Z</time>
      </trkpt>
      <trkpt lat="48.76948" lon="-3.24019">
        <ele>36.19</ele>
        <time>2013-05-17T15:09:08Z</time>
      </trkpt>
      <trkpt lat="48.7695" lon="-3.24021">
        <ele>36.67</ele>
        <time>2013-05-17T15:09:12Z</time>
      </trkpt>
      <trkpt lat="48.7695" lon="-3.24023">
        <ele>37.15</ele>
        <time>2013-05-17T15:09:13Z</time>
      </trkpt>
      <trkpt lat="48.7695" lon="-3.2403">
        <ele>36.19</ele>
        <time>2013-05-17T15:09:15Z</time>
      </trkpt>
      <trkpt lat="48.76948" lon="-3.24034">
        <ele>36.19</ele>
        <time>2013-05-17T15:09:16Z</time>
      </trkpt>
      <trkpt lat="48.76944" lon="-3.24038">
        <ele>36.19</ele>
        <time>2013-05-17T15:09:17Z</time>
      </trkpt>
      <trkpt lat="48.7694" lon="-3.24041">
        <ele>36.67</ele>
        <time>2013-05-17T15:09:18Z</time>
      </trkpt>
      <trkpt lat="48.76936" lon="-3.24045">
        <ele>36.19</ele>
        <time>2013-05-17T15:09:19Z</time>
      </trkpt>
      <trkpt lat="48.76865" lon="-3.24118">
        <ele>35.71</ele>
        <time>2013-05-17T15:09:33Z</time>
      </trkpt>
      <trkpt lat="48.76755" lon="-3.24256">
        <ele>35.23</ele>
        <time>2013-05-17T15:09:52Z</time>
      </trkpt>
      <trkpt lat="48.76642" lon="-3.244">
        <ele>34.74</ele>
        <time>2013-05-17T15:10:10Z</time>
      </trkpt>
      <trkpt lat="48.76525" lon="-3.24548">
        <ele>33.78</ele>
        <time>2013-05-17T15:10:28Z</time>
      </trkpt>
      <trkpt lat="48.76405" lon="-3.24703">
        <ele>32.82</ele>
        <time>2013-05-17T15:10:46Z</time>
      </trkpt>
      <trkpt lat="48.76268" lon="-3.24879">
        <ele>31.38</ele>
        <time>2013-05-17T15:11:06Z</time>
      </trkpt>
      <trkpt lat="48.76125" lon="-3.25061">
        <ele>29.94</ele>
        <time>2013-05-17T15:11:26Z</time>
      </trkpt>
      <trkpt lat="48.76026" lon="-3.25188">
        <ele>26.57</ele>
        <time>2013-05-17T15:11:39Z</time>
      </trkpt>
      <trkpt lat="48.75957" lon="-3.25313">
        <ele>23.69</ele>
        <time>2013-05-17T15:11:49Z</time>
      </trkpt>
      <trkpt lat="48.7593" lon="-3.25422">
        <ele>20.32</ele>
        <time>2013-05-17T15:11:56Z</time>
      </trkpt>
      <trkpt lat="48.75927" lon="-3.25438">
        <ele>20.32</ele>
        <time>2013-05-17T15:11:57Z</time>
      </trkpt>
      <trkpt lat="48.75914" lon="-3.25503">
        <ele>17.44</ele>
        <time>2013-05-17T15:12:01Z</time>
      </trkpt>
      <trkpt lat="48.7587" lon="-3.25678">
        <ele>16.48</ele>
        <time>2013-05-17T15:12:13Z</time>
      </trkpt>
      <trkpt lat="48.75807" lon="-3.25893">
        <ele>17.92</ele>
        <time>2013-05-17T15:12:32Z</time>
      </trkpt>
      <trkpt lat="48.75742" lon="-3.26008">
        <ele>17.44</ele>
        <time>2013-05-17T15:12:44Z</time>
      </trkpt>
      <trkpt lat="48.7565" lon="-3.26055">
        <ele>16.48</ele>
        <time>2013-05-17T15:12:55Z</time>
      </trkpt>
      <trkpt lat="48.75631" lon="-3.26058">
        <ele>16</ele>
        <time>2013-05-17T15:12:57Z</time>
      </trkpt>
      <trkpt lat="48.75563" lon="-3.26068">
        <ele>12.63</ele>
        <time>2013-05-17T15:13:04Z</time>
      </trkpt>
      <trkpt lat="48.75422" lon="-3.26094">
        <ele>12.63</ele>
        <time>2013-05-17T15:13:19Z</time>
      </trkpt>
      <trkpt lat="48.75316" lon="-3.26112">
        <ele>12.15</ele>
        <time>2013-05-17T15:13:34Z</time>
      </trkpt>
      <trkpt lat="48.75297" lon="-3.26118">
        <ele>12.15</ele>
        <time>2013-05-17T15:13:41Z</time>
      </trkpt>
      <trkpt lat="48.75293" lon="-3.26123">
        <ele>12.15</ele>
        <time>2013-05-17T15:13:42Z</time>
      </trkpt>
      <trkpt lat="48.75291" lon="-3.26129">
        <ele>12.15</ele>
        <time>2013-05-17T15:13:43Z</time>
      </trkpt>
      <trkpt lat="48.75289" lon="-3.26136">
        <ele>12.15</ele>
        <time>2013-05-17T15:13:44Z</time>
      </trkpt>
      <trkpt lat="48.75288" lon="-3.26144">
        <ele>12.15</ele>
        <time>2013-05-17T15:13:45Z</time>
      </trkpt>
      <trkpt lat="48.75288" lon="-3.26153">
        <ele>12.63</ele>
        <time>2013-05-17T15:13:46Z</time>
      </trkpt>
      <trkpt lat="48.75286" lon="-3.26162">
        <ele>12.63</ele>
        <time>2013-05-17T15:13:47Z</time>
      </trkpt>
      <trkpt lat="48.75283" lon="-3.26171">
        <ele>13.12</ele>
        <time>2013-05-17T15:13:48Z</time>
      </trkpt>
      <trkpt lat="48.75279" lon="-3.26178">
        <ele>13.12</ele>
        <time>2013-05-17T15:13:49Z</time>
      </trkpt>
      <trkpt lat="48.75274" lon="-3.26183">
        <ele>13.6</ele>
        <time>2013-05-17T15:13:50Z</time>
      </trkpt>
      <trkpt lat="48.75268" lon="-3.26186">
        <ele>13.6</ele>
        <time>2013-05-17T15:13:51Z</time>
      </trkpt>
      <trkpt lat="48.75261" lon="-3.26188">
        <ele>14.08</ele>
        <time>2013-05-17T15:13:52Z</time>
      </trkpt>
      <trkpt lat="48.75254" lon="-3.26187">
        <ele>14.08</ele>
        <time>2013-05-17T15:13:53Z</time>
      </trkpt>
      <trkpt lat="48.75247" lon="-3.26189">
        <ele>13.12</ele>
        <time>2013-05-17T15:13:54Z</time>
      </trkpt>
      <trkpt lat="48.75241" lon="-3.26193">
        <ele>13.12</ele>
        <time>2013-05-17T15:13:55Z</time>
      </trkpt>
      <trkpt lat="48.75236" lon="-3.26202">
        <ele>12.15</ele>
        <time>2013-05-17T15:13:56Z</time>
      </trkpt>
      <trkpt lat="48.75233" lon="-3.26214">
        <ele>11.67</ele>
        <time>2013-05-17T15:13:57Z</time>
      </trkpt>
      <trkpt lat="48.75233" lon="-3.26227">
        <ele>11.67</ele>
        <time>2013-05-17T15:13:58Z</time>
      </trkpt>
      <trkpt lat="48.75234" lon="-3.26239">
        <ele>11.67</ele>
        <time>2013-05-17T15:13:59Z</time>
      </trkpt>
      <trkpt lat="48.75236" lon="-3.26251">
        <ele>11.67</ele>
        <time>2013-05-17T15:14:00Z</time>
      </trkpt>
      <trkpt lat="48.75275" lon="-3.26417">
        <ele>12.15</ele>
        <time>2013-05-17T15:14:15Z</time>
      </trkpt>
      <trkpt lat="48.75276" lon="-3.26429">
        <ele>11.67</ele>
        <time>2013-05-17T15:14:16Z</time>
      </trkpt>
      <trkpt lat="48.75276" lon="-3.2644">
        <ele>11.67</ele>
        <time>2013-05-17T15:14:17Z</time>
      </trkpt>
      <trkpt lat="48.75275" lon="-3.26452">
        <ele>11.67</ele>
        <time>2013-05-17T15:14:18Z</time>
      </trkpt>
      <trkpt lat="48.75274" lon="-3.26463">
        <ele>11.19</ele>
        <time>2013-05-17T15:14:19Z</time>
      </trkpt>
      <trkpt lat="48.75273" lon="-3.26474">
        <ele>11.19</ele>
        <time>2013-05-17T15:14:20Z</time>
      </trkpt>
      <trkpt lat="48.7527" lon="-3.26485">
        <ele>11.67</ele>
        <time>2013-05-17T15:14:21Z</time>
      </trkpt>
      <trkpt lat="48.75267" lon="-3.26496">
        <ele>11.67</ele>
        <time>2013-05-17T15:14:22Z</time>
      </trkpt>
      <trkpt lat="48.75263" lon="-3.26506">
        <ele>11.19</ele>
        <time>2013-05-17T15:14:23Z</time>
      </trkpt>
      <trkpt lat="48.75197" lon="-3.26638">
        <ele>11.67</ele>
        <time>2013-05-17T15:14:37Z</time>
      </trkpt>
      <trkpt lat="48.75124" lon="-3.26704">
        <ele>10.23</ele>
        <time>2013-05-17T15:14:48Z</time>
      </trkpt>
      <trkpt lat="48.75013" lon="-3.26772">
        <ele>12.63</ele>
        <time>2013-05-17T15:15:05Z</time>
      </trkpt>
      <trkpt lat="48.75007" lon="-3.26774">
        <ele>12.63</ele>
        <time>2013-05-17T15:15:06Z</time>
      </trkpt>
      <trkpt lat="48.75002" lon="-3.26776">
        <ele>13.12</ele>
        <time>2013-05-17T15:15:07Z</time>
      </trkpt>
      <trkpt lat="48.74998" lon="-3.26778">
        <ele>12.63</ele>
        <time>2013-05-17T15:15:08Z</time>
      </trkpt>
      <trkpt lat="48.74996" lon="-3.26779">
        <ele>13.6</ele>
        <time>2013-05-17T15:15:09Z</time>
      </trkpt>
      <trkpt lat="48.74994" lon="-3.26781">
        <ele>13.12</ele>
        <time>2013-05-17T15:15:10Z</time>
      </trkpt>
      <trkpt lat="48.74959" lon="-3.2681">
        <ele>12.15</ele>
        <time>2013-05-17T15:15:19Z</time>
      </trkpt>
      <trkpt lat="48.74942" lon="-3.26827">
        <ele>12.63</ele>
        <time>2013-05-17T15:15:22Z</time>
      </trkpt>
      <trkpt lat="48.74937" lon="-3.26834">
        <ele>12.15</ele>
        <time>2013-05-17T15:15:23Z</time>
      </trkpt>
      <trkpt lat="48.74932" lon="-3.26843">
        <ele>12.63</ele>
        <time>2013-05-17T15:15:24Z</time>
      </trkpt>
      <trkpt lat="48.74928" lon="-3.26852">
        <ele>12.15</ele>
        <time>2013-05-17T15:15:25Z</time>
      </trkpt>
      <trkpt lat="48.74924" lon="-3.26862">
        <ele>12.15</ele>
        <time>2013-05-17T15:15:26Z</time>
      </trkpt>
      <trkpt lat="48.74921" lon="-3.26872">
        <ele>11.67</ele>
        <time>2013-05-17T15:15:27Z</time>
      </trkpt>
      <trkpt lat="48.74918" lon="-3.26883">
        <ele>11.67</ele>
        <time>2013-05-17T15:15:28Z</time>
      </trkpt>
      <trkpt lat="48.74916" lon="-3.26895">
        <ele>11.67</ele>
        <time>2013-05-17T15:15:29Z</time>
      </trkpt>
      <trkpt lat="48.74905" lon="-3.27005">
        <ele>13.12</ele>
        <time>2013-05-17T15:15:39Z</time>
      </trkpt>
      <trkpt lat="48.74906" lon="-3.27014">
        <ele>12.63</ele>
        <time>2013-05-17T15:15:40Z</time>
      </trkpt>
      <trkpt lat="48.7493" lon="-3.2713">
        <ele>16</ele>
        <time>2013-05-17T15:15:53Z</time>
      </trkpt>
      <trkpt lat="48.74965" lon="-3.27291">
        <ele>19.36</ele>
        <time>2013-05-17T15:16:12Z</time>
      </trkpt>
      <trkpt lat="48.74967" lon="-3.27299">
        <ele>19.36</ele>
        <time>2013-05-17T15:16:13Z</time>
      </trkpt>
      <trkpt lat="48.74977" lon="-3.27337">
        <ele>21.77</ele>
        <time>2013-05-17T15:16:18Z</time>
      </trkpt>
      <trkpt lat="48.75022" lon="-3.27441">
        <ele>24.17</ele>
        <time>2013-05-17T15:16:33Z</time>
      </trkpt>
      <trkpt lat="48.75079" lon="-3.27546">
        <ele>25.61</ele>
        <time>2013-05-17T15:16:49Z</time>
      </trkpt>
      <trkpt lat="48.75164" lon="-3.27711">
        <ele>23.21</ele>
        <time>2013-05-17T15:17:09Z</time>
      </trkpt>
      <trkpt lat="48.7518" lon="-3.27756">
        <ele>24.17</ele>
        <time>2013-05-17T15:17:14Z</time>
      </trkpt>
      <trkpt lat="48.75181" lon="-3.27766">
        <ele>23.69</ele>
        <time>2013-05-17T15:17:15Z</time>
      </trkpt>
      <trkpt lat="48.75182" lon="-3.27776">
        <ele>23.69</ele>
        <time>2013-05-17T15:17:16Z</time>
      </trkpt>
      <trkpt lat="48.75182" lon="-3.27785">
        <ele>23.69</ele>
        <time>2013-05-17T15:17:17Z</time>
      </trkpt>
      <trkpt lat="48.7518" lon="-3.27795">
        <ele>23.69</ele>
        <time>2013-05-17T15:17:18Z</time>
      </trkpt>
      <trkpt lat="48.75178" lon="-3.27804">
        <ele>24.17</ele>
        <time>2013-05-17T15:17:19Z</time>
      </trkpt>
      <trkpt lat="48.75149" lon="-3.27896">
        <ele>26.09</ele>
        <time>2013-05-17T15:17:31Z</time>
      </trkpt>
      <trkpt lat="48.75142" lon="-3.27918">
        <ele>26.57</ele>
        <time>2013-05-17T15:17:34Z</time>
      </trkpt>
      <trkpt lat="48.75119" lon="-3.27993">
        <ele>29.94</ele>
        <time>2013-05-17T15:17:44Z</time>
      </trkpt>
      <trkpt lat="48.75091" lon="-3.28079">
        <ele>33.78</ele>
        <time>2013-05-17T15:17:56Z</time>
      </trkpt>
      <trkpt lat="48.75068" lon="-3.28127">
        <ele>36.19</ele>
        <time>2013-05-17T15:18:05Z</time>
      </trkpt>
      <trkpt lat="48.75057" lon="-3.28138">
        <ele>36.67</ele>
        <time>2013-05-17T15:18:08Z</time>
      </trkpt>
      <trkpt lat="48.75045" lon="-3.28149">
        <ele>37.15</ele>
        <time>2013-05-17T15:18:11Z</time>
      </trkpt>
      <trkpt lat="48.7504" lon="-3.28154">
        <ele>37.15</ele>
        <time>2013-05-17T15:18:12Z</time>
      </trkpt>
      <trkpt lat="48.75035" lon="-3.28158">
        <ele>37.63</ele>
        <time>2013-05-17T15:18:13Z</time>
      </trkpt>
      <trkpt lat="48.75031" lon="-3.28164">
        <ele>37.15</ele>
        <time>2013-05-17T15:18:14Z</time>
      </trkpt>
      <trkpt lat="48.75027" lon="-3.2817">
        <ele>37.63</ele>
        <time>2013-05-17T15:18:15Z</time>
      </trkpt>
      <trkpt lat="48.75024" lon="-3.28176">
        <ele>37.63</ele>
        <time>2013-05-17T15:18:16Z</time>
      </trkpt>
      <trkpt lat="48.75021" lon="-3.28182">
        <ele>37.63</ele>
        <time>2013-05-17T15:18:17Z</time>
      </trkpt>
      <trkpt lat="48.74972" lon="-3.283">
        <ele>39.07</ele>
        <time>2013-05-17T15:18:32Z</time>
      </trkpt>
      <trkpt lat="48.74932" lon="-3.28431">
        <ele>40.51</ele>
        <time>2013-05-17T15:18:46Z</time>
      </trkpt>
      <trkpt lat="48.74897" lon="-3.28581">
        <ele>40.99</ele>
        <time>2013-05-17T15:19:01Z</time>
      </trkpt>
      <trkpt lat="48.74864" lon="-3.28751">
        <ele>39.55</ele>
        <time>2013-05-17T15:19:16Z</time>
      </trkpt>
      <trkpt lat="48.74853" lon="-3.28789">
        <ele>38.11</ele>
        <time>2013-05-17T15:19:19Z</time>
      </trkpt>
      <trkpt lat="48.74838" lon="-3.28859">
        <ele>35.71</ele>
        <time>2013-05-17T15:19:24Z</time>
      </trkpt>
      <trkpt lat="48.74837" lon="-3.28889">
        <ele>34.74</ele>
        <time>2013-05-17T15:19:26Z</time>
      </trkpt>
      <trkpt lat="48.74838" lon="-3.28903">
        <ele>35.23</ele>
        <time>2013-05-17T15:19:27Z</time>
      </trkpt>
      <trkpt lat="48.7484" lon="-3.28917">
        <ele>34.26</ele>
        <time>2013-05-17T15:19:28Z</time>
      </trkpt>
      <trkpt lat="48.74844" lon="-3.28929">
        <ele>34.74</ele>
        <time>2013-05-17T15:19:29Z</time>
      </trkpt>
      <trkpt lat="48.74848" lon="-3.28942">
        <ele>34.74</ele>
        <time>2013-05-17T15:19:30Z</time>
      </trkpt>
      <trkpt lat="48.74852" lon="-3.28954">
        <ele>34.74</ele>
        <time>2013-05-17T15:19:31Z</time>
      </trkpt>
      <trkpt lat="48.74855" lon="-3.28965">
        <ele>34.74</ele>
        <time>2013-05-17T15:19:32Z</time>
      </trkpt>
      <trkpt lat="48.74877" lon="-3.29085">
        <ele>38.11</ele>
        <time>2013-05-17T15:19:44Z</time>
      </trkpt>
      <trkpt lat="48.74879" lon="-3.29102">
        <ele>38.11</ele>
        <time>2013-05-17T15:19:46Z</time>
      </trkpt>
      <trkpt lat="48.74886" lon="-3.29158">
        <ele>40.03</ele>
        <time>2013-05-17T15:19:53Z</time>
      </trkpt>
      <trkpt lat="48.74886" lon="-3.29184">
        <ele>40.51</ele>
        <time>2013-05-17T15:19:56Z</time>
      </trkpt>
      <trkpt lat="48.74862" lon="-3.29314">
        <ele>42.92</ele>
        <time>2013-05-17T15:20:11Z</time>
      </trkpt>
      <trkpt lat="48.74838" lon="-3.29438">
        <ele>44.36</ele>
        <time>2013-05-17T15:20:25Z</time>
      </trkpt>
      <trkpt lat="48.74825" lon="-3.29597">
        <ele>46.76</ele>
        <time>2013-05-17T15:20:42Z</time>
      </trkpt>
      <trkpt lat="48.74808" lon="-3.29689">
        <ele>48.2</ele>
        <time>2013-05-17T15:20:52Z</time>
      </trkpt>
      <trkpt lat="48.74803" lon="-3.29716">
        <ele>48.68</ele>
        <time>2013-05-17T15:20:55Z</time>
      </trkpt>
      <trkpt lat="48.74801" lon="-3.29834">
        <ele>49.16</ele>
        <time>2013-05-17T15:21:08Z</time>
      </trkpt>
      <trkpt lat="48.7481" lon="-3.29916">
        <ele>50.13</ele>
        <time>2013-05-17T15:21:16Z</time>
      </trkpt>
      <trkpt lat="48.74827" lon="-3.30083">
        <ele>47.72</ele>
        <time>2013-05-17T15:21:31Z</time>
      </trkpt>
      <trkpt lat="48.74825" lon="-3.3015">
        <ele>46.28</ele>
        <time>2013-05-17T15:21:37Z</time>
      </trkpt>
      <trkpt lat="48.74813" lon="-3.30308">
        <ele>43.4</ele>
        <time>2013-05-17T15:21:49Z</time>
      </trkpt>
      <trkpt lat="48.74813" lon="-3.30412">
        <ele>40.51</ele>
        <time>2013-05-17T15:21:56Z</time>
      </trkpt>
      <trkpt lat="48.74819" lon="-3.30523">
        <ele>37.15</ele>
        <time>2013-05-17T15:22:03Z</time>
      </trkpt>
      <trkpt lat="48.74823" lon="-3.30645">
        <ele>33.78</ele>
        <time>2013-05-17T15:22:11Z</time>
      </trkpt>
      <trkpt lat="48.74818" lon="-3.30794">
        <ele>30.9</ele>
        <time>2013-05-17T15:22:21Z</time>
      </trkpt>
      <trkpt lat="48.74815" lon="-3.30808">
        <ele>30.42</ele>
        <time>2013-05-17T15:22:22Z</time>
      </trkpt>
      <trkpt lat="48.74795" lon="-3.30936">
        <ele>30.42</ele>
        <time>2013-05-17T15:22:32Z</time>
      </trkpt>
      <trkpt lat="48.74795" lon="-3.30948">
        <ele>30.42</ele>
        <time>2013-05-17T15:22:33Z</time>
      </trkpt>
      <trkpt lat="48.74797" lon="-3.30959">
        <ele>30.9</ele>
        <time>2013-05-17T15:22:34Z</time>
      </trkpt>
      <trkpt lat="48.74818" lon="-3.31091">
        <ele>34.26</ele>
        <time>2013-05-17T15:22:48Z</time>
      </trkpt>
      <trkpt lat="48.74833" lon="-3.31211">
        <ele>37.15</ele>
        <time>2013-05-17T15:23:02Z</time>
      </trkpt>
      <trkpt lat="48.74835" lon="-3.313">
        <ele>40.03</ele>
        <time>2013-05-17T15:23:13Z</time>
      </trkpt>
      <trkpt lat="48.74824" lon="-3.31433">
        <ele>42.44</ele>
        <time>2013-05-17T15:23:28Z</time>
      </trkpt>
      <trkpt lat="48.74798" lon="-3.31637">
        <ele>41.95</ele>
        <time>2013-05-17T15:23:47Z</time>
      </trkpt>
      <trkpt lat="48.7477" lon="-3.31815">
        <ele>40.51</ele>
        <time>2013-05-17T15:24:02Z</time>
      </trkpt>
      <trkpt lat="48.74732" lon="-3.31999">
        <ele>41.47</ele>
        <time>2013-05-17T15:24:18Z</time>
      </trkpt>
      <trkpt lat="48.74717" lon="-3.32159">
        <ele>43.88</ele>
        <time>2013-05-17T15:24:33Z</time>
      </trkpt>
      <trkpt lat="48.7468" lon="-3.32356">
        <ele>45.32</ele>
        <time>2013-05-17T15:24:52Z</time>
      </trkpt>
      <trkpt lat="48.74637" lon="-3.3253">
        <ele>48.68</ele>
        <time>2013-05-17T15:25:09Z</time>
      </trkpt>
      <trkpt lat="48.74621" lon="-3.32694">
        <ele>48.2</ele>
        <time>2013-05-17T15:25:24Z</time>
      </trkpt>
      <trkpt lat="48.74642" lon="-3.32923">
        <ele>46.76</ele>
        <time>2013-05-17T15:25:43Z</time>
      </trkpt>
      <trkpt lat="48.74644" lon="-3.32962">
        <ele>45.32</ele>
        <time>2013-05-17T15:25:46Z</time>
      </trkpt>
      <trkpt lat="48.74657" lon="-3.33177">
        <ele>42.44</ele>
        <time>2013-05-17T15:26:02Z</time>
      </trkpt>
      <trkpt lat="48.74688" lon="-3.3339">
        <ele>40.99</ele>
        <time>2013-05-17T15:26:19Z</time>
      </trkpt>
      <trkpt lat="48.74708" lon="-3.33543">
        <ele>37.63</ele>
        <time>2013-05-17T15:26:31Z</time>
      </trkpt>
      <trkpt lat="48.74706" lon="-3.33616">
        <ele>34.74</ele>
        <time>2013-05-17T15:26:36Z</time>
      </trkpt>
      <trkpt lat="48.74708" lon="-3.33707">
        <ele>32.82</ele>
        <time>2013-05-17T15:26:42Z</time>
      </trkpt>
      <trkpt lat="48.74725" lon="-3.33806">
        <ele>31.86</ele>
        <time>2013-05-17T15:26:50Z</time>
      </trkpt>
      <trkpt lat="48.74725" lon="-3.33817">
        <ele>31.86</ele>
        <time>2013-05-17T15:26:51Z</time>
      </trkpt>
      <trkpt lat="48.74724" lon="-3.33828">
        <ele>31.86</ele>
        <time>2013-05-17T15:26:52Z</time>
      </trkpt>
      <trkpt lat="48.7472" lon="-3.33859">
        <ele>32.82</ele>
        <time>2013-05-17T15:26:55Z</time>
      </trkpt>
      <trkpt lat="48.74717" lon="-3.33868">
        <ele>32.82</ele>
        <time>2013-05-17T15:26:56Z</time>
      </trkpt>
      <trkpt lat="48.74675" lon="-3.33974">
        <ele>36.19</ele>
        <time>2013-05-17T15:27:09Z</time>
      </trkpt>
      <trkpt lat="48.74649" lon="-3.34079">
        <ele>39.07</ele>
        <time>2013-05-17T15:27:21Z</time>
      </trkpt>
      <trkpt lat="48.74644" lon="-3.34106">
        <ele>38.59</ele>
        <time>2013-05-17T15:27:24Z</time>
      </trkpt>
      <trkpt lat="48.74641" lon="-3.34114">
        <ele>38.59</ele>
        <time>2013-05-17T15:27:25Z</time>
      </trkpt>
      <trkpt lat="48.74638" lon="-3.34121">
        <ele>39.07</ele>
        <time>2013-05-17T15:27:26Z</time>
      </trkpt>
      <trkpt lat="48.74629" lon="-3.34141">
        <ele>40.03</ele>
        <time>2013-05-17T15:27:29Z</time>
      </trkpt>
      <trkpt lat="48.74607" lon="-3.3417">
        <ele>40.99</ele>
        <time>2013-05-17T15:27:34Z</time>
      </trkpt>
      <trkpt lat="48.74576" lon="-3.34202">
        <ele>41.95</ele>
        <time>2013-05-17T15:27:40Z</time>
      </trkpt>
      <trkpt lat="48.74572" lon="-3.34209">
        <ele>41.95</ele>
        <time>2013-05-17T15:27:41Z</time>
      </trkpt>
      <trkpt lat="48.74502" lon="-3.34355">
        <ele>44.36</ele>
        <time>2013-05-17T15:27:59Z</time>
      </trkpt>
      <trkpt lat="48.7446" lon="-3.34456">
        <ele>47.72</ele>
        <time>2013-05-17T15:28:12Z</time>
      </trkpt>
      <trkpt lat="48.74408" lon="-3.34575">
        <ele>48.2</ele>
        <time>2013-05-17T15:28:27Z</time>
      </trkpt>
      <trkpt lat="48.74329" lon="-3.347">
        <ele>47.24</ele>
        <time>2013-05-17T15:28:43Z</time>
      </trkpt>
      <trkpt lat="48.74323" lon="-3.34706">
        <ele>47.72</ele>
        <time>2013-05-17T15:28:44Z</time>
      </trkpt>
      <trkpt lat="48.74236" lon="-3.34789">
        <ele>44.84</ele>
        <time>2013-05-17T15:28:56Z</time>
      </trkpt>
      <trkpt lat="48.74172" lon="-3.34912">
        <ele>42.44</ele>
        <time>2013-05-17T15:29:07Z</time>
      </trkpt>
      <trkpt lat="48.74114" lon="-3.35057">
        <ele>43.88</ele>
        <time>2013-05-17T15:29:20Z</time>
      </trkpt>
      <trkpt lat="48.74053" lon="-3.35228">
        <ele>44.36</ele>
        <time>2013-05-17T15:29:36Z</time>
      </trkpt>
      <trkpt lat="48.73989" lon="-3.35419">
        <ele>45.32</ele>
        <time>2013-05-17T15:29:54Z</time>
      </trkpt>
      <trkpt lat="48.7393" lon="-3.35643">
        <ele>44.84</ele>
        <time>2013-05-17T15:30:14Z</time>
      </trkpt>
      <trkpt lat="48.73877" lon="-3.35832">
        <ele>44.84</ele>
        <time>2013-05-17T15:30:31Z</time>
      </trkpt>
      <trkpt lat="48.73827" lon="-3.35981">
        <ele>46.28</ele>
        <time>2013-05-17T15:30:46Z</time>
      </trkpt>
      <trkpt lat="48.73779" lon="-3.36115">
        <ele>46.76</ele>
        <time>2013-05-17T15:31:00Z</time>
      </trkpt>
      <trkpt lat="48.73736" lon="-3.36268">
        <ele>48.2</ele>
        <time>2013-05-17T15:31:15Z</time>
      </trkpt>
      <trkpt lat="48.73731" lon="-3.36419">
        <ele>50.13</ele>
        <time>2013-05-17T15:31:29Z</time>
      </trkpt>
      <trkpt lat="48.7373" lon="-3.36544">
        <ele>51.09</ele>
        <time>2013-05-17T15:31:41Z</time>
      </trkpt>
      <trkpt lat="48.73727" lon="-3.36554">
        <ele>51.09</ele>
        <time>2013-05-17T15:31:42Z</time>
      </trkpt>
      <trkpt lat="48.73706" lon="-3.367">
        <ele>51.57</ele>
        <time>2013-05-17T15:31:56Z</time>
      </trkpt>
      <trkpt lat="48.73704" lon="-3.36786">
        <ele>52.05</ele>
        <time>2013-05-17T15:32:04Z</time>
      </trkpt>
      <trkpt lat="48.73674" lon="-3.36923">
        <ele>53.01</ele>
        <time>2013-05-17T15:32:18Z</time>
      </trkpt>
      <trkpt lat="48.73643" lon="-3.37043">
        <ele>55.41</ele>
        <time>2013-05-17T15:32:32Z</time>
      </trkpt>
      <trkpt lat="48.73613" lon="-3.37185">
        <ele>58.3</ele>
        <time>2013-05-17T15:32:48Z</time>
      </trkpt>
      <trkpt lat="48.73601" lon="-3.37289">
        <ele>61.18</ele>
        <time>2013-05-17T15:33:00Z</time>
      </trkpt>
      <trkpt lat="48.73601" lon="-3.37307">
        <ele>61.66</ele>
        <time>2013-05-17T15:33:02Z</time>
      </trkpt>
      <trkpt lat="48.73595" lon="-3.37401">
        <ele>65.03</ele>
        <time>2013-05-17T15:33:13Z</time>
      </trkpt>
      <trkpt lat="48.73594" lon="-3.3741">
        <ele>65.51</ele>
        <time>2013-05-17T15:33:14Z</time>
      </trkpt>
      <trkpt lat="48.73587" lon="-3.37478">
        <ele>66.95</ele>
        <time>2013-05-17T15:33:22Z</time>
      </trkpt>
      <trkpt lat="48.73584" lon="-3.37485">
        <ele>66.95</ele>
        <time>2013-05-17T15:33:23Z</time>
      </trkpt>
      <trkpt lat="48.73581" lon="-3.37492">
        <ele>66.95</ele>
        <time>2013-05-17T15:33:24Z</time>
      </trkpt>
      <trkpt lat="48.73577" lon="-3.37498">
        <ele>66.95</ele>
        <time>2013-05-17T15:33:25Z</time>
      </trkpt>
      <trkpt lat="48.73573" lon="-3.37505">
        <ele>66.95</ele>
        <time>2013-05-17T15:33:26Z</time>
      </trkpt>
      <trkpt lat="48.73568" lon="-3.37511">
        <ele>66.95</ele>
        <time>2013-05-17T15:33:27Z</time>
      </trkpt>
      <trkpt lat="48.73554" lon="-3.37528">
        <ele>67.43</ele>
        <time>2013-05-17T15:33:30Z</time>
      </trkpt>
      <trkpt lat="48.73519" lon="-3.37555">
        <ele>67.91</ele>
        <time>2013-05-17T15:33:36Z</time>
      </trkpt>
      <trkpt lat="48.73513" lon="-3.37562">
        <ele>67.91</ele>
        <time>2013-05-17T15:33:37Z</time>
      </trkpt>
      <trkpt lat="48.73508" lon="-3.37569">
        <ele>67.91</ele>
        <time>2013-05-17T15:33:38Z</time>
      </trkpt>
      <trkpt lat="48.73504" lon="-3.37577">
        <ele>68.39</ele>
        <time>2013-05-17T15:33:39Z</time>
      </trkpt>
      <trkpt lat="48.735" lon="-3.37586">
        <ele>67.91</ele>
        <time>2013-05-17T15:33:40Z</time>
      </trkpt>
      <trkpt lat="48.73496" lon="-3.37595">
        <ele>68.39</ele>
        <time>2013-05-17T15:33:41Z</time>
      </trkpt>
      <trkpt lat="48.73469" lon="-3.37722">
        <ele>70.31</ele>
        <time>2013-05-17T15:33:54Z</time>
      </trkpt>
      <trkpt lat="48.73417" lon="-3.37831">
        <ele>70.79</ele>
        <time>2013-05-17T15:34:07Z</time>
      </trkpt>
      <trkpt lat="48.73406" lon="-3.37846">
        <ele>71.27</ele>
        <time>2013-05-17T15:34:09Z</time>
      </trkpt>
      <trkpt lat="48.734" lon="-3.37852">
        <ele>70.31</ele>
        <time>2013-05-17T15:34:10Z</time>
      </trkpt>
      <trkpt lat="48.73325" lon="-3.37917">
        <ele>70.79</ele>
        <time>2013-05-17T15:34:21Z</time>
      </trkpt>
      <trkpt lat="48.73263" lon="-3.38011">
        <ele>72.72</ele>
        <time>2013-05-17T15:34:33Z</time>
      </trkpt>
      <trkpt lat="48.73188" lon="-3.38115">
        <ele>75.12</ele>
        <time>2013-05-17T15:34:48Z</time>
      </trkpt>
      <trkpt lat="48.73131" lon="-3.38179">
        <ele>78.48</ele>
        <time>2013-05-17T15:34:59Z</time>
      </trkpt>
      <trkpt lat="48.73076" lon="-3.38276">
        <ele>80.41</ele>
        <time>2013-05-17T15:35:12Z</time>
      </trkpt>
      <trkpt lat="48.73072" lon="-3.38284">
        <ele>80.41</ele>
        <time>2013-05-17T15:35:13Z</time>
      </trkpt>
      <trkpt lat="48.73012" lon="-3.38386">
        <ele>81.85</ele>
        <time>2013-05-17T15:35:28Z</time>
      </trkpt>
      <trkpt lat="48.72985" lon="-3.38429">
        <ele>81.37</ele>
        <time>2013-05-17T15:35:34Z</time>
      </trkpt>
      <trkpt lat="48.7298" lon="-3.38435">
        <ele>82.33</ele>
        <time>2013-05-17T15:35:35Z</time>
      </trkpt>
      <trkpt lat="48.72975" lon="-3.38439">
        <ele>81.85</ele>
        <time>2013-05-17T15:35:36Z</time>
      </trkpt>
      <trkpt lat="48.7297" lon="-3.38443">
        <ele>81.85</ele>
        <time>2013-05-17T15:35:37Z</time>
      </trkpt>
      <trkpt lat="48.72964" lon="-3.38446">
        <ele>81.85</ele>
        <time>2013-05-17T15:35:38Z</time>
      </trkpt>
      <trkpt lat="48.72957" lon="-3.38449">
        <ele>81.37</ele>
        <time>2013-05-17T15:35:39Z</time>
      </trkpt>
      <trkpt lat="48.72951" lon="-3.38453">
        <ele>81.85</ele>
        <time>2013-05-17T15:35:40Z</time>
      </trkpt>
      <trkpt lat="48.72945" lon="-3.38458">
        <ele>81.85</ele>
        <time>2013-05-17T15:35:41Z</time>
      </trkpt>
      <trkpt lat="48.7294" lon="-3.38464">
        <ele>81.85</ele>
        <time>2013-05-17T15:35:42Z</time>
      </trkpt>
      <trkpt lat="48.72935" lon="-3.38472">
        <ele>82.33</ele>
        <time>2013-05-17T15:35:43Z</time>
      </trkpt>
      <trkpt lat="48.72932" lon="-3.3848">
        <ele>82.33</ele>
        <time>2013-05-17T15:35:44Z</time>
      </trkpt>
      <trkpt lat="48.72929" lon="-3.38488">
        <ele>82.33</ele>
        <time>2013-05-17T15:35:45Z</time>
      </trkpt>
      <trkpt lat="48.72927" lon="-3.38496">
        <ele>82.81</ele>
        <time>2013-05-17T15:35:46Z</time>
      </trkpt>
      <trkpt lat="48.72911" lon="-3.38549">
        <ele>83.29</ele>
        <time>2013-05-17T15:35:52Z</time>
      </trkpt>
      <trkpt lat="48.72911" lon="-3.38559">
        <ele>83.77</ele>
        <time>2013-05-17T15:35:53Z</time>
      </trkpt>
      <trkpt lat="48.72913" lon="-3.38569">
        <ele>83.77</ele>
        <time>2013-05-17T15:35:54Z</time>
      </trkpt>
      <trkpt lat="48.7292" lon="-3.386">
        <ele>82.81</ele>
        <time>2013-05-17T15:35:57Z</time>
      </trkpt>
      <trkpt lat="48.72921" lon="-3.38611">
        <ele>82.81</ele>
        <time>2013-05-17T15:35:58Z</time>
      </trkpt>
      <trkpt lat="48.72924" lon="-3.38708">
        <ele>81.85</ele>
        <time>2013-05-17T15:36:06Z</time>
      </trkpt>
      <trkpt lat="48.72923" lon="-3.3872">
        <ele>81.85</ele>
        <time>2013-05-17T15:36:07Z</time>
      </trkpt>
      <trkpt lat="48.7292" lon="-3.38731">
        <ele>81.85</ele>
        <time>2013-05-17T15:36:08Z</time>
      </trkpt>
      <trkpt lat="48.72877" lon="-3.38881">
        <ele>82.81</ele>
        <time>2013-05-17T15:36:22Z</time>
      </trkpt>
      <trkpt lat="48.72856" lon="-3.39062">
        <ele>84.73</ele>
        <time>2013-05-17T15:36:39Z</time>
      </trkpt>
      <trkpt lat="48.7284" lon="-3.39253">
        <ele>86.66</ele>
        <time>2013-05-17T15:36:56Z</time>
      </trkpt>
      <trkpt lat="48.72838" lon="-3.39437">
        <ele>87.14</ele>
        <time>2013-05-17T15:37:12Z</time>
      </trkpt>
      <trkpt lat="48.72832" lon="-3.39616">
        <ele>88.58</ele>
        <time>2013-05-17T15:37:28Z</time>
      </trkpt>
      <trkpt lat="48.72864" lon="-3.39742">
        <ele>88.1</ele>
        <time>2013-05-17T15:37:40Z</time>
      </trkpt>
      <trkpt lat="48.72891" lon="-3.39794">
        <ele>87.62</ele>
        <time>2013-05-17T15:37:46Z</time>
      </trkpt>
      <trkpt lat="48.72945" lon="-3.39926">
        <ele>86.18</ele>
        <time>2013-05-17T15:38:00Z</time>
      </trkpt>
      <trkpt lat="48.72983" lon="-3.40103">
        <ele>85.21</ele>
        <time>2013-05-17T15:38:16Z</time>
      </trkpt>
      <trkpt lat="48.73013" lon="-3.40235">
        <ele>82.33</ele>
        <time>2013-05-17T15:38:27Z</time>
      </trkpt>
      <trkpt lat="48.73015" lon="-3.40248">
        <ele>82.81</ele>
        <time>2013-05-17T15:38:28Z</time>
      </trkpt>
      <trkpt lat="48.73016" lon="-3.4026">
        <ele>82.81</ele>
        <time>2013-05-17T15:38:29Z</time>
      </trkpt>
      <trkpt lat="48.73024" lon="-3.40345">
        <ele>82.81</ele>
        <time>2013-05-17T15:38:36Z</time>
      </trkpt>
      <trkpt lat="48.73027" lon="-3.40356">
        <ele>83.29</ele>
        <time>2013-05-17T15:38:37Z</time>
      </trkpt>
      <trkpt lat="48.73057" lon="-3.40478">
        <ele>83.77</ele>
        <time>2013-05-17T15:38:49Z</time>
      </trkpt>
      <trkpt lat="48.73058" lon="-3.4049">
        <ele>83.77</ele>
        <time>2013-05-17T15:38:50Z</time>
      </trkpt>
      <trkpt lat="48.73063" lon="-3.40586">
        <ele>82.81</ele>
        <time>2013-05-17T15:38:58Z</time>
      </trkpt>
      <trkpt lat="48.73066" lon="-3.40598">
        <ele>83.29</ele>
        <time>2013-05-17T15:38:59Z</time>
      </trkpt>
      <trkpt lat="48.73069" lon="-3.40609">
        <ele>83.29</ele>
        <time>2013-05-17T15:39:00Z</time>
      </trkpt>
      <trkpt lat="48.73073" lon="-3.40619">
        <ele>83.29</ele>
        <time>2013-05-17T15:39:01Z</time>
      </trkpt>
      <trkpt lat="48.73078" lon="-3.4063">
        <ele>83.29</ele>
        <time>2013-05-17T15:39:02Z</time>
      </trkpt>
      <trkpt lat="48.73083" lon="-3.4064">
        <ele>83.29</ele>
        <time>2013-05-17T15:39:03Z</time>
      </trkpt>
      <trkpt lat="48.7313" lon="-3.4077">
        <ele>79.93</ele>
        <time>2013-05-17T15:39:15Z</time>
      </trkpt>
      <trkpt lat="48.73174" lon="-3.40964">
        <ele>79.93</ele>
        <time>2013-05-17T15:39:32Z</time>
      </trkpt>
      <trkpt lat="48.73201" lon="-3.41135">
        <ele>79.45</ele>
        <time>2013-05-17T15:39:48Z</time>
      </trkpt>
      <trkpt lat="48.73217" lon="-3.41314">
        <ele>77.52</ele>
        <time>2013-05-17T15:40:02Z</time>
      </trkpt>
      <trkpt lat="48.73216" lon="-3.41467">
        <ele>78</ele>
        <time>2013-05-17T15:40:15Z</time>
      </trkpt>
      <trkpt lat="48.73211" lon="-3.41597">
        <ele>74.64</ele>
        <time>2013-05-17T15:40:25Z</time>
      </trkpt>
      <trkpt lat="48.73211" lon="-3.41612">
        <ele>74.64</ele>
        <time>2013-05-17T15:40:26Z</time>
      </trkpt>
      <trkpt lat="48.73237" lon="-3.41772">
        <ele>72.24</ele>
        <time>2013-05-17T15:40:38Z</time>
      </trkpt>
      <trkpt lat="48.73281" lon="-3.41912">
        <ele>69.35</ele>
        <time>2013-05-17T15:40:50Z</time>
      </trkpt>
      <trkpt lat="48.73287" lon="-3.41923">
        <ele>68.87</ele>
        <time>2013-05-17T15:40:51Z</time>
      </trkpt>
      <trkpt lat="48.73307" lon="-3.4195">
        <ele>67.43</ele>
        <time>2013-05-17T15:40:54Z</time>
      </trkpt>
      <trkpt lat="48.73338" lon="-3.41985">
        <ele>64.55</ele>
        <time>2013-05-17T15:40:58Z</time>
      </trkpt>
      <trkpt lat="48.73346" lon="-3.41996">
        <ele>64.07</ele>
        <time>2013-05-17T15:40:59Z</time>
      </trkpt>
      <trkpt lat="48.73351" lon="-3.42009">
        <ele>63.58</ele>
        <time>2013-05-17T15:41:00Z</time>
      </trkpt>
      <trkpt lat="48.73354" lon="-3.42023">
        <ele>63.58</ele>
        <time>2013-05-17T15:41:01Z</time>
      </trkpt>
      <trkpt lat="48.73357" lon="-3.42037">
        <ele>63.1</ele>
        <time>2013-05-17T15:41:02Z</time>
      </trkpt>
      <trkpt lat="48.73359" lon="-3.4205">
        <ele>63.1</ele>
        <time>2013-05-17T15:41:03Z</time>
      </trkpt>
      <trkpt lat="48.7336" lon="-3.42063">
        <ele>63.1</ele>
        <time>2013-05-17T15:41:04Z</time>
      </trkpt>
      <trkpt lat="48.73361" lon="-3.42076">
        <ele>63.58</ele>
        <time>2013-05-17T15:41:05Z</time>
      </trkpt>
      <trkpt lat="48.7336" lon="-3.42087">
        <ele>63.1</ele>
        <time>2013-05-17T15:41:06Z</time>
      </trkpt>
      <trkpt lat="48.73359" lon="-3.42098">
        <ele>63.58</ele>
        <time>2013-05-17T15:41:07Z</time>
      </trkpt>
      <trkpt lat="48.73357" lon="-3.42109">
        <ele>63.58</ele>
        <time>2013-05-17T15:41:08Z</time>
      </trkpt>
      <trkpt lat="48.73355" lon="-3.4212">
        <ele>63.58</ele>
        <time>2013-05-17T15:41:09Z</time>
      </trkpt>
      <trkpt lat="48.73343" lon="-3.4218">
        <ele>64.07</ele>
        <time>2013-05-17T15:41:15Z</time>
      </trkpt>
      <trkpt lat="48.73339" lon="-3.42211">
        <ele>65.99</ele>
        <time>2013-05-17T15:41:18Z</time>
      </trkpt>
      <trkpt lat="48.73339" lon="-3.42221">
        <ele>65.51</ele>
        <time>2013-05-17T15:41:19Z</time>
      </trkpt>
      <trkpt lat="48.73342" lon="-3.42385">
        <ele>67.91</ele>
        <time>2013-05-17T15:41:35Z</time>
      </trkpt>
      <trkpt lat="48.73346" lon="-3.42575">
        <ele>65.51</ele>
        <time>2013-05-17T15:41:52Z</time>
      </trkpt>
      <trkpt lat="48.73365" lon="-3.42769">
        <ele>63.58</ele>
        <time>2013-05-17T15:42:09Z</time>
      </trkpt>
      <trkpt lat="48.7337" lon="-3.42856">
        <ele>66.47</ele>
        <time>2013-05-17T15:42:18Z</time>
      </trkpt>
      <trkpt lat="48.73393" lon="-3.42992">
        <ele>66.47</ele>
        <time>2013-05-17T15:42:32Z</time>
      </trkpt>
      <trkpt lat="48.73388" lon="-3.43126">
        <ele>65.99</ele>
        <time>2013-05-17T15:42:44Z</time>
      </trkpt>
      <trkpt lat="48.73388" lon="-3.43251">
        <ele>63.1</ele>
        <time>2013-05-17T15:42:54Z</time>
      </trkpt>
      <trkpt lat="48.73394" lon="-3.43301">
        <ele>61.18</ele>
        <time>2013-05-17T15:42:58Z</time>
      </trkpt>
      <trkpt lat="48.73396" lon="-3.43314">
        <ele>61.18</ele>
        <time>2013-05-17T15:42:59Z</time>
      </trkpt>
      <trkpt lat="48.73398" lon="-3.43341">
        <ele>59.74</ele>
        <time>2013-05-17T15:43:01Z</time>
      </trkpt>
      <trkpt lat="48.734" lon="-3.43354">
        <ele>59.26</ele>
        <time>2013-05-17T15:43:02Z</time>
      </trkpt>
      <trkpt lat="48.73423" lon="-3.4353">
        <ele>55.89</ele>
        <time>2013-05-17T15:43:15Z</time>
      </trkpt>
      <trkpt lat="48.73426" lon="-3.43542">
        <ele>55.41</ele>
        <time>2013-05-17T15:43:16Z</time>
      </trkpt>
      <trkpt lat="48.73429" lon="-3.43554">
        <ele>54.93</ele>
        <time>2013-05-17T15:43:17Z</time>
      </trkpt>
      <trkpt lat="48.73434" lon="-3.43565">
        <ele>55.41</ele>
        <time>2013-05-17T15:43:18Z</time>
      </trkpt>
      <trkpt lat="48.73445" lon="-3.43587">
        <ele>54.45</ele>
        <time>2013-05-17T15:43:20Z</time>
      </trkpt>
      <trkpt lat="48.73451" lon="-3.43596">
        <ele>54.45</ele>
        <time>2013-05-17T15:43:21Z</time>
      </trkpt>
      <trkpt lat="48.73458" lon="-3.43604">
        <ele>53.97</ele>
        <time>2013-05-17T15:43:22Z</time>
      </trkpt>
      <trkpt lat="48.73465" lon="-3.43612">
        <ele>54.45</ele>
        <time>2013-05-17T15:43:23Z</time>
      </trkpt>
      <trkpt lat="48.73473" lon="-3.43617">
        <ele>53.97</ele>
        <time>2013-05-17T15:43:24Z</time>
      </trkpt>
      <trkpt lat="48.73481" lon="-3.4362">
        <ele>53.49</ele>
        <time>2013-05-17T15:43:25Z</time>
      </trkpt>
      <trkpt lat="48.73489" lon="-3.43622">
        <ele>53.01</ele>
        <time>2013-05-17T15:43:26Z</time>
      </trkpt>
      <trkpt lat="48.73497" lon="-3.43625">
        <ele>52.53</ele>
        <time>2013-05-17T15:43:27Z</time>
      </trkpt>
      <trkpt lat="48.73503" lon="-3.43631">
        <ele>51.57</ele>
        <time>2013-05-17T15:43:28Z</time>
      </trkpt>
      <trkpt lat="48.73507" lon="-3.43636">
        <ele>51.09</ele>
        <time>2013-05-17T15:43:29Z</time>
      </trkpt>
      <trkpt lat="48.73526" lon="-3.43657">
        <ele>50.61</ele>
        <time>2013-05-17T15:43:36Z</time>
      </trkpt>
      <trkpt lat="48.73536" lon="-3.43666">
        <ele>50.13</ele>
        <time>2013-05-17T15:43:38Z</time>
      </trkpt>
      <trkpt lat="48.7354" lon="-3.43673">
        <ele>49.65</ele>
        <time>2013-05-17T15:43:39Z</time>
      </trkpt>
      <trkpt lat="48.73543" lon="-3.43681">
        <ele>49.65</ele>
        <time>2013-05-17T15:43:40Z</time>
      </trkpt>
      <trkpt lat="48.73545" lon="-3.43691">
        <ele>49.65</ele>
        <time>2013-05-17T15:43:41Z</time>
      </trkpt>
      <trkpt lat="48.73545" lon="-3.43702">
        <ele>49.65</ele>
        <time>2013-05-17T15:43:42Z</time>
      </trkpt>
      <trkpt lat="48.73543" lon="-3.43712">
        <ele>49.16</ele>
        <time>2013-05-17T15:43:43Z</time>
      </trkpt>
      <trkpt lat="48.7354" lon="-3.43722">
        <ele>49.16</ele>
        <time>2013-05-17T15:43:44Z</time>
      </trkpt>
      <trkpt lat="48.73535" lon="-3.43729">
        <ele>49.65</ele>
        <time>2013-05-17T15:43:45Z</time>
      </trkpt>
      <trkpt lat="48.7353" lon="-3.43734">
        <ele>49.65</ele>
        <time>2013-05-17T15:43:46Z</time>
      </trkpt>
      <trkpt lat="48.73524" lon="-3.43738">
        <ele>49.65</ele>
        <time>2013-05-17T15:43:47Z</time>
      </trkpt>
      <trkpt lat="48.73518" lon="-3.4374">
        <ele>49.65</ele>
        <time>2013-05-17T15:43:48Z</time>
      </trkpt>
      <trkpt lat="48.73507" lon="-3.43747">
        <ele>50.61</ele>
        <time>2013-05-17T15:43:50Z</time>
      </trkpt>
      <trkpt lat="48.73502" lon="-3.43752">
        <ele>50.13</ele>
        <time>2013-05-17T15:43:51Z</time>
      </trkpt>
      <trkpt lat="48.73498" lon="-3.43758">
        <ele>50.13</ele>
        <time>2013-05-17T15:43:52Z</time>
      </trkpt>
      <trkpt lat="48.73494" lon="-3.43765">
        <ele>50.13</ele>
        <time>2013-05-17T15:43:53Z</time>
      </trkpt>
      <trkpt lat="48.73491" lon="-3.43772">
        <ele>49.65</ele>
        <time>2013-05-17T15:43:54Z</time>
      </trkpt>
      <trkpt lat="48.73441" lon="-3.43899">
        <ele>46.76</ele>
        <time>2013-05-17T15:44:07Z</time>
      </trkpt>
      <trkpt lat="48.73439" lon="-3.43912">
        <ele>46.76</ele>
        <time>2013-05-17T15:44:08Z</time>
      </trkpt>
      <trkpt lat="48.73428" lon="-3.44004">
        <ele>43.88</ele>
        <time>2013-05-17T15:44:15Z</time>
      </trkpt>
      <trkpt lat="48.73426" lon="-3.44031">
        <ele>42.92</ele>
        <time>2013-05-17T15:44:17Z</time>
      </trkpt>
      <trkpt lat="48.73422" lon="-3.44044">
        <ele>41.95</ele>
        <time>2013-05-17T15:44:18Z</time>
      </trkpt>
      <trkpt lat="48.73411" lon="-3.44081">
        <ele>41.95</ele>
        <time>2013-05-17T15:44:21Z</time>
      </trkpt>
      <trkpt lat="48.73409" lon="-3.44093">
        <ele>40.99</ele>
        <time>2013-05-17T15:44:22Z</time>
      </trkpt>
      <trkpt lat="48.73406" lon="-3.44105">
        <ele>40.51</ele>
        <time>2013-05-17T15:44:23Z</time>
      </trkpt>
      <trkpt lat="48.73393" lon="-3.44164">
        <ele>39.07</ele>
        <time>2013-05-17T15:44:28Z</time>
      </trkpt>
      <trkpt lat="48.73391" lon="-3.44176">
        <ele>39.07</ele>
        <time>2013-05-17T15:44:29Z</time>
      </trkpt>
      <trkpt lat="48.7339" lon="-3.44189">
        <ele>38.59</ele>
        <time>2013-05-17T15:44:30Z</time>
      </trkpt>
      <trkpt lat="48.7339" lon="-3.44213">
        <ele>39.07</ele>
        <time>2013-05-17T15:44:32Z</time>
      </trkpt>
      <trkpt lat="48.73405" lon="-3.44378">
        <ele>38.59</ele>
        <time>2013-05-17T15:44:46Z</time>
      </trkpt>
      <trkpt lat="48.73409" lon="-3.44399">
        <ele>38.11</ele>
        <time>2013-05-17T15:44:48Z</time>
      </trkpt>
      <trkpt lat="48.73412" lon="-3.44408">
        <ele>38.59</ele>
        <time>2013-05-17T15:44:49Z</time>
      </trkpt>
      <trkpt lat="48.73417" lon="-3.44416">
        <ele>38.59</ele>
        <time>2013-05-17T15:44:50Z</time>
      </trkpt>
      <trkpt lat="48.73423" lon="-3.4442">
        <ele>38.59</ele>
        <time>2013-05-17T15:44:51Z</time>
      </trkpt>
      <trkpt lat="48.7343" lon="-3.44421">
        <ele>38.59</ele>
        <time>2013-05-17T15:44:52Z</time>
      </trkpt>
      <trkpt lat="48.73437" lon="-3.44423">
        <ele>38.59</ele>
        <time>2013-05-17T15:44:53Z</time>
      </trkpt>
      <trkpt lat="48.73443" lon="-3.44425">
        <ele>38.59</ele>
        <time>2013-05-17T15:44:54Z</time>
      </trkpt>
      <trkpt lat="48.73462" lon="-3.4443">
        <ele>38.11</ele>
        <time>2013-05-17T15:44:57Z</time>
      </trkpt>
      <trkpt lat="48.73468" lon="-3.44429">
        <ele>38.11</ele>
        <time>2013-05-17T15:44:58Z</time>
      </trkpt>
      <trkpt lat="48.73501" lon="-3.44412">
        <ele>36.19</ele>
        <time>2013-05-17T15:45:03Z</time>
      </trkpt>
      <trkpt lat="48.73577" lon="-3.444">
        <ele>32.82</ele>
        <time>2013-05-17T15:45:13Z</time>
      </trkpt>
      <trkpt lat="48.73625" lon="-3.44413">
        <ele>29.46</ele>
        <time>2013-05-17T15:45:19Z</time>
      </trkpt>
      <trkpt lat="48.73669" lon="-3.44439">
        <ele>25.61</ele>
        <time>2013-05-17T15:45:24Z</time>
      </trkpt>
      <trkpt lat="48.73677" lon="-3.44446">
        <ele>25.61</ele>
        <time>2013-05-17T15:45:25Z</time>
      </trkpt>
      <trkpt lat="48.73722" lon="-3.44485">
        <ele>24.65</ele>
        <time>2013-05-17T15:45:31Z</time>
      </trkpt>
      <trkpt lat="48.7373" lon="-3.44488">
        <ele>24.65</ele>
        <time>2013-05-17T15:45:32Z</time>
      </trkpt>
      <trkpt lat="48.73737" lon="-3.44491">
        <ele>25.13</ele>
        <time>2013-05-17T15:45:33Z</time>
      </trkpt>
      <trkpt lat="48.73744" lon="-3.44491">
        <ele>25.13</ele>
        <time>2013-05-17T15:45:34Z</time>
      </trkpt>
      <trkpt lat="48.7375" lon="-3.4449">
        <ele>25.61</ele>
        <time>2013-05-17T15:45:35Z</time>
      </trkpt>
      <trkpt lat="48.73756" lon="-3.44488">
        <ele>25.61</ele>
        <time>2013-05-17T15:45:36Z</time>
      </trkpt>
      <trkpt lat="48.73761" lon="-3.44484">
        <ele>25.61</ele>
        <time>2013-05-17T15:45:37Z</time>
      </trkpt>
      <trkpt lat="48.73765" lon="-3.44479">
        <ele>26.09</ele>
        <time>2013-05-17T15:45:38Z</time>
      </trkpt>
      <trkpt lat="48.73777" lon="-3.44466">
        <ele>27.53</ele>
        <time>2013-05-17T15:45:41Z</time>
      </trkpt>
      <trkpt lat="48.73805" lon="-3.44441">
        <ele>28.98</ele>
        <time>2013-05-17T15:45:48Z</time>
      </trkpt>
      <trkpt lat="48.73809" lon="-3.44439">
        <ele>29.46</ele>
        <time>2013-05-17T15:45:49Z</time>
      </trkpt>
      <trkpt lat="48.73851" lon="-3.44432">
        <ele>32.34</ele>
        <time>2013-05-17T15:45:59Z</time>
      </trkpt>
      <trkpt lat="48.7386" lon="-3.44435">
        <ele>32.82</ele>
        <time>2013-05-17T15:46:01Z</time>
      </trkpt>
      <trkpt lat="48.73864" lon="-3.44437">
        <ele>33.3</ele>
        <time>2013-05-17T15:46:02Z</time>
      </trkpt>
      <trkpt lat="48.73873" lon="-3.4444">
        <ele>33.3</ele>
        <time>2013-05-17T15:46:04Z</time>
      </trkpt>
      <trkpt lat="48.73917" lon="-3.44461">
        <ele>36.19</ele>
        <time>2013-05-17T15:46:16Z</time>
      </trkpt>
      <trkpt lat="48.73921" lon="-3.44462">
        <ele>36.67</ele>
        <time>2013-05-17T15:46:17Z</time>
      </trkpt>
      <trkpt lat="48.73925" lon="-3.44463">
        <ele>36.19</ele>
        <time>2013-05-17T15:46:18Z</time>
      </trkpt>
      <trkpt lat="48.73929" lon="-3.44465">
        <ele>36.67</ele>
        <time>2013-05-17T15:46:19Z</time>
      </trkpt>
      <trkpt lat="48.73932" lon="-3.44466">
        <ele>36.67</ele>
        <time>2013-05-17T15:46:20Z</time>
      </trkpt>
      <trkpt lat="48.73943" lon="-3.44467">
        <ele>37.15</ele>
        <time>2013-05-17T15:46:23Z</time>
      </trkpt>
      <trkpt lat="48.73947" lon="-3.44465">
        <ele>37.63</ele>
        <time>2013-05-17T15:46:24Z</time>
      </trkpt>
      <trkpt lat="48.73951" lon="-3.44463">
        <ele>37.63</ele>
        <time>2013-05-17T15:46:25Z</time>
      </trkpt>
      <trkpt lat="48.73955" lon="-3.4446">
        <ele>37.63</ele>
        <time>2013-05-17T15:46:26Z</time>
      </trkpt>
      <trkpt lat="48.73959" lon="-3.44457">
        <ele>37.63</ele>
        <time>2013-05-17T15:46:27Z</time>
      </trkpt>
      <trkpt lat="48.73963" lon="-3.44456">
        <ele>37.63</ele>
        <time>2013-05-17T15:46:28Z</time>
      </trkpt>
      <trkpt lat="48.73967" lon="-3.44455">
        <ele>38.11</ele>
        <time>2013-05-17T15:46:29Z</time>
      </trkpt>
      <trkpt lat="48.73971" lon="-3.44457">
        <ele>37.63</ele>
        <time>2013-05-17T15:46:30Z</time>
      </trkpt>
      <trkpt lat="48.73975" lon="-3.44459">
        <ele>38.11</ele>
        <time>2013-05-17T15:46:31Z</time>
      </trkpt>
      <trkpt lat="48.73979" lon="-3.44462">
        <ele>38.11</ele>
        <time>2013-05-17T15:46:32Z</time>
      </trkpt>
      <trkpt lat="48.73982" lon="-3.44466">
        <ele>38.11</ele>
        <time>2013-05-17T15:46:33Z</time>
      </trkpt>
      <trkpt lat="48.73986" lon="-3.4447">
        <ele>38.11</ele>
        <time>2013-05-17T15:46:34Z</time>
      </trkpt>
      <trkpt lat="48.73997" lon="-3.44485">
        <ele>38.11</ele>
        <time>2013-05-17T15:46:37Z</time>
      </trkpt>
      <trkpt lat="48.74001" lon="-3.44488">
        <ele>38.11</ele>
        <time>2013-05-17T15:46:38Z</time>
      </trkpt>
      <trkpt lat="48.74006" lon="-3.44491">
        <ele>38.11</ele>
        <time>2013-05-17T15:46:39Z</time>
      </trkpt>
      <trkpt lat="48.7402" lon="-3.44498">
        <ele>39.07</ele>
        <time>2013-05-17T15:46:42Z</time>
      </trkpt>
      <trkpt lat="48.74039" lon="-3.44503">
        <ele>39.07</ele>
        <time>2013-05-17T15:46:46Z</time>
      </trkpt>
      <trkpt lat="48.74124" lon="-3.4454">
        <ele>40.99</ele>
        <time>2013-05-17T15:47:05Z</time>
      </trkpt>
      <trkpt lat="48.74203" lon="-3.44574">
        <ele>44.36</ele>
        <time>2013-05-17T15:47:23Z</time>
      </trkpt>
      <trkpt lat="48.74214" lon="-3.4458">
        <ele>44.84</ele>
        <time>2013-05-17T15:47:26Z</time>
      </trkpt>
      <trkpt lat="48.74222" lon="-3.44585">
        <ele>45.32</ele>
        <time>2013-05-17T15:47:28Z</time>
      </trkpt>
      <trkpt lat="48.74243" lon="-3.44596">
        <ele>45.8</ele>
        <time>2013-05-17T15:47:33Z</time>
      </trkpt>
      <trkpt lat="48.74247" lon="-3.44598">
        <ele>45.8</ele>
        <time>2013-05-17T15:47:34Z</time>
      </trkpt>
      <trkpt lat="48.74255" lon="-3.44602">
        <ele>46.28</ele>
        <time>2013-05-17T15:47:36Z</time>
      </trkpt>
      <trkpt lat="48.74258" lon="-3.44605">
        <ele>46.28</ele>
        <time>2013-05-17T15:47:37Z</time>
      </trkpt>
      <trkpt lat="48.74261" lon="-3.4461">
        <ele>46.28</ele>
        <time>2013-05-17T15:47:38Z</time>
      </trkpt>
      <trkpt lat="48.74264" lon="-3.44615">
        <ele>46.28</ele>
        <time>2013-05-17T15:47:39Z</time>
      </trkpt>
      <trkpt lat="48.74266" lon="-3.44621">
        <ele>46.28</ele>
        <time>2013-05-17T15:47:40Z</time>
      </trkpt>
      <trkpt lat="48.74266" lon="-3.44628">
        <ele>46.28</ele>
        <time>2013-05-17T15:47:41Z</time>
      </trkpt>
      <trkpt lat="48.74266" lon="-3.44635">
        <ele>46.76</ele>
        <time>2013-05-17T15:47:42Z</time>
      </trkpt>
      <trkpt lat="48.74266" lon="-3.44641">
        <ele>46.28</ele>
        <time>2013-05-17T15:47:43Z</time>
      </trkpt>
      <trkpt lat="48.74267" lon="-3.44648">
        <ele>46.76</ele>
        <time>2013-05-17T15:47:44Z</time>
      </trkpt>
      <trkpt lat="48.74268" lon="-3.44654">
        <ele>46.76</ele>
        <time>2013-05-17T15:47:45Z</time>
      </trkpt>
      <trkpt lat="48.74273" lon="-3.44693">
        <ele>48.68</ele>
        <time>2013-05-17T15:47:51Z</time>
      </trkpt>
      <trkpt lat="48.74276" lon="-3.44724">
        <ele>48.2</ele>
        <time>2013-05-17T15:47:56Z</time>
      </trkpt>
      <trkpt lat="48.74277" lon="-3.44796">
        <ele>51.57</ele>
        <time>2013-05-17T15:48:07Z</time>
      </trkpt>
      <trkpt lat="48.74276" lon="-3.44903">
        <ele>54.93</ele>
        <time>2013-05-17T15:48:23Z</time>
      </trkpt>
      <trkpt lat="48.74275" lon="-3.45004">
        <ele>57.82</ele>
        <time>2013-05-17T15:48:38Z</time>
      </trkpt>
      <trkpt lat="48.74275" lon="-3.45024">
        <ele>58.78</ele>
        <time>2013-05-17T15:48:41Z</time>
      </trkpt>
      <trkpt lat="48.74275" lon="-3.4503">
        <ele>59.26</ele>
        <time>2013-05-17T15:48:42Z</time>
      </trkpt>
      <trkpt lat="48.74275" lon="-3.45056">
        <ele>59.74</ele>
        <time>2013-05-17T15:48:46Z</time>
      </trkpt>
      <trkpt lat="48.74277" lon="-3.45089">
        <ele>61.66</ele>
        <time>2013-05-17T15:48:51Z</time>
      </trkpt>
      <trkpt lat="48.74292" lon="-3.45141">
        <ele>64.07</ele>
        <time>2013-05-17T15:49:00Z</time>
      </trkpt>
      <trkpt lat="48.74308" lon="-3.45174">
        <ele>65.51</ele>
        <time>2013-05-17T15:49:06Z</time>
      </trkpt>
      <trkpt lat="48.74312" lon="-3.45179">
        <ele>65.51</ele>
        <time>2013-05-17T15:49:07Z</time>
      </trkpt>
      <trkpt lat="48.74338" lon="-3.45205">
        <ele>67.91</ele>
        <time>2013-05-17T15:49:15Z</time>
      </trkpt>
      <trkpt lat="48.74393" lon="-3.45233">
        <ele>69.83</ele>
        <time>2013-05-17T15:49:30Z</time>
      </trkpt>
      <trkpt lat="48.74442" lon="-3.4529">
        <ele>68.39</ele>
        <time>2013-05-17T15:49:42Z</time>
      </trkpt>
      <trkpt lat="48.74465" lon="-3.45318">
        <ele>66.47</ele>
        <time>2013-05-17T15:49:46Z</time>
      </trkpt>
      <trkpt lat="48.74508" lon="-3.45374">
        <ele>63.1</ele>
        <time>2013-05-17T15:49:52Z</time>
      </trkpt>
      <trkpt lat="48.7453" lon="-3.45408">
        <ele>59.26</ele>
        <time>2013-05-17T15:49:55Z</time>
      </trkpt>
      <trkpt lat="48.74537" lon="-3.45421">
        <ele>59.74</ele>
        <time>2013-05-17T15:49:56Z</time>
      </trkpt>
      <trkpt lat="48.74571" lon="-3.45485">
        <ele>61.18</ele>
        <time>2013-05-17T15:50:03Z</time>
      </trkpt>
      <trkpt lat="48.74579" lon="-3.45494">
        <ele>62.14</ele>
        <time>2013-05-17T15:50:05Z</time>
      </trkpt>
      <trkpt lat="48.74597" lon="-3.45513">
        <ele>64.55</ele>
        <time>2013-05-17T15:50:10Z</time>
      </trkpt>
      <trkpt lat="48.74601" lon="-3.45512">
        <ele>64.07</ele>
        <time>2013-05-17T15:50:11Z</time>
      </trkpt>
      <trkpt lat="48.74604" lon="-3.45509">
        <ele>64.55</ele>
        <time>2013-05-17T15:50:12Z</time>
      </trkpt>
      <trkpt lat="48.74606" lon="-3.45503">
        <ele>65.03</ele>
        <time>2013-05-17T15:50:13Z</time>
      </trkpt>
      <trkpt lat="48.74608" lon="-3.45498">
        <ele>65.51</ele>
        <time>2013-05-17T15:50:14Z</time>
      </trkpt>
      <trkpt lat="48.74612" lon="-3.45488">
        <ele>66.47</ele>
        <time>2013-05-17T15:50:16Z</time>
      </trkpt>
      <trkpt lat="48.74619" lon="-3.45472">
        <ele>67.91</ele>
        <time>2013-05-17T15:50:19Z</time>
      </trkpt>
      <trkpt lat="48.74622" lon="-3.45469">
        <ele>67.91</ele>
        <time>2013-05-17T15:50:20Z</time>
      </trkpt>
      <trkpt lat="48.74626" lon="-3.4547">
        <ele>68.39</ele>
        <time>2013-05-17T15:50:21Z</time>
      </trkpt>
      <trkpt lat="48.7463" lon="-3.45473">
        <ele>67.91</ele>
        <time>2013-05-17T15:50:22Z</time>
      </trkpt>
      <trkpt lat="48.74633" lon="-3.45477">
        <ele>68.39</ele>
        <time>2013-05-17T15:50:23Z</time>
      </trkpt>
      <trkpt lat="48.74636" lon="-3.4548">
        <ele>69.35</ele>
        <time>2013-05-17T15:50:24Z</time>
      </trkpt>
      <trkpt lat="48.74639" lon="-3.45483">
        <ele>69.35</ele>
        <time>2013-05-17T15:50:25Z</time>
      </trkpt>
      <trkpt lat="48.74658" lon="-3.45501">
        <ele>71.27</ele>
        <time>2013-05-17T15:50:35Z</time>
      </trkpt>
      <trkpt lat="48.74665" lon="-3.45513">
        <ele>72.24</ele>
        <time>2013-05-17T15:50:43Z</time>
      </trkpt>
      <trkpt lat="48.74667" lon="-3.45514">
        <ele>72.24</ele>
        <time>2013-05-17T15:50:44Z</time>
      </trkpt>
      <trkpt lat="48.74669" lon="-3.45515">
        <ele>72.72</ele>
        <time>2013-05-17T15:50:45Z</time>
      </trkpt>
      <trkpt lat="48.74672" lon="-3.45517">
        <ele>72.24</ele>
        <time>2013-05-17T15:50:46Z</time>
      </trkpt>
      <trkpt lat="48.74674" lon="-3.45519">
        <ele>72.72</ele>
        <time>2013-05-17T15:50:47Z</time>
      </trkpt>
      <trkpt lat="48.74677" lon="-3.45521">
        <ele>72.24</ele>
        <time>2013-05-17T15:50:48Z</time>
      </trkpt>
      <trkpt lat="48.7468" lon="-3.45522">
        <ele>73.2</ele>
        <time>2013-05-17T15:50:49Z</time>
      </trkpt>
      <trkpt lat="48.74682" lon="-3.4552">
        <ele>72.72</ele>
        <time>2013-05-17T15:50:50Z</time>
      </trkpt>
      <trkpt lat="48.74684" lon="-3.45518">
        <ele>73.68</ele>
        <time>2013-05-17T15:50:51Z</time>
      </trkpt>
      <trkpt lat="48.74686" lon="-3.45516">
        <ele>72.72</ele>
        <time>2013-05-17T15:50:52Z</time>
      </trkpt>
      <trkpt lat="48.74687" lon="-3.45513">
        <ele>73.68</ele>
        <time>2013-05-17T15:50:53Z</time>
      </trkpt>
      <trkpt lat="48.74688" lon="-3.45511">
        <ele>73.2</ele>
        <time>2013-05-17T15:50:54Z</time>
      </trkpt>
      <trkpt lat="48.74689" lon="-3.45509">
        <ele>73.68</ele>
        <time>2013-05-17T15:50:55Z</time>
      </trkpt>
      <trkpt lat="48.7469" lon="-3.45508">
        <ele>73.2</ele>
        <time>2013-05-17T15:50:56Z</time>
      </trkpt>
      <trkpt lat="48.74702" lon="-3.45507">
        <ele>73.2</ele>
        <time>2013-05-17T15:51:09Z</time>
      </trkpt>
      <trkpt lat="48.74706" lon="-3.45504">
        <ele>73.68</ele>
        <time>2013-05-17T15:51:26Z</time>
      </trkpt>
      <trkpt lat="48.74699" lon="-3.45506">
        <ele>74.16</ele>
        <time>2013-05-17T15:51:40Z</time>
      </trkpt>
      <trkpt lat="48.74698" lon="-3.45506">
        <ele>73.68</ele>
        <time>2013-05-17T15:51:41Z</time>
      </trkpt>
      <trkpt lat="48.74698" lon="-3.4551">
        <ele>74.16</ele>
        <time>2013-05-17T15:52:02Z</time>
      </trkpt>
      <trkpt lat="48.7471" lon="-3.45499">
        <ele>74.16</ele>
        <time>2013-05-17T15:52:23Z</time>
      </trkpt>
      <trkpt lat="48.74712" lon="-3.45495">
        <ele>74.16</ele>
        <time>2013-05-17T15:52:43Z</time>
      </trkpt>
      <trkpt lat="48.74706" lon="-3.45499">
        <ele>74.64</ele>
        <time>2013-05-17T15:53:04Z</time>
      </trkpt>
      <trkpt lat="48.74689" lon="-3.45503">
        <ele>74.64</ele>
        <time>2013-05-17T15:53:28Z</time>
      </trkpt>
      <trkpt lat="48.74688" lon="-3.45497">
        <ele>75.12</ele>
        <time>2013-05-17T15:53:44Z</time>
      </trkpt>
      <trkpt lat="48.74686" lon="-3.45498">
        <ele>74.64</ele>
        <time>2013-05-17T15:54:08Z</time>
      </trkpt>
      <trkpt lat="48.74678" lon="-3.45495">
        <ele>75.12</ele>
        <time>2013-05-17T15:54:29Z</time>
      </trkpt>
      <trkpt lat="48.74679" lon="-3.45495">
        <ele>75.12</ele>
        <time>2013-05-17T15:54:30Z</time>
      </trkpt>
      <trkpt lat="48.74681" lon="-3.45496">
        <ele>75.12</ele>
        <time>2013-05-17T15:54:31Z</time>
      </trkpt>
      <trkpt lat="48.74686" lon="-3.45503">
        <ele>75.12</ele>
        <time>2013-05-17T15:54:52Z</time>
      </trkpt>
      <trkpt lat="48.74687" lon="-3.45503">
        <ele>75.6</ele>
        <time>2013-05-17T15:55:15Z</time>
      </trkpt>
      <trkpt lat="48.74691" lon="-3.45501">
        <ele>76.56</ele>
        <time>2013-05-17T15:55:24Z</time>
      </trkpt>
      <trkpt lat="48.74694" lon="-3.45498">
        <ele>78.48</ele>
        <time>2013-05-17T15:55:45Z</time>
      </trkpt>
    </trkseg>
  </trk>
</gpx>